<?xml version="1.0" encoding="UTF-8" standalone="no" ?>
<gpx xmlns="http://www.topografix.com/GPX/1/1" xmlns:xsi="http://www.w3.org/2001/XMLSchema-instance" xsi:schemaLocation="http://www.topografix.com/GPX/1/1 http://www.topografix.com/GPX/1/1/gpx.xsd" version="1.1" creator="VisuGPX - https://www.visugpx.com">
  <metadata>
    <name>marche jmk bioul</name>
    <desc><![CDATA[Marche de Jean-Marie Keymolen du 26 février 2017 ) Bioul]]></desc>
  </metadata>
  <trk>
    <name><![CDATA[2017-02-26 16:44:16]]></name>
    <trkseg>
      <trkpt lat="50.33406" lon="4.79716">
        <ele>221.72</ele>
        <time>2017-02-26T10:01:14Z</time>
      </trkpt>
      <trkpt lat="50.33406" lon="4.79717">
        <ele>221.72</ele>
        <time>2017-02-26T10:01:15Z</time>
      </trkpt>
      <trkpt lat="50.33406" lon="4.79718">
        <ele>222.2</ele>
        <time>2017-02-26T10:01:16Z</time>
      </trkpt>
      <trkpt lat="50.33405" lon="4.79722">
        <ele>225.57</ele>
        <time>2017-02-26T10:01:19Z</time>
      </trkpt>
      <trkpt lat="50.33404" lon="4.79724">
        <ele>223.64</ele>
        <time>2017-02-26T10:01:20Z</time>
      </trkpt>
      <trkpt lat="50.33407" lon="4.79736">
        <ele>223.64</ele>
        <time>2017-02-26T10:01:28Z</time>
      </trkpt>
      <trkpt lat="50.33414" lon="4.79741">
        <ele>222.68</ele>
        <time>2017-02-26T10:01:44Z</time>
      </trkpt>
      <trkpt lat="50.33417" lon="4.79741">
        <ele>222.68</ele>
        <time>2017-02-26T10:02:10Z</time>
      </trkpt>
      <trkpt lat="50.33414" lon="4.79746">
        <ele>223.64</ele>
        <time>2017-02-26T10:02:39Z</time>
      </trkpt>
      <trkpt lat="50.3341" lon="4.79747">
        <ele>223.64</ele>
        <time>2017-02-26T10:02:53Z</time>
      </trkpt>
      <trkpt lat="50.3341" lon="4.79748">
        <ele>223.64</ele>
        <time>2017-02-26T10:03:17Z</time>
      </trkpt>
      <trkpt lat="50.33413" lon="4.7976">
        <ele>223.64</ele>
        <time>2017-02-26T10:03:33Z</time>
      </trkpt>
      <trkpt lat="50.3342" lon="4.79778">
        <ele>223.16</ele>
        <time>2017-02-26T10:03:48Z</time>
      </trkpt>
      <trkpt lat="50.33423" lon="4.79792">
        <ele>222.2</ele>
        <time>2017-02-26T10:04:02Z</time>
      </trkpt>
      <trkpt lat="50.33425" lon="4.79805">
        <ele>222.2</ele>
        <time>2017-02-26T10:04:15Z</time>
      </trkpt>
      <trkpt lat="50.33427" lon="4.79816">
        <ele>223.16</ele>
        <time>2017-02-26T10:04:31Z</time>
      </trkpt>
      <trkpt lat="50.33427" lon="4.79817">
        <ele>223.16</ele>
        <time>2017-02-26T10:04:32Z</time>
      </trkpt>
      <trkpt lat="50.33428" lon="4.79818">
        <ele>221.72</ele>
        <time>2017-02-26T10:04:38Z</time>
      </trkpt>
      <trkpt lat="50.33427" lon="4.79819">
        <ele>221.72</ele>
        <time>2017-02-26T10:04:55Z</time>
      </trkpt>
      <trkpt lat="50.33427" lon="4.79822">
        <ele>221.72</ele>
        <time>2017-02-26T10:05:11Z</time>
      </trkpt>
      <trkpt lat="50.33424" lon="4.79824">
        <ele>221.24</ele>
        <time>2017-02-26T10:05:36Z</time>
      </trkpt>
      <trkpt lat="50.33425" lon="4.79831">
        <ele>221.24</ele>
        <time>2017-02-26T10:05:49Z</time>
      </trkpt>
      <trkpt lat="50.33432" lon="4.79819">
        <ele>221.24</ele>
        <time>2017-02-26T10:06:16Z</time>
      </trkpt>
      <trkpt lat="50.33422" lon="4.79812">
        <ele>222.2</ele>
        <time>2017-02-26T10:06:36Z</time>
      </trkpt>
      <trkpt lat="50.33424" lon="4.79815">
        <ele>221.72</ele>
        <time>2017-02-26T10:06:50Z</time>
      </trkpt>
      <trkpt lat="50.3342" lon="4.79803">
        <ele>221.24</ele>
        <time>2017-02-26T10:07:03Z</time>
      </trkpt>
      <trkpt lat="50.33416" lon="4.79792">
        <ele>221.24</ele>
        <time>2017-02-26T10:07:16Z</time>
      </trkpt>
      <trkpt lat="50.33411" lon="4.79769">
        <ele>222.2</ele>
        <time>2017-02-26T10:07:32Z</time>
      </trkpt>
      <trkpt lat="50.3341" lon="4.79762">
        <ele>222.2</ele>
        <time>2017-02-26T10:07:39Z</time>
      </trkpt>
      <trkpt lat="50.33408" lon="4.79751">
        <ele>222.2</ele>
        <time>2017-02-26T10:07:51Z</time>
      </trkpt>
      <trkpt lat="50.33397" lon="4.79753">
        <ele>221.72</ele>
        <time>2017-02-26T10:08:04Z</time>
      </trkpt>
      <trkpt lat="50.33387" lon="4.79755">
        <ele>221.72</ele>
        <time>2017-02-26T10:08:17Z</time>
      </trkpt>
      <trkpt lat="50.33387" lon="4.79768">
        <ele>220.76</ele>
        <time>2017-02-26T10:08:27Z</time>
      </trkpt>
      <trkpt lat="50.33387" lon="4.7978">
        <ele>220.28</ele>
        <time>2017-02-26T10:08:34Z</time>
      </trkpt>
      <trkpt lat="50.33386" lon="4.79794">
        <ele>220.28</ele>
        <time>2017-02-26T10:08:43Z</time>
      </trkpt>
      <trkpt lat="50.33385" lon="4.79814">
        <ele>219.8</ele>
        <time>2017-02-26T10:08:56Z</time>
      </trkpt>
      <trkpt lat="50.33385" lon="4.79817">
        <ele>219.8</ele>
        <time>2017-02-26T10:08:58Z</time>
      </trkpt>
      <trkpt lat="50.33384" lon="4.7982">
        <ele>218.84</ele>
        <time>2017-02-26T10:09:00Z</time>
      </trkpt>
      <trkpt lat="50.33379" lon="4.79842">
        <ele>217.88</ele>
        <time>2017-02-26T10:09:15Z</time>
      </trkpt>
      <trkpt lat="50.3338" lon="4.79851">
        <ele>217.88</ele>
        <time>2017-02-26T10:09:36Z</time>
      </trkpt>
      <trkpt lat="50.33377" lon="4.79864">
        <ele>216.91</ele>
        <time>2017-02-26T10:09:47Z</time>
      </trkpt>
      <trkpt lat="50.33368" lon="4.7987">
        <ele>216.91</ele>
        <time>2017-02-26T10:09:55Z</time>
      </trkpt>
      <trkpt lat="50.33356" lon="4.79883">
        <ele>216.43</ele>
        <time>2017-02-26T10:10:08Z</time>
      </trkpt>
      <trkpt lat="50.33357" lon="4.79885">
        <ele>216.43</ele>
        <time>2017-02-26T10:10:24Z</time>
      </trkpt>
      <trkpt lat="50.33356" lon="4.79885">
        <ele>216.43</ele>
        <time>2017-02-26T10:10:41Z</time>
      </trkpt>
      <trkpt lat="50.33343" lon="4.79886">
        <ele>215.95</ele>
        <time>2017-02-26T10:10:55Z</time>
      </trkpt>
      <trkpt lat="50.33323" lon="4.79873">
        <ele>215.95</ele>
        <time>2017-02-26T10:11:14Z</time>
      </trkpt>
      <trkpt lat="50.33319" lon="4.79872">
        <ele>215.95</ele>
        <time>2017-02-26T10:11:17Z</time>
      </trkpt>
      <trkpt lat="50.33309" lon="4.79871">
        <ele>215.47</ele>
        <time>2017-02-26T10:11:31Z</time>
      </trkpt>
      <trkpt lat="50.33308" lon="4.79872">
        <ele>215.47</ele>
        <time>2017-02-26T10:11:33Z</time>
      </trkpt>
      <trkpt lat="50.33305" lon="4.79873">
        <ele>214.99</ele>
        <time>2017-02-26T10:11:36Z</time>
      </trkpt>
      <trkpt lat="50.33291" lon="4.79881">
        <ele>213.55</ele>
        <time>2017-02-26T10:11:50Z</time>
      </trkpt>
      <trkpt lat="50.33289" lon="4.79881">
        <ele>213.55</ele>
        <time>2017-02-26T10:11:51Z</time>
      </trkpt>
      <trkpt lat="50.3327" lon="4.79889">
        <ele>213.07</ele>
        <time>2017-02-26T10:12:08Z</time>
      </trkpt>
      <trkpt lat="50.33267" lon="4.79891">
        <ele>213.07</ele>
        <time>2017-02-26T10:12:11Z</time>
      </trkpt>
      <trkpt lat="50.3326" lon="4.79894">
        <ele>212.11</ele>
        <time>2017-02-26T10:12:16Z</time>
      </trkpt>
      <trkpt lat="50.33241" lon="4.79904">
        <ele>211.63</ele>
        <time>2017-02-26T10:12:32Z</time>
      </trkpt>
      <trkpt lat="50.33228" lon="4.79913">
        <ele>211.15</ele>
        <time>2017-02-26T10:12:46Z</time>
      </trkpt>
      <trkpt lat="50.33209" lon="4.79927">
        <ele>212.59</ele>
        <time>2017-02-26T10:13:02Z</time>
      </trkpt>
      <trkpt lat="50.33205" lon="4.79929">
        <ele>212.59</ele>
        <time>2017-02-26T10:13:06Z</time>
      </trkpt>
      <trkpt lat="50.33193" lon="4.79931">
        <ele>212.59</ele>
        <time>2017-02-26T10:13:19Z</time>
      </trkpt>
      <trkpt lat="50.33178" lon="4.79932">
        <ele>212.59</ele>
        <time>2017-02-26T10:13:34Z</time>
      </trkpt>
      <trkpt lat="50.33166" lon="4.79934">
        <ele>213.55</ele>
        <time>2017-02-26T10:13:48Z</time>
      </trkpt>
      <trkpt lat="50.33156" lon="4.79951">
        <ele>214.03</ele>
        <time>2017-02-26T10:14:02Z</time>
      </trkpt>
      <trkpt lat="50.33152" lon="4.79957">
        <ele>214.03</ele>
        <time>2017-02-26T10:14:06Z</time>
      </trkpt>
      <trkpt lat="50.3314" lon="4.79981">
        <ele>214.03</ele>
        <time>2017-02-26T10:14:22Z</time>
      </trkpt>
      <trkpt lat="50.33132" lon="4.79997">
        <ele>214.03</ele>
        <time>2017-02-26T10:14:34Z</time>
      </trkpt>
      <trkpt lat="50.33123" lon="4.80015">
        <ele>214.51</ele>
        <time>2017-02-26T10:14:48Z</time>
      </trkpt>
      <trkpt lat="50.33123" lon="4.80021">
        <ele>213.55</ele>
        <time>2017-02-26T10:14:58Z</time>
      </trkpt>
      <trkpt lat="50.3313" lon="4.80034">
        <ele>213.07</ele>
        <time>2017-02-26T10:15:10Z</time>
      </trkpt>
      <trkpt lat="50.33139" lon="4.80053">
        <ele>213.07</ele>
        <time>2017-02-26T10:15:22Z</time>
      </trkpt>
      <trkpt lat="50.33143" lon="4.80075">
        <ele>212.59</ele>
        <time>2017-02-26T10:15:35Z</time>
      </trkpt>
      <trkpt lat="50.33145" lon="4.8009">
        <ele>212.11</ele>
        <time>2017-02-26T10:15:46Z</time>
      </trkpt>
      <trkpt lat="50.33148" lon="4.80118">
        <ele>212.11</ele>
        <time>2017-02-26T10:16:00Z</time>
      </trkpt>
      <trkpt lat="50.3315" lon="4.80127">
        <ele>212.11</ele>
        <time>2017-02-26T10:16:04Z</time>
      </trkpt>
      <trkpt lat="50.33157" lon="4.80148">
        <ele>212.11</ele>
        <time>2017-02-26T10:16:16Z</time>
      </trkpt>
      <trkpt lat="50.33169" lon="4.80169">
        <ele>212.11</ele>
        <time>2017-02-26T10:16:31Z</time>
      </trkpt>
      <trkpt lat="50.33178" lon="4.80181">
        <ele>212.11</ele>
        <time>2017-02-26T10:16:45Z</time>
      </trkpt>
      <trkpt lat="50.33188" lon="4.80206">
        <ele>213.55</ele>
        <time>2017-02-26T10:17:00Z</time>
      </trkpt>
      <trkpt lat="50.33196" lon="4.80226">
        <ele>213.07</ele>
        <time>2017-02-26T10:17:12Z</time>
      </trkpt>
      <trkpt lat="50.33202" lon="4.80234">
        <ele>213.07</ele>
        <time>2017-02-26T10:17:20Z</time>
      </trkpt>
      <trkpt lat="50.33211" lon="4.80236">
        <ele>213.07</ele>
        <time>2017-02-26T10:17:33Z</time>
      </trkpt>
      <trkpt lat="50.33218" lon="4.80238">
        <ele>213.07</ele>
        <time>2017-02-26T10:17:47Z</time>
      </trkpt>
      <trkpt lat="50.33228" lon="4.80242">
        <ele>213.07</ele>
        <time>2017-02-26T10:18:00Z</time>
      </trkpt>
      <trkpt lat="50.33236" lon="4.80246">
        <ele>213.07</ele>
        <time>2017-02-26T10:18:09Z</time>
      </trkpt>
      <trkpt lat="50.33242" lon="4.80254">
        <ele>212.11</ele>
        <time>2017-02-26T10:18:22Z</time>
      </trkpt>
      <trkpt lat="50.33244" lon="4.80257">
        <ele>212.11</ele>
        <time>2017-02-26T10:18:25Z</time>
      </trkpt>
      <trkpt lat="50.33256" lon="4.80275">
        <ele>212.11</ele>
        <time>2017-02-26T10:18:40Z</time>
      </trkpt>
      <trkpt lat="50.3327" lon="4.80289">
        <ele>211.15</ele>
        <time>2017-02-26T10:18:55Z</time>
      </trkpt>
      <trkpt lat="50.3328" lon="4.80298">
        <ele>210.19</ele>
        <time>2017-02-26T10:19:07Z</time>
      </trkpt>
      <trkpt lat="50.33296" lon="4.80311">
        <ele>209.7</ele>
        <time>2017-02-26T10:19:21Z</time>
      </trkpt>
      <trkpt lat="50.3331" lon="4.8032">
        <ele>209.22</ele>
        <time>2017-02-26T10:19:34Z</time>
      </trkpt>
      <trkpt lat="50.33322" lon="4.80328">
        <ele>209.22</ele>
        <time>2017-02-26T10:19:47Z</time>
      </trkpt>
      <trkpt lat="50.33324" lon="4.80329">
        <ele>209.22</ele>
        <time>2017-02-26T10:19:49Z</time>
      </trkpt>
      <trkpt lat="50.33332" lon="4.8033">
        <ele>209.22</ele>
        <time>2017-02-26T10:19:57Z</time>
      </trkpt>
      <trkpt lat="50.33349" lon="4.8032">
        <ele>211.15</ele>
        <time>2017-02-26T10:20:12Z</time>
      </trkpt>
      <trkpt lat="50.33365" lon="4.80312">
        <ele>212.59</ele>
        <time>2017-02-26T10:20:27Z</time>
      </trkpt>
      <trkpt lat="50.33369" lon="4.80309">
        <ele>213.07</ele>
        <time>2017-02-26T10:20:32Z</time>
      </trkpt>
      <trkpt lat="50.33387" lon="4.80304">
        <ele>213.55</ele>
        <time>2017-02-26T10:20:48Z</time>
      </trkpt>
      <trkpt lat="50.33399" lon="4.80308">
        <ele>215.47</ele>
        <time>2017-02-26T10:21:02Z</time>
      </trkpt>
      <trkpt lat="50.33417" lon="4.80325">
        <ele>215.95</ele>
        <time>2017-02-26T10:21:18Z</time>
      </trkpt>
      <trkpt lat="50.33419" lon="4.80331">
        <ele>215.95</ele>
        <time>2017-02-26T10:21:22Z</time>
      </trkpt>
      <trkpt lat="50.33423" lon="4.80339">
        <ele>216.43</ele>
        <time>2017-02-26T10:21:27Z</time>
      </trkpt>
      <trkpt lat="50.3343" lon="4.80365">
        <ele>216.91</ele>
        <time>2017-02-26T10:21:42Z</time>
      </trkpt>
      <trkpt lat="50.33434" lon="4.80383">
        <ele>217.88</ele>
        <time>2017-02-26T10:21:54Z</time>
      </trkpt>
      <trkpt lat="50.3344" lon="4.80401">
        <ele>218.84</ele>
        <time>2017-02-26T10:22:06Z</time>
      </trkpt>
      <trkpt lat="50.33446" lon="4.80418">
        <ele>220.28</ele>
        <time>2017-02-26T10:22:18Z</time>
      </trkpt>
      <trkpt lat="50.33448" lon="4.80423">
        <ele>220.28</ele>
        <time>2017-02-26T10:22:21Z</time>
      </trkpt>
      <trkpt lat="50.33449" lon="4.80427">
        <ele>220.28</ele>
        <time>2017-02-26T10:22:23Z</time>
      </trkpt>
      <trkpt lat="50.33451" lon="4.80432">
        <ele>220.28</ele>
        <time>2017-02-26T10:22:26Z</time>
      </trkpt>
      <trkpt lat="50.33455" lon="4.80449">
        <ele>220.76</ele>
        <time>2017-02-26T10:22:36Z</time>
      </trkpt>
      <trkpt lat="50.33456" lon="4.80459">
        <ele>220.28</ele>
        <time>2017-02-26T10:22:42Z</time>
      </trkpt>
      <trkpt lat="50.33453" lon="4.8047">
        <ele>221.24</ele>
        <time>2017-02-26T10:22:49Z</time>
      </trkpt>
      <trkpt lat="50.33447" lon="4.80494">
        <ele>222.68</ele>
        <time>2017-02-26T10:23:04Z</time>
      </trkpt>
      <trkpt lat="50.3344" lon="4.80515">
        <ele>224.12</ele>
        <time>2017-02-26T10:23:18Z</time>
      </trkpt>
      <trkpt lat="50.33434" lon="4.80534">
        <ele>224.61</ele>
        <time>2017-02-26T10:23:31Z</time>
      </trkpt>
      <trkpt lat="50.33431" lon="4.80558">
        <ele>226.05</ele>
        <time>2017-02-26T10:23:45Z</time>
      </trkpt>
      <trkpt lat="50.3343" lon="4.80585">
        <ele>227.49</ele>
        <time>2017-02-26T10:24:02Z</time>
      </trkpt>
      <trkpt lat="50.33429" lon="4.80601">
        <ele>228.93</ele>
        <time>2017-02-26T10:24:13Z</time>
      </trkpt>
      <trkpt lat="50.33423" lon="4.80625">
        <ele>230.85</ele>
        <time>2017-02-26T10:24:28Z</time>
      </trkpt>
      <trkpt lat="50.33422" lon="4.80637">
        <ele>231.33</ele>
        <time>2017-02-26T10:24:34Z</time>
      </trkpt>
      <trkpt lat="50.33417" lon="4.80658">
        <ele>232.3</ele>
        <time>2017-02-26T10:24:47Z</time>
      </trkpt>
      <trkpt lat="50.33419" lon="4.80677">
        <ele>232.3</ele>
        <time>2017-02-26T10:25:00Z</time>
      </trkpt>
      <trkpt lat="50.33419" lon="4.80696">
        <ele>232.78</ele>
        <time>2017-02-26T10:25:12Z</time>
      </trkpt>
      <trkpt lat="50.33416" lon="4.80711">
        <ele>233.26</ele>
        <time>2017-02-26T10:25:21Z</time>
      </trkpt>
      <trkpt lat="50.33408" lon="4.80734">
        <ele>233.74</ele>
        <time>2017-02-26T10:25:36Z</time>
      </trkpt>
      <trkpt lat="50.33398" lon="4.80753">
        <ele>233.26</ele>
        <time>2017-02-26T10:25:49Z</time>
      </trkpt>
      <trkpt lat="50.33391" lon="4.80772">
        <ele>233.74</ele>
        <time>2017-02-26T10:26:03Z</time>
      </trkpt>
      <trkpt lat="50.33387" lon="4.80792">
        <ele>234.7</ele>
        <time>2017-02-26T10:26:16Z</time>
      </trkpt>
      <trkpt lat="50.33376" lon="4.80822">
        <ele>235.18</ele>
        <time>2017-02-26T10:26:34Z</time>
      </trkpt>
      <trkpt lat="50.3337" lon="4.8084">
        <ele>235.18</ele>
        <time>2017-02-26T10:26:44Z</time>
      </trkpt>
      <trkpt lat="50.33368" lon="4.80854">
        <ele>233.74</ele>
        <time>2017-02-26T10:26:51Z</time>
      </trkpt>
      <trkpt lat="50.33364" lon="4.80873">
        <ele>233.74</ele>
        <time>2017-02-26T10:27:00Z</time>
      </trkpt>
      <trkpt lat="50.33369" lon="4.80887">
        <ele>233.74</ele>
        <time>2017-02-26T10:27:10Z</time>
      </trkpt>
      <trkpt lat="50.33387" lon="4.80894">
        <ele>233.74</ele>
        <time>2017-02-26T10:27:25Z</time>
      </trkpt>
      <trkpt lat="50.33391" lon="4.80895">
        <ele>233.74</ele>
        <time>2017-02-26T10:27:28Z</time>
      </trkpt>
      <trkpt lat="50.33398" lon="4.80897">
        <ele>235.18</ele>
        <time>2017-02-26T10:27:34Z</time>
      </trkpt>
      <trkpt lat="50.334" lon="4.80899">
        <ele>235.18</ele>
        <time>2017-02-26T10:27:37Z</time>
      </trkpt>
      <trkpt lat="50.33411" lon="4.80902">
        <ele>235.66</ele>
        <time>2017-02-26T10:27:50Z</time>
      </trkpt>
      <trkpt lat="50.33427" lon="4.80914">
        <ele>236.62</ele>
        <time>2017-02-26T10:28:05Z</time>
      </trkpt>
      <trkpt lat="50.33431" lon="4.80914">
        <ele>237.1</ele>
        <time>2017-02-26T10:28:08Z</time>
      </trkpt>
      <trkpt lat="50.33449" lon="4.80923">
        <ele>238.06</ele>
        <time>2017-02-26T10:28:25Z</time>
      </trkpt>
      <trkpt lat="50.33462" lon="4.80932">
        <ele>239.99</ele>
        <time>2017-02-26T10:28:38Z</time>
      </trkpt>
      <trkpt lat="50.33462" lon="4.80937">
        <ele>239.51</ele>
        <time>2017-02-26T10:28:42Z</time>
      </trkpt>
      <trkpt lat="50.33456" lon="4.80961">
        <ele>239.51</ele>
        <time>2017-02-26T10:28:58Z</time>
      </trkpt>
      <trkpt lat="50.33455" lon="4.80988">
        <ele>239.99</ele>
        <time>2017-02-26T10:29:13Z</time>
      </trkpt>
      <trkpt lat="50.33454" lon="4.81013">
        <ele>239.99</ele>
        <time>2017-02-26T10:29:28Z</time>
      </trkpt>
      <trkpt lat="50.33452" lon="4.81041">
        <ele>240.47</ele>
        <time>2017-02-26T10:29:44Z</time>
      </trkpt>
      <trkpt lat="50.33448" lon="4.81072">
        <ele>240.47</ele>
        <time>2017-02-26T10:30:01Z</time>
      </trkpt>
      <trkpt lat="50.33446" lon="4.81079">
        <ele>240.47</ele>
        <time>2017-02-26T10:30:05Z</time>
      </trkpt>
      <trkpt lat="50.33445" lon="4.81083">
        <ele>240.95</ele>
        <time>2017-02-26T10:30:08Z</time>
      </trkpt>
      <trkpt lat="50.33444" lon="4.81089">
        <ele>240.95</ele>
        <time>2017-02-26T10:30:13Z</time>
      </trkpt>
      <trkpt lat="50.33443" lon="4.81095">
        <ele>240.95</ele>
        <time>2017-02-26T10:30:17Z</time>
      </trkpt>
      <trkpt lat="50.33437" lon="4.81121">
        <ele>240.95</ele>
        <time>2017-02-26T10:30:32Z</time>
      </trkpt>
      <trkpt lat="50.33437" lon="4.81129">
        <ele>240.95</ele>
        <time>2017-02-26T10:30:36Z</time>
      </trkpt>
      <trkpt lat="50.33438" lon="4.81132">
        <ele>240.95</ele>
        <time>2017-02-26T10:30:38Z</time>
      </trkpt>
      <trkpt lat="50.33453" lon="4.81141">
        <ele>241.91</ele>
        <time>2017-02-26T10:30:54Z</time>
      </trkpt>
      <trkpt lat="50.33462" lon="4.81146">
        <ele>242.39</ele>
        <time>2017-02-26T10:31:03Z</time>
      </trkpt>
      <trkpt lat="50.33478" lon="4.81158">
        <ele>243.35</ele>
        <time>2017-02-26T10:31:18Z</time>
      </trkpt>
      <trkpt lat="50.33491" lon="4.81168">
        <ele>243.83</ele>
        <time>2017-02-26T10:31:32Z</time>
      </trkpt>
      <trkpt lat="50.33503" lon="4.81189">
        <ele>244.79</ele>
        <time>2017-02-26T10:31:47Z</time>
      </trkpt>
      <trkpt lat="50.33502" lon="4.81199">
        <ele>244.79</ele>
        <time>2017-02-26T10:31:53Z</time>
      </trkpt>
      <trkpt lat="50.33495" lon="4.81224">
        <ele>245.27</ele>
        <time>2017-02-26T10:32:09Z</time>
      </trkpt>
      <trkpt lat="50.33488" lon="4.81249">
        <ele>245.75</ele>
        <time>2017-02-26T10:32:24Z</time>
      </trkpt>
      <trkpt lat="50.33483" lon="4.81275">
        <ele>245.75</ele>
        <time>2017-02-26T10:32:39Z</time>
      </trkpt>
      <trkpt lat="50.33479" lon="4.81299">
        <ele>245.75</ele>
        <time>2017-02-26T10:32:53Z</time>
      </trkpt>
      <trkpt lat="50.33475" lon="4.81318">
        <ele>245.75</ele>
        <time>2017-02-26T10:33:06Z</time>
      </trkpt>
      <trkpt lat="50.33474" lon="4.81333">
        <ele>245.75</ele>
        <time>2017-02-26T10:33:16Z</time>
      </trkpt>
      <trkpt lat="50.33471" lon="4.81353">
        <ele>244.31</ele>
        <time>2017-02-26T10:33:30Z</time>
      </trkpt>
      <trkpt lat="50.33468" lon="4.81367">
        <ele>243.83</ele>
        <time>2017-02-26T10:33:43Z</time>
      </trkpt>
      <trkpt lat="50.33463" lon="4.81385">
        <ele>242.87</ele>
        <time>2017-02-26T10:33:56Z</time>
      </trkpt>
      <trkpt lat="50.3346" lon="4.81414">
        <ele>242.39</ele>
        <time>2017-02-26T10:34:10Z</time>
      </trkpt>
      <trkpt lat="50.3346" lon="4.8144">
        <ele>241.91</ele>
        <time>2017-02-26T10:34:24Z</time>
      </trkpt>
      <trkpt lat="50.33459" lon="4.81441">
        <ele>241.43</ele>
        <time>2017-02-26T10:34:25Z</time>
      </trkpt>
      <trkpt lat="50.33457" lon="4.81465">
        <ele>241.43</ele>
        <time>2017-02-26T10:34:38Z</time>
      </trkpt>
      <trkpt lat="50.33454" lon="4.81483">
        <ele>241.43</ele>
        <time>2017-02-26T10:34:50Z</time>
      </trkpt>
      <trkpt lat="50.33448" lon="4.81504">
        <ele>240.47</ele>
        <time>2017-02-26T10:35:04Z</time>
      </trkpt>
      <trkpt lat="50.33444" lon="4.81527">
        <ele>238.06</ele>
        <time>2017-02-26T10:35:19Z</time>
      </trkpt>
      <trkpt lat="50.33438" lon="4.81547">
        <ele>237.1</ele>
        <time>2017-02-26T10:35:32Z</time>
      </trkpt>
      <trkpt lat="50.33431" lon="4.81566">
        <ele>236.62</ele>
        <time>2017-02-26T10:35:44Z</time>
      </trkpt>
      <trkpt lat="50.33423" lon="4.81586">
        <ele>235.18</ele>
        <time>2017-02-26T10:35:57Z</time>
      </trkpt>
      <trkpt lat="50.33415" lon="4.81609">
        <ele>234.22</ele>
        <time>2017-02-26T10:36:10Z</time>
      </trkpt>
      <trkpt lat="50.33406" lon="4.81629">
        <ele>233.26</ele>
        <time>2017-02-26T10:36:21Z</time>
      </trkpt>
      <trkpt lat="50.33398" lon="4.81648">
        <ele>232.78</ele>
        <time>2017-02-26T10:36:34Z</time>
      </trkpt>
      <trkpt lat="50.33385" lon="4.81666">
        <ele>231.81</ele>
        <time>2017-02-26T10:36:47Z</time>
      </trkpt>
      <trkpt lat="50.33373" lon="4.81685">
        <ele>231.33</ele>
        <time>2017-02-26T10:37:04Z</time>
      </trkpt>
      <trkpt lat="50.33368" lon="4.81703">
        <ele>230.37</ele>
        <time>2017-02-26T10:37:18Z</time>
      </trkpt>
      <trkpt lat="50.3336" lon="4.81719">
        <ele>229.41</ele>
        <time>2017-02-26T10:37:31Z</time>
      </trkpt>
      <trkpt lat="50.3335" lon="4.81739">
        <ele>228.45</ele>
        <time>2017-02-26T10:37:44Z</time>
      </trkpt>
      <trkpt lat="50.33336" lon="4.81765">
        <ele>227.01</ele>
        <time>2017-02-26T10:38:02Z</time>
      </trkpt>
      <trkpt lat="50.33331" lon="4.81781">
        <ele>225.09</ele>
        <time>2017-02-26T10:38:14Z</time>
      </trkpt>
      <trkpt lat="50.33326" lon="4.81798">
        <ele>224.12</ele>
        <time>2017-02-26T10:38:28Z</time>
      </trkpt>
      <trkpt lat="50.33317" lon="4.81817">
        <ele>223.64</ele>
        <time>2017-02-26T10:38:40Z</time>
      </trkpt>
      <trkpt lat="50.33309" lon="4.81833">
        <ele>223.16</ele>
        <time>2017-02-26T10:38:52Z</time>
      </trkpt>
      <trkpt lat="50.33302" lon="4.81853">
        <ele>222.2</ele>
        <time>2017-02-26T10:39:05Z</time>
      </trkpt>
      <trkpt lat="50.33291" lon="4.81883">
        <ele>222.2</ele>
        <time>2017-02-26T10:39:20Z</time>
      </trkpt>
      <trkpt lat="50.33284" lon="4.81906">
        <ele>222.2</ele>
        <time>2017-02-26T10:39:34Z</time>
      </trkpt>
      <trkpt lat="50.33273" lon="4.81933">
        <ele>224.12</ele>
        <time>2017-02-26T10:39:51Z</time>
      </trkpt>
      <trkpt lat="50.33262" lon="4.81959">
        <ele>225.57</ele>
        <time>2017-02-26T10:40:06Z</time>
      </trkpt>
      <trkpt lat="50.33254" lon="4.81979">
        <ele>224.61</ele>
        <time>2017-02-26T10:40:21Z</time>
      </trkpt>
      <trkpt lat="50.33247" lon="4.81997">
        <ele>221.72</ele>
        <time>2017-02-26T10:40:38Z</time>
      </trkpt>
      <trkpt lat="50.3324" lon="4.82017">
        <ele>219.8</ele>
        <time>2017-02-26T10:40:51Z</time>
      </trkpt>
      <trkpt lat="50.33229" lon="4.82039">
        <ele>219.32</ele>
        <time>2017-02-26T10:41:06Z</time>
      </trkpt>
      <trkpt lat="50.33225" lon="4.82046">
        <ele>219.32</ele>
        <time>2017-02-26T10:41:11Z</time>
      </trkpt>
      <trkpt lat="50.33214" lon="4.82061">
        <ele>217.88</ele>
        <time>2017-02-26T10:41:23Z</time>
      </trkpt>
      <trkpt lat="50.33199" lon="4.82082">
        <ele>216.43</ele>
        <time>2017-02-26T10:41:37Z</time>
      </trkpt>
      <trkpt lat="50.33186" lon="4.82105">
        <ele>216.43</ele>
        <time>2017-02-26T10:41:52Z</time>
      </trkpt>
      <trkpt lat="50.33175" lon="4.82122">
        <ele>215.47</ele>
        <time>2017-02-26T10:42:07Z</time>
      </trkpt>
      <trkpt lat="50.33166" lon="4.82138">
        <ele>213.55</ele>
        <time>2017-02-26T10:42:21Z</time>
      </trkpt>
      <trkpt lat="50.33159" lon="4.82154">
        <ele>212.11</ele>
        <time>2017-02-26T10:42:34Z</time>
      </trkpt>
      <trkpt lat="50.3315" lon="4.82177">
        <ele>212.11</ele>
        <time>2017-02-26T10:42:49Z</time>
      </trkpt>
      <trkpt lat="50.3314" lon="4.822">
        <ele>213.07</ele>
        <time>2017-02-26T10:43:04Z</time>
      </trkpt>
      <trkpt lat="50.33135" lon="4.82222">
        <ele>214.51</ele>
        <time>2017-02-26T10:43:17Z</time>
      </trkpt>
      <trkpt lat="50.33134" lon="4.82243">
        <ele>214.99</ele>
        <time>2017-02-26T10:43:33Z</time>
      </trkpt>
      <trkpt lat="50.33132" lon="4.82263">
        <ele>214.51</ele>
        <time>2017-02-26T10:43:48Z</time>
      </trkpt>
      <trkpt lat="50.33133" lon="4.82278">
        <ele>212.59</ele>
        <time>2017-02-26T10:44:01Z</time>
      </trkpt>
      <trkpt lat="50.33133" lon="4.82294">
        <ele>210.67</ele>
        <time>2017-02-26T10:44:11Z</time>
      </trkpt>
      <trkpt lat="50.33136" lon="4.82313">
        <ele>208.26</ele>
        <time>2017-02-26T10:44:24Z</time>
      </trkpt>
      <trkpt lat="50.33139" lon="4.8233">
        <ele>206.34</ele>
        <time>2017-02-26T10:44:37Z</time>
      </trkpt>
      <trkpt lat="50.33142" lon="4.82354">
        <ele>205.86</ele>
        <time>2017-02-26T10:44:51Z</time>
      </trkpt>
      <trkpt lat="50.33144" lon="4.82377">
        <ele>205.38</ele>
        <time>2017-02-26T10:45:02Z</time>
      </trkpt>
      <trkpt lat="50.33145" lon="4.82407">
        <ele>204.9</ele>
        <time>2017-02-26T10:45:14Z</time>
      </trkpt>
      <trkpt lat="50.33146" lon="4.82438">
        <ele>204.42</ele>
        <time>2017-02-26T10:45:29Z</time>
      </trkpt>
      <trkpt lat="50.33145" lon="4.82453">
        <ele>204.42</ele>
        <time>2017-02-26T10:45:41Z</time>
      </trkpt>
      <trkpt lat="50.33146" lon="4.82456">
        <ele>203.94</ele>
        <time>2017-02-26T10:45:43Z</time>
      </trkpt>
      <trkpt lat="50.33142" lon="4.82474">
        <ele>203.94</ele>
        <time>2017-02-26T10:45:56Z</time>
      </trkpt>
      <trkpt lat="50.33136" lon="4.82486">
        <ele>203.94</ele>
        <time>2017-02-26T10:46:06Z</time>
      </trkpt>
      <trkpt lat="50.33128" lon="4.82501">
        <ele>202.98</ele>
        <time>2017-02-26T10:46:17Z</time>
      </trkpt>
      <trkpt lat="50.33119" lon="4.82525">
        <ele>202.01</ele>
        <time>2017-02-26T10:46:30Z</time>
      </trkpt>
      <trkpt lat="50.33111" lon="4.8255">
        <ele>201.53</ele>
        <time>2017-02-26T10:46:42Z</time>
      </trkpt>
      <trkpt lat="50.33107" lon="4.82565">
        <ele>200.57</ele>
        <time>2017-02-26T10:46:54Z</time>
      </trkpt>
      <trkpt lat="50.33102" lon="4.8258">
        <ele>199.13</ele>
        <time>2017-02-26T10:47:07Z</time>
      </trkpt>
      <trkpt lat="50.33094" lon="4.82597">
        <ele>198.17</ele>
        <time>2017-02-26T10:47:20Z</time>
      </trkpt>
      <trkpt lat="50.33081" lon="4.82615">
        <ele>195.77</ele>
        <time>2017-02-26T10:47:35Z</time>
      </trkpt>
      <trkpt lat="50.3307" lon="4.82631">
        <ele>194.32</ele>
        <time>2017-02-26T10:47:47Z</time>
      </trkpt>
      <trkpt lat="50.3306" lon="4.82649">
        <ele>192.88</ele>
        <time>2017-02-26T10:48:02Z</time>
      </trkpt>
      <trkpt lat="50.3305" lon="4.82662">
        <ele>190.96</ele>
        <time>2017-02-26T10:48:15Z</time>
      </trkpt>
      <trkpt lat="50.33039" lon="4.82674">
        <ele>189.52</ele>
        <time>2017-02-26T10:48:29Z</time>
      </trkpt>
      <trkpt lat="50.33033" lon="4.82684">
        <ele>189.52</ele>
        <time>2017-02-26T10:48:44Z</time>
      </trkpt>
      <trkpt lat="50.33023" lon="4.82703">
        <ele>188.08</ele>
        <time>2017-02-26T10:48:54Z</time>
      </trkpt>
      <trkpt lat="50.33012" lon="4.82719">
        <ele>185.19</ele>
        <time>2017-02-26T10:49:08Z</time>
      </trkpt>
      <trkpt lat="50.33003" lon="4.82731">
        <ele>183.75</ele>
        <time>2017-02-26T10:49:21Z</time>
      </trkpt>
      <trkpt lat="50.32993" lon="4.82752">
        <ele>182.79</ele>
        <time>2017-02-26T10:49:35Z</time>
      </trkpt>
      <trkpt lat="50.32983" lon="4.82774">
        <ele>179.9</ele>
        <time>2017-02-26T10:49:51Z</time>
      </trkpt>
      <trkpt lat="50.32971" lon="4.82799">
        <ele>177.5</ele>
        <time>2017-02-26T10:50:06Z</time>
      </trkpt>
      <trkpt lat="50.32967" lon="4.82816">
        <ele>176.06</ele>
        <time>2017-02-26T10:50:18Z</time>
      </trkpt>
      <trkpt lat="50.32965" lon="4.82829">
        <ele>172.69</ele>
        <time>2017-02-26T10:50:30Z</time>
      </trkpt>
      <trkpt lat="50.32963" lon="4.82845">
        <ele>170.29</ele>
        <time>2017-02-26T10:50:43Z</time>
      </trkpt>
      <trkpt lat="50.32953" lon="4.82869">
        <ele>168.37</ele>
        <time>2017-02-26T10:50:57Z</time>
      </trkpt>
      <trkpt lat="50.32952" lon="4.82873">
        <ele>167.89</ele>
        <time>2017-02-26T10:50:59Z</time>
      </trkpt>
      <trkpt lat="50.32949" lon="4.8288">
        <ele>167.89</ele>
        <time>2017-02-26T10:51:03Z</time>
      </trkpt>
      <trkpt lat="50.32938" lon="4.82892">
        <ele>167.41</ele>
        <time>2017-02-26T10:51:18Z</time>
      </trkpt>
      <trkpt lat="50.32933" lon="4.82899">
        <ele>167.41</ele>
        <time>2017-02-26T10:51:33Z</time>
      </trkpt>
      <trkpt lat="50.32928" lon="4.8291">
        <ele>166.93</ele>
        <time>2017-02-26T10:51:46Z</time>
      </trkpt>
      <trkpt lat="50.32924" lon="4.82918">
        <ele>166.93</ele>
        <time>2017-02-26T10:51:56Z</time>
      </trkpt>
      <trkpt lat="50.32909" lon="4.82928">
        <ele>168.37</ele>
        <time>2017-02-26T10:52:08Z</time>
      </trkpt>
      <trkpt lat="50.32893" lon="4.82937">
        <ele>169.81</ele>
        <time>2017-02-26T10:52:23Z</time>
      </trkpt>
      <trkpt lat="50.32888" lon="4.82939">
        <ele>170.77</ele>
        <time>2017-02-26T10:52:29Z</time>
      </trkpt>
      <trkpt lat="50.32879" lon="4.82945">
        <ele>170.77</ele>
        <time>2017-02-26T10:52:37Z</time>
      </trkpt>
      <trkpt lat="50.32866" lon="4.82954">
        <ele>171.73</ele>
        <time>2017-02-26T10:52:47Z</time>
      </trkpt>
      <trkpt lat="50.32853" lon="4.82973">
        <ele>173.66</ele>
        <time>2017-02-26T10:53:01Z</time>
      </trkpt>
      <trkpt lat="50.32836" lon="4.82991">
        <ele>175.58</ele>
        <time>2017-02-26T10:53:14Z</time>
      </trkpt>
      <trkpt lat="50.32822" lon="4.83">
        <ele>176.54</ele>
        <time>2017-02-26T10:53:26Z</time>
      </trkpt>
      <trkpt lat="50.32822" lon="4.83012">
        <ele>177.5</ele>
        <time>2017-02-26T10:53:39Z</time>
      </trkpt>
      <trkpt lat="50.32822" lon="4.83035">
        <ele>177.98</ele>
        <time>2017-02-26T10:54:12Z</time>
      </trkpt>
      <trkpt lat="50.32822" lon="4.83012">
        <ele>177.98</ele>
        <time>2017-02-26T10:54:25Z</time>
      </trkpt>
      <trkpt lat="50.32822" lon="4.83011">
        <ele>177.98</ele>
        <time>2017-02-26T10:54:26Z</time>
      </trkpt>
      <trkpt lat="50.32819" lon="4.82992">
        <ele>176.54</ele>
        <time>2017-02-26T10:54:39Z</time>
      </trkpt>
      <trkpt lat="50.32816" lon="4.82984">
        <ele>177.02</ele>
        <time>2017-02-26T10:54:54Z</time>
      </trkpt>
      <trkpt lat="50.32818" lon="4.82983">
        <ele>177.02</ele>
        <time>2017-02-26T10:55:14Z</time>
      </trkpt>
      <trkpt lat="50.32819" lon="4.82985">
        <ele>177.02</ele>
        <time>2017-02-26T10:55:34Z</time>
      </trkpt>
      <trkpt lat="50.3282" lon="4.82986">
        <ele>178.94</ele>
        <time>2017-02-26T10:55:41Z</time>
      </trkpt>
      <trkpt lat="50.3282" lon="4.82987">
        <ele>177.5</ele>
        <time>2017-02-26T10:56:03Z</time>
      </trkpt>
      <trkpt lat="50.32822" lon="4.82982">
        <ele>177.5</ele>
        <time>2017-02-26T10:56:29Z</time>
      </trkpt>
      <trkpt lat="50.3282" lon="4.82977">
        <ele>177.5</ele>
        <time>2017-02-26T10:56:49Z</time>
      </trkpt>
      <trkpt lat="50.32815" lon="4.82978">
        <ele>177.5</ele>
        <time>2017-02-26T10:57:06Z</time>
      </trkpt>
      <trkpt lat="50.32818" lon="4.82985">
        <ele>177.5</ele>
        <time>2017-02-26T10:57:23Z</time>
      </trkpt>
      <trkpt lat="50.32818" lon="4.82995">
        <ele>177.98</ele>
        <time>2017-02-26T10:57:55Z</time>
      </trkpt>
      <trkpt lat="50.32815" lon="4.82997">
        <ele>177.98</ele>
        <time>2017-02-26T10:58:20Z</time>
      </trkpt>
      <trkpt lat="50.32815" lon="4.82996">
        <ele>177.98</ele>
        <time>2017-02-26T10:58:49Z</time>
      </trkpt>
      <trkpt lat="50.32815" lon="4.83003">
        <ele>177.98</ele>
        <time>2017-02-26T10:59:10Z</time>
      </trkpt>
      <trkpt lat="50.32814" lon="4.82985">
        <ele>177.98</ele>
        <time>2017-02-26T10:59:33Z</time>
      </trkpt>
      <trkpt lat="50.3282" lon="4.82985">
        <ele>177.98</ele>
        <time>2017-02-26T10:59:53Z</time>
      </trkpt>
      <trkpt lat="50.32819" lon="4.8299">
        <ele>177.98</ele>
        <time>2017-02-26T11:00:17Z</time>
      </trkpt>
      <trkpt lat="50.32821" lon="4.82984">
        <ele>177.98</ele>
        <time>2017-02-26T11:00:43Z</time>
      </trkpt>
      <trkpt lat="50.32821" lon="4.82992">
        <ele>177.98</ele>
        <time>2017-02-26T11:00:58Z</time>
      </trkpt>
      <trkpt lat="50.32824" lon="4.82992">
        <ele>177.98</ele>
        <time>2017-02-26T11:01:15Z</time>
      </trkpt>
      <trkpt lat="50.3282" lon="4.82985">
        <ele>177.98</ele>
        <time>2017-02-26T11:01:27Z</time>
      </trkpt>
      <trkpt lat="50.32814" lon="4.8298">
        <ele>177.98</ele>
        <time>2017-02-26T11:01:52Z</time>
      </trkpt>
      <trkpt lat="50.32812" lon="4.82981">
        <ele>177.98</ele>
        <time>2017-02-26T11:02:12Z</time>
      </trkpt>
      <trkpt lat="50.3281" lon="4.82978">
        <ele>177.98</ele>
        <time>2017-02-26T11:02:41Z</time>
      </trkpt>
      <trkpt lat="50.32819" lon="4.82986">
        <ele>177.98</ele>
        <time>2017-02-26T11:03:05Z</time>
      </trkpt>
      <trkpt lat="50.3282" lon="4.82989">
        <ele>178.46</ele>
        <time>2017-02-26T11:03:22Z</time>
      </trkpt>
      <trkpt lat="50.32823" lon="4.83">
        <ele>178.46</ele>
        <time>2017-02-26T11:03:35Z</time>
      </trkpt>
      <trkpt lat="50.32823" lon="4.82995">
        <ele>178.46</ele>
        <time>2017-02-26T11:03:51Z</time>
      </trkpt>
      <trkpt lat="50.32823" lon="4.8299">
        <ele>178.46</ele>
        <time>2017-02-26T11:04:06Z</time>
      </trkpt>
      <trkpt lat="50.32828" lon="4.8299">
        <ele>178.46</ele>
        <time>2017-02-26T11:04:20Z</time>
      </trkpt>
      <trkpt lat="50.32828" lon="4.82991">
        <ele>178.46</ele>
        <time>2017-02-26T11:04:34Z</time>
      </trkpt>
      <trkpt lat="50.32833" lon="4.82991">
        <ele>178.46</ele>
        <time>2017-02-26T11:04:59Z</time>
      </trkpt>
      <trkpt lat="50.32824" lon="4.82984">
        <ele>178.94</ele>
        <time>2017-02-26T11:05:15Z</time>
      </trkpt>
      <trkpt lat="50.32822" lon="4.82991">
        <ele>178.94</ele>
        <time>2017-02-26T11:05:34Z</time>
      </trkpt>
      <trkpt lat="50.32822" lon="4.82987">
        <ele>178.94</ele>
        <time>2017-02-26T11:05:40Z</time>
      </trkpt>
      <trkpt lat="50.32818" lon="4.82982">
        <ele>178.94</ele>
        <time>2017-02-26T11:05:53Z</time>
      </trkpt>
      <trkpt lat="50.3282" lon="4.82981">
        <ele>178.94</ele>
        <time>2017-02-26T11:06:12Z</time>
      </trkpt>
      <trkpt lat="50.32823" lon="4.82988">
        <ele>178.94</ele>
        <time>2017-02-26T11:06:37Z</time>
      </trkpt>
      <trkpt lat="50.32824" lon="4.82998">
        <ele>178.94</ele>
        <time>2017-02-26T11:06:53Z</time>
      </trkpt>
      <trkpt lat="50.32825" lon="4.82989">
        <ele>178.94</ele>
        <time>2017-02-26T11:07:16Z</time>
      </trkpt>
      <trkpt lat="50.32819" lon="4.82987">
        <ele>180.38</ele>
        <time>2017-02-26T11:07:30Z</time>
      </trkpt>
      <trkpt lat="50.32819" lon="4.82988">
        <ele>180.38</ele>
        <time>2017-02-26T11:07:31Z</time>
      </trkpt>
      <trkpt lat="50.3282" lon="4.82993">
        <ele>180.38</ele>
        <time>2017-02-26T11:07:49Z</time>
      </trkpt>
      <trkpt lat="50.32829" lon="4.8299">
        <ele>179.42</ele>
        <time>2017-02-26T11:08:05Z</time>
      </trkpt>
      <trkpt lat="50.32829" lon="4.82985">
        <ele>179.42</ele>
        <time>2017-02-26T11:08:22Z</time>
      </trkpt>
      <trkpt lat="50.32832" lon="4.82976">
        <ele>179.42</ele>
        <time>2017-02-26T11:08:58Z</time>
      </trkpt>
      <trkpt lat="50.32828" lon="4.82975">
        <ele>179.42</ele>
        <time>2017-02-26T11:09:18Z</time>
      </trkpt>
      <trkpt lat="50.3283" lon="4.82979">
        <ele>178.94</ele>
        <time>2017-02-26T11:09:37Z</time>
      </trkpt>
      <trkpt lat="50.32821" lon="4.82988">
        <ele>178.94</ele>
        <time>2017-02-26T11:09:55Z</time>
      </trkpt>
      <trkpt lat="50.32813" lon="4.82986">
        <ele>180.38</ele>
        <time>2017-02-26T11:10:13Z</time>
      </trkpt>
      <trkpt lat="50.32811" lon="4.82988">
        <ele>180.87</ele>
        <time>2017-02-26T11:10:38Z</time>
      </trkpt>
      <trkpt lat="50.32812" lon="4.82991">
        <ele>181.35</ele>
        <time>2017-02-26T11:11:01Z</time>
      </trkpt>
      <trkpt lat="50.32813" lon="4.83008">
        <ele>181.35</ele>
        <time>2017-02-26T11:11:32Z</time>
      </trkpt>
      <trkpt lat="50.32814" lon="4.83005">
        <ele>181.35</ele>
        <time>2017-02-26T11:11:53Z</time>
      </trkpt>
      <trkpt lat="50.32814" lon="4.83013">
        <ele>181.35</ele>
        <time>2017-02-26T11:12:07Z</time>
      </trkpt>
      <trkpt lat="50.32803" lon="4.8302">
        <ele>181.35</ele>
        <time>2017-02-26T11:12:21Z</time>
      </trkpt>
      <trkpt lat="50.32789" lon="4.83034">
        <ele>181.83</ele>
        <time>2017-02-26T11:12:35Z</time>
      </trkpt>
      <trkpt lat="50.32779" lon="4.83049">
        <ele>182.79</ele>
        <time>2017-02-26T11:12:49Z</time>
      </trkpt>
      <trkpt lat="50.32769" lon="4.83064">
        <ele>182.31</ele>
        <time>2017-02-26T11:13:01Z</time>
      </trkpt>
      <trkpt lat="50.32758" lon="4.83079">
        <ele>182.31</ele>
        <time>2017-02-26T11:13:14Z</time>
      </trkpt>
      <trkpt lat="50.3275" lon="4.83091">
        <ele>182.31</ele>
        <time>2017-02-26T11:13:25Z</time>
      </trkpt>
      <trkpt lat="50.32739" lon="4.83105">
        <ele>180.38</ele>
        <time>2017-02-26T11:13:38Z</time>
      </trkpt>
      <trkpt lat="50.3273" lon="4.83116">
        <ele>179.9</ele>
        <time>2017-02-26T11:13:51Z</time>
      </trkpt>
      <trkpt lat="50.32728" lon="4.8312">
        <ele>179.9</ele>
        <time>2017-02-26T11:13:54Z</time>
      </trkpt>
      <trkpt lat="50.32715" lon="4.83134">
        <ele>179.42</ele>
        <time>2017-02-26T11:14:07Z</time>
      </trkpt>
      <trkpt lat="50.32708" lon="4.8314">
        <ele>178.94</ele>
        <time>2017-02-26T11:14:14Z</time>
      </trkpt>
      <trkpt lat="50.32696" lon="4.83153">
        <ele>177.5</ele>
        <time>2017-02-26T11:14:27Z</time>
      </trkpt>
      <trkpt lat="50.32686" lon="4.83165">
        <ele>176.06</ele>
        <time>2017-02-26T11:14:39Z</time>
      </trkpt>
      <trkpt lat="50.32675" lon="4.83176">
        <ele>175.58</ele>
        <time>2017-02-26T11:14:50Z</time>
      </trkpt>
      <trkpt lat="50.32664" lon="4.83187">
        <ele>173.17</ele>
        <time>2017-02-26T11:15:03Z</time>
      </trkpt>
      <trkpt lat="50.32651" lon="4.83199">
        <ele>171.25</ele>
        <time>2017-02-26T11:15:17Z</time>
      </trkpt>
      <trkpt lat="50.32638" lon="4.83213">
        <ele>168.85</ele>
        <time>2017-02-26T11:15:31Z</time>
      </trkpt>
      <trkpt lat="50.32628" lon="4.83229">
        <ele>166.45</ele>
        <time>2017-02-26T11:15:44Z</time>
      </trkpt>
      <trkpt lat="50.32618" lon="4.83246">
        <ele>164.52</ele>
        <time>2017-02-26T11:15:57Z</time>
      </trkpt>
      <trkpt lat="50.32605" lon="4.83265">
        <ele>162.12</ele>
        <time>2017-02-26T11:16:11Z</time>
      </trkpt>
      <trkpt lat="50.32595" lon="4.8328">
        <ele>160.2</ele>
        <time>2017-02-26T11:16:23Z</time>
      </trkpt>
      <trkpt lat="50.32586" lon="4.83294">
        <ele>158.27</ele>
        <time>2017-02-26T11:16:36Z</time>
      </trkpt>
      <trkpt lat="50.32574" lon="4.83311">
        <ele>155.87</ele>
        <time>2017-02-26T11:16:50Z</time>
      </trkpt>
      <trkpt lat="50.32565" lon="4.83328">
        <ele>153.95</ele>
        <time>2017-02-26T11:17:04Z</time>
      </trkpt>
      <trkpt lat="50.32558" lon="4.83345">
        <ele>151.54</ele>
        <time>2017-02-26T11:17:20Z</time>
      </trkpt>
      <trkpt lat="50.32555" lon="4.83352">
        <ele>151.06</ele>
        <time>2017-02-26T11:17:33Z</time>
      </trkpt>
      <trkpt lat="50.32553" lon="4.83373">
        <ele>149.14</ele>
        <time>2017-02-26T11:17:47Z</time>
      </trkpt>
      <trkpt lat="50.32551" lon="4.83387">
        <ele>146.74</ele>
        <time>2017-02-26T11:17:59Z</time>
      </trkpt>
      <trkpt lat="50.3255" lon="4.83405">
        <ele>144.34</ele>
        <time>2017-02-26T11:18:12Z</time>
      </trkpt>
      <trkpt lat="50.32549" lon="4.83419">
        <ele>142.89</ele>
        <time>2017-02-26T11:18:23Z</time>
      </trkpt>
      <trkpt lat="50.32546" lon="4.83442">
        <ele>140.01</ele>
        <time>2017-02-26T11:18:38Z</time>
      </trkpt>
      <trkpt lat="50.32543" lon="4.83465">
        <ele>138.57</ele>
        <time>2017-02-26T11:18:50Z</time>
      </trkpt>
      <trkpt lat="50.32539" lon="4.8349">
        <ele>136.16</ele>
        <time>2017-02-26T11:19:03Z</time>
      </trkpt>
      <trkpt lat="50.32538" lon="4.83514">
        <ele>134.72</ele>
        <time>2017-02-26T11:19:16Z</time>
      </trkpt>
      <trkpt lat="50.32538" lon="4.83533">
        <ele>131.36</ele>
        <time>2017-02-26T11:19:33Z</time>
      </trkpt>
      <trkpt lat="50.32536" lon="4.83564">
        <ele>129.92</ele>
        <time>2017-02-26T11:19:48Z</time>
      </trkpt>
      <trkpt lat="50.32535" lon="4.83595">
        <ele>127.99</ele>
        <time>2017-02-26T11:20:03Z</time>
      </trkpt>
      <trkpt lat="50.32531" lon="4.83608">
        <ele>126.55</ele>
        <time>2017-02-26T11:20:15Z</time>
      </trkpt>
      <trkpt lat="50.32528" lon="4.83614">
        <ele>126.07</ele>
        <time>2017-02-26T11:20:19Z</time>
      </trkpt>
      <trkpt lat="50.32521" lon="4.83628">
        <ele>125.11</ele>
        <time>2017-02-26T11:20:27Z</time>
      </trkpt>
      <trkpt lat="50.32508" lon="4.83652">
        <ele>123.19</ele>
        <time>2017-02-26T11:20:42Z</time>
      </trkpt>
      <trkpt lat="50.32505" lon="4.83656">
        <ele>122.71</ele>
        <time>2017-02-26T11:20:46Z</time>
      </trkpt>
      <trkpt lat="50.32497" lon="4.83669">
        <ele>121.74</ele>
        <time>2017-02-26T11:20:56Z</time>
      </trkpt>
      <trkpt lat="50.32485" lon="4.83691">
        <ele>120.78</ele>
        <time>2017-02-26T11:21:11Z</time>
      </trkpt>
      <trkpt lat="50.32474" lon="4.83706">
        <ele>119.34</ele>
        <time>2017-02-26T11:21:23Z</time>
      </trkpt>
      <trkpt lat="50.32469" lon="4.83714">
        <ele>118.86</ele>
        <time>2017-02-26T11:21:30Z</time>
      </trkpt>
      <trkpt lat="50.32463" lon="4.83723">
        <ele>118.86</ele>
        <time>2017-02-26T11:21:38Z</time>
      </trkpt>
      <trkpt lat="50.3246" lon="4.83727">
        <ele>117.9</ele>
        <time>2017-02-26T11:21:41Z</time>
      </trkpt>
      <trkpt lat="50.32447" lon="4.83745">
        <ele>116.46</ele>
        <time>2017-02-26T11:21:55Z</time>
      </trkpt>
      <trkpt lat="50.32446" lon="4.83755">
        <ele>115.98</ele>
        <time>2017-02-26T11:22:08Z</time>
      </trkpt>
      <trkpt lat="50.32448" lon="4.83759">
        <ele>115.98</ele>
        <time>2017-02-26T11:22:21Z</time>
      </trkpt>
      <trkpt lat="50.32447" lon="4.83758">
        <ele>115.98</ele>
        <time>2017-02-26T11:22:36Z</time>
      </trkpt>
      <trkpt lat="50.32447" lon="4.83759">
        <ele>115.98</ele>
        <time>2017-02-26T11:22:56Z</time>
      </trkpt>
      <trkpt lat="50.32443" lon="4.83769">
        <ele>115.98</ele>
        <time>2017-02-26T11:23:08Z</time>
      </trkpt>
      <trkpt lat="50.32445" lon="4.83777">
        <ele>115.98</ele>
        <time>2017-02-26T11:23:14Z</time>
      </trkpt>
      <trkpt lat="50.32447" lon="4.83781">
        <ele>115.5</ele>
        <time>2017-02-26T11:23:24Z</time>
      </trkpt>
      <trkpt lat="50.32452" lon="4.83797">
        <ele>115.98</ele>
        <time>2017-02-26T11:23:36Z</time>
      </trkpt>
      <trkpt lat="50.32456" lon="4.83804">
        <ele>115.98</ele>
        <time>2017-02-26T11:23:43Z</time>
      </trkpt>
      <trkpt lat="50.32461" lon="4.8382">
        <ele>115.98</ele>
        <time>2017-02-26T11:23:53Z</time>
      </trkpt>
      <trkpt lat="50.32467" lon="4.83841">
        <ele>115.01</ele>
        <time>2017-02-26T11:24:06Z</time>
      </trkpt>
      <trkpt lat="50.32466" lon="4.8387">
        <ele>114.05</ele>
        <time>2017-02-26T11:24:21Z</time>
      </trkpt>
      <trkpt lat="50.3247" lon="4.83889">
        <ele>114.05</ele>
        <time>2017-02-26T11:24:37Z</time>
      </trkpt>
      <trkpt lat="50.32474" lon="4.83908">
        <ele>115.5</ele>
        <time>2017-02-26T11:24:52Z</time>
      </trkpt>
      <trkpt lat="50.32476" lon="4.83923">
        <ele>116.46</ele>
        <time>2017-02-26T11:25:05Z</time>
      </trkpt>
      <trkpt lat="50.3248" lon="4.8394">
        <ele>120.78</ele>
        <time>2017-02-26T11:25:20Z</time>
      </trkpt>
      <trkpt lat="50.32483" lon="4.83955">
        <ele>121.74</ele>
        <time>2017-02-26T11:25:37Z</time>
      </trkpt>
      <trkpt lat="50.32488" lon="4.8397">
        <ele>123.67</ele>
        <time>2017-02-26T11:25:53Z</time>
      </trkpt>
      <trkpt lat="50.32493" lon="4.83981">
        <ele>126.55</ele>
        <time>2017-02-26T11:26:08Z</time>
      </trkpt>
      <trkpt lat="50.32498" lon="4.83996">
        <ele>128.47</ele>
        <time>2017-02-26T11:26:24Z</time>
      </trkpt>
      <trkpt lat="50.32506" lon="4.84012">
        <ele>131.36</ele>
        <time>2017-02-26T11:26:38Z</time>
      </trkpt>
      <trkpt lat="50.32506" lon="4.84033">
        <ele>132.8</ele>
        <time>2017-02-26T11:26:58Z</time>
      </trkpt>
      <trkpt lat="50.32505" lon="4.84034">
        <ele>132.8</ele>
        <time>2017-02-26T11:27:14Z</time>
      </trkpt>
      <trkpt lat="50.32508" lon="4.84037">
        <ele>132.8</ele>
        <time>2017-02-26T11:27:31Z</time>
      </trkpt>
      <trkpt lat="50.32514" lon="4.84044">
        <ele>134.72</ele>
        <time>2017-02-26T11:27:39Z</time>
      </trkpt>
      <trkpt lat="50.32519" lon="4.84059">
        <ele>136.16</ele>
        <time>2017-02-26T11:27:53Z</time>
      </trkpt>
      <trkpt lat="50.32522" lon="4.84085">
        <ele>139.05</ele>
        <time>2017-02-26T11:28:10Z</time>
      </trkpt>
      <trkpt lat="50.32523" lon="4.84095">
        <ele>140.01</ele>
        <time>2017-02-26T11:28:16Z</time>
      </trkpt>
      <trkpt lat="50.32523" lon="4.84117">
        <ele>142.89</ele>
        <time>2017-02-26T11:28:31Z</time>
      </trkpt>
      <trkpt lat="50.32525" lon="4.84133">
        <ele>145.3</ele>
        <time>2017-02-26T11:28:46Z</time>
      </trkpt>
      <trkpt lat="50.32526" lon="4.84153">
        <ele>147.22</ele>
        <time>2017-02-26T11:28:59Z</time>
      </trkpt>
      <trkpt lat="50.32527" lon="4.84169">
        <ele>149.14</ele>
        <time>2017-02-26T11:29:12Z</time>
      </trkpt>
      <trkpt lat="50.32527" lon="4.84173">
        <ele>149.62</ele>
        <time>2017-02-26T11:29:14Z</time>
      </trkpt>
      <trkpt lat="50.32528" lon="4.84195">
        <ele>151.54</ele>
        <time>2017-02-26T11:29:29Z</time>
      </trkpt>
      <trkpt lat="50.32533" lon="4.84221">
        <ele>153.95</ele>
        <time>2017-02-26T11:29:43Z</time>
      </trkpt>
      <trkpt lat="50.32535" lon="4.84238">
        <ele>155.39</ele>
        <time>2017-02-26T11:29:56Z</time>
      </trkpt>
      <trkpt lat="50.32538" lon="4.84257">
        <ele>157.31</ele>
        <time>2017-02-26T11:30:09Z</time>
      </trkpt>
      <trkpt lat="50.32544" lon="4.84278">
        <ele>159.24</ele>
        <time>2017-02-26T11:30:24Z</time>
      </trkpt>
      <trkpt lat="50.32549" lon="4.84291">
        <ele>160.2</ele>
        <time>2017-02-26T11:30:35Z</time>
      </trkpt>
      <trkpt lat="50.32561" lon="4.84296">
        <ele>162.12</ele>
        <time>2017-02-26T11:30:50Z</time>
      </trkpt>
      <trkpt lat="50.32568" lon="4.84294">
        <ele>163.56</ele>
        <time>2017-02-26T11:30:58Z</time>
      </trkpt>
      <trkpt lat="50.32585" lon="4.84286">
        <ele>163.56</ele>
        <time>2017-02-26T11:31:14Z</time>
      </trkpt>
      <trkpt lat="50.32599" lon="4.8428">
        <ele>164.52</ele>
        <time>2017-02-26T11:31:28Z</time>
      </trkpt>
      <trkpt lat="50.32613" lon="4.84275">
        <ele>165.96</ele>
        <time>2017-02-26T11:31:43Z</time>
      </trkpt>
      <trkpt lat="50.32628" lon="4.84278">
        <ele>166.93</ele>
        <time>2017-02-26T11:31:57Z</time>
      </trkpt>
      <trkpt lat="50.32634" lon="4.84279">
        <ele>167.41</ele>
        <time>2017-02-26T11:32:02Z</time>
      </trkpt>
      <trkpt lat="50.32641" lon="4.84282">
        <ele>168.37</ele>
        <time>2017-02-26T11:32:08Z</time>
      </trkpt>
      <trkpt lat="50.32657" lon="4.84301">
        <ele>169.81</ele>
        <time>2017-02-26T11:32:24Z</time>
      </trkpt>
      <trkpt lat="50.32663" lon="4.84332">
        <ele>171.73</ele>
        <time>2017-02-26T11:32:41Z</time>
      </trkpt>
      <trkpt lat="50.32667" lon="4.84356">
        <ele>172.69</ele>
        <time>2017-02-26T11:32:56Z</time>
      </trkpt>
      <trkpt lat="50.32669" lon="4.84382">
        <ele>174.62</ele>
        <time>2017-02-26T11:33:12Z</time>
      </trkpt>
      <trkpt lat="50.32673" lon="4.84416">
        <ele>177.5</ele>
        <time>2017-02-26T11:33:33Z</time>
      </trkpt>
      <trkpt lat="50.32674" lon="4.84423">
        <ele>177.02</ele>
        <time>2017-02-26T11:33:37Z</time>
      </trkpt>
      <trkpt lat="50.32682" lon="4.84448">
        <ele>177.98</ele>
        <time>2017-02-26T11:33:53Z</time>
      </trkpt>
      <trkpt lat="50.32697" lon="4.84466">
        <ele>180.38</ele>
        <time>2017-02-26T11:34:12Z</time>
      </trkpt>
      <trkpt lat="50.32707" lon="4.84488">
        <ele>180.87</ele>
        <time>2017-02-26T11:34:27Z</time>
      </trkpt>
      <trkpt lat="50.32709" lon="4.8452">
        <ele>180.87</ele>
        <time>2017-02-26T11:34:46Z</time>
      </trkpt>
      <trkpt lat="50.32712" lon="4.84555">
        <ele>180.87</ele>
        <time>2017-02-26T11:35:05Z</time>
      </trkpt>
      <trkpt lat="50.32714" lon="4.84588">
        <ele>180.87</ele>
        <time>2017-02-26T11:35:23Z</time>
      </trkpt>
      <trkpt lat="50.32715" lon="4.84621">
        <ele>181.35</ele>
        <time>2017-02-26T11:35:42Z</time>
      </trkpt>
      <trkpt lat="50.32718" lon="4.84653">
        <ele>181.83</ele>
        <time>2017-02-26T11:36:00Z</time>
      </trkpt>
      <trkpt lat="50.32718" lon="4.84654">
        <ele>181.83</ele>
        <time>2017-02-26T11:36:01Z</time>
      </trkpt>
      <trkpt lat="50.32712" lon="4.84669">
        <ele>182.31</ele>
        <time>2017-02-26T11:36:10Z</time>
      </trkpt>
      <trkpt lat="50.32705" lon="4.84675">
        <ele>182.31</ele>
        <time>2017-02-26T11:36:17Z</time>
      </trkpt>
      <trkpt lat="50.32689" lon="4.84684">
        <ele>182.31</ele>
        <time>2017-02-26T11:36:33Z</time>
      </trkpt>
      <trkpt lat="50.32688" lon="4.84686">
        <ele>182.31</ele>
        <time>2017-02-26T11:36:35Z</time>
      </trkpt>
      <trkpt lat="50.32674" lon="4.84702">
        <ele>183.27</ele>
        <time>2017-02-26T11:36:50Z</time>
      </trkpt>
      <trkpt lat="50.32664" lon="4.84724">
        <ele>183.75</ele>
        <time>2017-02-26T11:37:04Z</time>
      </trkpt>
      <trkpt lat="50.32659" lon="4.84755">
        <ele>184.23</ele>
        <time>2017-02-26T11:37:22Z</time>
      </trkpt>
      <trkpt lat="50.32653" lon="4.84785">
        <ele>184.23</ele>
        <time>2017-02-26T11:37:40Z</time>
      </trkpt>
      <trkpt lat="50.32647" lon="4.84814">
        <ele>184.23</ele>
        <time>2017-02-26T11:37:57Z</time>
      </trkpt>
      <trkpt lat="50.3264" lon="4.84846">
        <ele>184.23</ele>
        <time>2017-02-26T11:38:15Z</time>
      </trkpt>
      <trkpt lat="50.32635" lon="4.84871">
        <ele>183.75</ele>
        <time>2017-02-26T11:38:31Z</time>
      </trkpt>
      <trkpt lat="50.3263" lon="4.84903">
        <ele>184.23</ele>
        <time>2017-02-26T11:38:51Z</time>
      </trkpt>
      <trkpt lat="50.32625" lon="4.84935">
        <ele>184.23</ele>
        <time>2017-02-26T11:39:09Z</time>
      </trkpt>
      <trkpt lat="50.32616" lon="4.84968">
        <ele>184.23</ele>
        <time>2017-02-26T11:39:27Z</time>
      </trkpt>
      <trkpt lat="50.32609" lon="4.85003">
        <ele>182.79</ele>
        <time>2017-02-26T11:39:46Z</time>
      </trkpt>
      <trkpt lat="50.32605" lon="4.8502">
        <ele>182.79</ele>
        <time>2017-02-26T11:39:56Z</time>
      </trkpt>
      <trkpt lat="50.32598" lon="4.85053">
        <ele>182.79</ele>
        <time>2017-02-26T11:40:15Z</time>
      </trkpt>
      <trkpt lat="50.32592" lon="4.85084">
        <ele>182.79</ele>
        <time>2017-02-26T11:40:34Z</time>
      </trkpt>
      <trkpt lat="50.32583" lon="4.85115">
        <ele>182.79</ele>
        <time>2017-02-26T11:40:51Z</time>
      </trkpt>
      <trkpt lat="50.32578" lon="4.85146">
        <ele>182.79</ele>
        <time>2017-02-26T11:41:08Z</time>
      </trkpt>
      <trkpt lat="50.32572" lon="4.85176">
        <ele>183.75</ele>
        <time>2017-02-26T11:41:27Z</time>
      </trkpt>
      <trkpt lat="50.32564" lon="4.85209">
        <ele>184.71</ele>
        <time>2017-02-26T11:41:46Z</time>
      </trkpt>
      <trkpt lat="50.32559" lon="4.85237">
        <ele>185.19</ele>
        <time>2017-02-26T11:42:03Z</time>
      </trkpt>
      <trkpt lat="50.32563" lon="4.85264">
        <ele>185.19</ele>
        <time>2017-02-26T11:42:19Z</time>
      </trkpt>
      <trkpt lat="50.32564" lon="4.85271">
        <ele>183.75</ele>
        <time>2017-02-26T11:42:23Z</time>
      </trkpt>
      <trkpt lat="50.32568" lon="4.85297">
        <ele>183.27</ele>
        <time>2017-02-26T11:42:39Z</time>
      </trkpt>
      <trkpt lat="50.32568" lon="4.85298">
        <ele>183.27</ele>
        <time>2017-02-26T11:42:40Z</time>
      </trkpt>
      <trkpt lat="50.32563" lon="4.85325">
        <ele>182.79</ele>
        <time>2017-02-26T11:42:56Z</time>
      </trkpt>
      <trkpt lat="50.3256" lon="4.85352">
        <ele>181.83</ele>
        <time>2017-02-26T11:43:11Z</time>
      </trkpt>
      <trkpt lat="50.32562" lon="4.85372">
        <ele>181.83</ele>
        <time>2017-02-26T11:43:24Z</time>
      </trkpt>
      <trkpt lat="50.32566" lon="4.85403">
        <ele>181.35</ele>
        <time>2017-02-26T11:43:40Z</time>
      </trkpt>
      <trkpt lat="50.32572" lon="4.85425">
        <ele>181.35</ele>
        <time>2017-02-26T11:43:53Z</time>
      </trkpt>
      <trkpt lat="50.32576" lon="4.85451">
        <ele>181.83</ele>
        <time>2017-02-26T11:44:09Z</time>
      </trkpt>
      <trkpt lat="50.32577" lon="4.85461">
        <ele>181.35</ele>
        <time>2017-02-26T11:44:16Z</time>
      </trkpt>
      <trkpt lat="50.3258" lon="4.85474">
        <ele>181.35</ele>
        <time>2017-02-26T11:44:31Z</time>
      </trkpt>
      <trkpt lat="50.32578" lon="4.85474">
        <ele>181.35</ele>
        <time>2017-02-26T11:44:49Z</time>
      </trkpt>
      <trkpt lat="50.32581" lon="4.85479">
        <ele>181.35</ele>
        <time>2017-02-26T11:45:04Z</time>
      </trkpt>
      <trkpt lat="50.32586" lon="4.85504">
        <ele>181.35</ele>
        <time>2017-02-26T11:45:19Z</time>
      </trkpt>
      <trkpt lat="50.32591" lon="4.85531">
        <ele>180.87</ele>
        <time>2017-02-26T11:45:34Z</time>
      </trkpt>
      <trkpt lat="50.32594" lon="4.85551">
        <ele>180.87</ele>
        <time>2017-02-26T11:45:45Z</time>
      </trkpt>
      <trkpt lat="50.32595" lon="4.85559">
        <ele>180.87</ele>
        <time>2017-02-26T11:45:49Z</time>
      </trkpt>
      <trkpt lat="50.32599" lon="4.85583">
        <ele>180.87</ele>
        <time>2017-02-26T11:46:03Z</time>
      </trkpt>
      <trkpt lat="50.32604" lon="4.85609">
        <ele>180.87</ele>
        <time>2017-02-26T11:46:18Z</time>
      </trkpt>
      <trkpt lat="50.32607" lon="4.85625">
        <ele>180.87</ele>
        <time>2017-02-26T11:46:27Z</time>
      </trkpt>
      <trkpt lat="50.3261" lon="4.85652">
        <ele>180.87</ele>
        <time>2017-02-26T11:46:43Z</time>
      </trkpt>
      <trkpt lat="50.32613" lon="4.85673">
        <ele>180.87</ele>
        <time>2017-02-26T11:46:55Z</time>
      </trkpt>
      <trkpt lat="50.32613" lon="4.85675">
        <ele>180.87</ele>
        <time>2017-02-26T11:46:56Z</time>
      </trkpt>
      <trkpt lat="50.32616" lon="4.85698">
        <ele>181.35</ele>
        <time>2017-02-26T11:47:09Z</time>
      </trkpt>
      <trkpt lat="50.32619" lon="4.85721">
        <ele>181.35</ele>
        <time>2017-02-26T11:47:23Z</time>
      </trkpt>
      <trkpt lat="50.32619" lon="4.85726">
        <ele>182.31</ele>
        <time>2017-02-26T11:47:26Z</time>
      </trkpt>
      <trkpt lat="50.32622" lon="4.85748">
        <ele>182.31</ele>
        <time>2017-02-26T11:47:40Z</time>
      </trkpt>
      <trkpt lat="50.32622" lon="4.8575">
        <ele>182.31</ele>
        <time>2017-02-26T11:47:41Z</time>
      </trkpt>
      <trkpt lat="50.32626" lon="4.85771">
        <ele>182.31</ele>
        <time>2017-02-26T11:47:53Z</time>
      </trkpt>
      <trkpt lat="50.3263" lon="4.85792">
        <ele>182.79</ele>
        <time>2017-02-26T11:48:06Z</time>
      </trkpt>
      <trkpt lat="50.32634" lon="4.85819">
        <ele>183.27</ele>
        <time>2017-02-26T11:48:21Z</time>
      </trkpt>
      <trkpt lat="50.32638" lon="4.85846">
        <ele>183.75</ele>
        <time>2017-02-26T11:48:36Z</time>
      </trkpt>
      <trkpt lat="50.32641" lon="4.85869">
        <ele>183.75</ele>
        <time>2017-02-26T11:48:49Z</time>
      </trkpt>
      <trkpt lat="50.32644" lon="4.85891">
        <ele>184.23</ele>
        <time>2017-02-26T11:49:01Z</time>
      </trkpt>
      <trkpt lat="50.32647" lon="4.85902">
        <ele>184.23</ele>
        <time>2017-02-26T11:49:07Z</time>
      </trkpt>
      <trkpt lat="50.3265" lon="4.85933">
        <ele>184.71</ele>
        <time>2017-02-26T11:49:25Z</time>
      </trkpt>
      <trkpt lat="50.32653" lon="4.85958">
        <ele>185.19</ele>
        <time>2017-02-26T11:49:39Z</time>
      </trkpt>
      <trkpt lat="50.32656" lon="4.8598">
        <ele>186.15</ele>
        <time>2017-02-26T11:49:52Z</time>
      </trkpt>
      <trkpt lat="50.32659" lon="4.86003">
        <ele>186.15</ele>
        <time>2017-02-26T11:50:05Z</time>
      </trkpt>
      <trkpt lat="50.3266" lon="4.86015">
        <ele>186.15</ele>
        <time>2017-02-26T11:50:12Z</time>
      </trkpt>
      <trkpt lat="50.32662" lon="4.86027">
        <ele>186.63</ele>
        <time>2017-02-26T11:50:19Z</time>
      </trkpt>
      <trkpt lat="50.32663" lon="4.86051">
        <ele>187.11</ele>
        <time>2017-02-26T11:50:33Z</time>
      </trkpt>
      <trkpt lat="50.32666" lon="4.86074">
        <ele>187.11</ele>
        <time>2017-02-26T11:50:48Z</time>
      </trkpt>
      <trkpt lat="50.32669" lon="4.86099">
        <ele>187.11</ele>
        <time>2017-02-26T11:51:02Z</time>
      </trkpt>
      <trkpt lat="50.32673" lon="4.86124">
        <ele>187.11</ele>
        <time>2017-02-26T11:51:15Z</time>
      </trkpt>
      <trkpt lat="50.32677" lon="4.86146">
        <ele>187.11</ele>
        <time>2017-02-26T11:51:27Z</time>
      </trkpt>
      <trkpt lat="50.32681" lon="4.86175">
        <ele>186.15</ele>
        <time>2017-02-26T11:51:42Z</time>
      </trkpt>
      <trkpt lat="50.32685" lon="4.86198">
        <ele>186.15</ele>
        <time>2017-02-26T11:51:55Z</time>
      </trkpt>
      <trkpt lat="50.32689" lon="4.86223">
        <ele>186.15</ele>
        <time>2017-02-26T11:52:09Z</time>
      </trkpt>
      <trkpt lat="50.32693" lon="4.86244">
        <ele>186.15</ele>
        <time>2017-02-26T11:52:21Z</time>
      </trkpt>
      <trkpt lat="50.32696" lon="4.86271">
        <ele>186.15</ele>
        <time>2017-02-26T11:52:36Z</time>
      </trkpt>
      <trkpt lat="50.32699" lon="4.86293">
        <ele>186.15</ele>
        <time>2017-02-26T11:52:48Z</time>
      </trkpt>
      <trkpt lat="50.32703" lon="4.86318">
        <ele>186.15</ele>
        <time>2017-02-26T11:53:02Z</time>
      </trkpt>
      <trkpt lat="50.32706" lon="4.86339">
        <ele>186.15</ele>
        <time>2017-02-26T11:53:14Z</time>
      </trkpt>
      <trkpt lat="50.3271" lon="4.86366">
        <ele>186.15</ele>
        <time>2017-02-26T11:53:29Z</time>
      </trkpt>
      <trkpt lat="50.32713" lon="4.86391">
        <ele>185.67</ele>
        <time>2017-02-26T11:53:43Z</time>
      </trkpt>
      <trkpt lat="50.32716" lon="4.86415">
        <ele>185.67</ele>
        <time>2017-02-26T11:53:57Z</time>
      </trkpt>
      <trkpt lat="50.32718" lon="4.86437">
        <ele>184.71</ele>
        <time>2017-02-26T11:54:11Z</time>
      </trkpt>
      <trkpt lat="50.32716" lon="4.86439">
        <ele>184.23</ele>
        <time>2017-02-26T11:54:28Z</time>
      </trkpt>
      <trkpt lat="50.32716" lon="4.86439">
        <ele>186.15</ele>
        <time>2017-02-26T11:54:32Z</time>
      </trkpt>
      <trkpt lat="50.32717" lon="4.86437">
        <ele>186.15</ele>
        <time>2017-02-26T11:54:56Z</time>
      </trkpt>
      <trkpt lat="50.32721" lon="4.86443">
        <ele>186.15</ele>
        <time>2017-02-26T11:55:08Z</time>
      </trkpt>
      <trkpt lat="50.32723" lon="4.86444">
        <ele>186.15</ele>
        <time>2017-02-26T11:55:11Z</time>
      </trkpt>
      <trkpt lat="50.3274" lon="4.86453">
        <ele>184.71</ele>
        <time>2017-02-26T11:55:28Z</time>
      </trkpt>
      <trkpt lat="50.32747" lon="4.86458">
        <ele>184.71</ele>
        <time>2017-02-26T11:55:35Z</time>
      </trkpt>
      <trkpt lat="50.32765" lon="4.86469">
        <ele>184.23</ele>
        <time>2017-02-26T11:55:52Z</time>
      </trkpt>
      <trkpt lat="50.32766" lon="4.8647">
        <ele>184.23</ele>
        <time>2017-02-26T11:55:53Z</time>
      </trkpt>
      <trkpt lat="50.32781" lon="4.86479">
        <ele>184.23</ele>
        <time>2017-02-26T11:56:09Z</time>
      </trkpt>
      <trkpt lat="50.32794" lon="4.86488">
        <ele>183.75</ele>
        <time>2017-02-26T11:56:23Z</time>
      </trkpt>
      <trkpt lat="50.32807" lon="4.86498">
        <ele>183.75</ele>
        <time>2017-02-26T11:56:37Z</time>
      </trkpt>
      <trkpt lat="50.32822" lon="4.86509">
        <ele>182.79</ele>
        <time>2017-02-26T11:56:52Z</time>
      </trkpt>
      <trkpt lat="50.32826" lon="4.86512">
        <ele>182.79</ele>
        <time>2017-02-26T11:56:56Z</time>
      </trkpt>
      <trkpt lat="50.32828" lon="4.86514">
        <ele>182.79</ele>
        <time>2017-02-26T11:56:58Z</time>
      </trkpt>
      <trkpt lat="50.32845" lon="4.86526">
        <ele>181.35</ele>
        <time>2017-02-26T11:57:15Z</time>
      </trkpt>
      <trkpt lat="50.32861" lon="4.86537">
        <ele>180.38</ele>
        <time>2017-02-26T11:57:30Z</time>
      </trkpt>
      <trkpt lat="50.32875" lon="4.86545">
        <ele>179.9</ele>
        <time>2017-02-26T11:57:43Z</time>
      </trkpt>
      <trkpt lat="50.3289" lon="4.86554">
        <ele>179.42</ele>
        <time>2017-02-26T11:57:58Z</time>
      </trkpt>
      <trkpt lat="50.32906" lon="4.86564">
        <ele>178.46</ele>
        <time>2017-02-26T11:58:13Z</time>
      </trkpt>
      <trkpt lat="50.32921" lon="4.86574">
        <ele>177.98</ele>
        <time>2017-02-26T11:58:27Z</time>
      </trkpt>
      <trkpt lat="50.32928" lon="4.86578">
        <ele>177.5</ele>
        <time>2017-02-26T11:58:33Z</time>
      </trkpt>
      <trkpt lat="50.32945" lon="4.8659">
        <ele>176.54</ele>
        <time>2017-02-26T11:58:49Z</time>
      </trkpt>
      <trkpt lat="50.32958" lon="4.86603">
        <ele>174.62</ele>
        <time>2017-02-26T11:59:04Z</time>
      </trkpt>
      <trkpt lat="50.32966" lon="4.8662">
        <ele>172.21</ele>
        <time>2017-02-26T11:59:20Z</time>
      </trkpt>
      <trkpt lat="50.32975" lon="4.86642">
        <ele>169.33</ele>
        <time>2017-02-26T11:59:37Z</time>
      </trkpt>
      <trkpt lat="50.32984" lon="4.86664">
        <ele>167.41</ele>
        <time>2017-02-26T11:59:53Z</time>
      </trkpt>
      <trkpt lat="50.32996" lon="4.86679">
        <ele>164.52</ele>
        <time>2017-02-26T12:00:09Z</time>
      </trkpt>
      <trkpt lat="50.33006" lon="4.86689">
        <ele>162.12</ele>
        <time>2017-02-26T12:00:23Z</time>
      </trkpt>
      <trkpt lat="50.33014" lon="4.867">
        <ele>159.72</ele>
        <time>2017-02-26T12:00:37Z</time>
      </trkpt>
      <trkpt lat="50.3303" lon="4.86716">
        <ele>157.79</ele>
        <time>2017-02-26T12:00:52Z</time>
      </trkpt>
      <trkpt lat="50.33044" lon="4.86727">
        <ele>154.91</ele>
        <time>2017-02-26T12:01:05Z</time>
      </trkpt>
      <trkpt lat="50.33054" lon="4.86734">
        <ele>152.99</ele>
        <time>2017-02-26T12:01:17Z</time>
      </trkpt>
      <trkpt lat="50.33063" lon="4.86738">
        <ele>151.54</ele>
        <time>2017-02-26T12:01:27Z</time>
      </trkpt>
      <trkpt lat="50.33068" lon="4.86739">
        <ele>150.58</ele>
        <time>2017-02-26T12:01:31Z</time>
      </trkpt>
      <trkpt lat="50.3309" lon="4.86738">
        <ele>148.18</ele>
        <time>2017-02-26T12:01:46Z</time>
      </trkpt>
      <trkpt lat="50.33104" lon="4.86726">
        <ele>146.26</ele>
        <time>2017-02-26T12:01:58Z</time>
      </trkpt>
      <trkpt lat="50.33119" lon="4.86709">
        <ele>143.85</ele>
        <time>2017-02-26T12:02:13Z</time>
      </trkpt>
      <trkpt lat="50.33124" lon="4.86703">
        <ele>143.37</ele>
        <time>2017-02-26T12:02:18Z</time>
      </trkpt>
      <trkpt lat="50.33136" lon="4.86689">
        <ele>141.45</ele>
        <time>2017-02-26T12:02:32Z</time>
      </trkpt>
      <trkpt lat="50.33147" lon="4.86676">
        <ele>139.05</ele>
        <time>2017-02-26T12:02:45Z</time>
      </trkpt>
      <trkpt lat="50.33159" lon="4.8666">
        <ele>137.13</ele>
        <time>2017-02-26T12:02:59Z</time>
      </trkpt>
      <trkpt lat="50.33165" lon="4.86652">
        <ele>136.16</ele>
        <time>2017-02-26T12:03:06Z</time>
      </trkpt>
      <trkpt lat="50.33169" lon="4.86646">
        <ele>135.2</ele>
        <time>2017-02-26T12:03:11Z</time>
      </trkpt>
      <trkpt lat="50.3317" lon="4.86643">
        <ele>135.2</ele>
        <time>2017-02-26T12:03:13Z</time>
      </trkpt>
      <trkpt lat="50.33183" lon="4.86629">
        <ele>132.8</ele>
        <time>2017-02-26T12:03:27Z</time>
      </trkpt>
      <trkpt lat="50.33195" lon="4.86615">
        <ele>130.88</ele>
        <time>2017-02-26T12:03:40Z</time>
      </trkpt>
      <trkpt lat="50.33206" lon="4.86599">
        <ele>129.43</ele>
        <time>2017-02-26T12:03:52Z</time>
      </trkpt>
      <trkpt lat="50.33216" lon="4.86584">
        <ele>128.47</ele>
        <time>2017-02-26T12:04:04Z</time>
      </trkpt>
      <trkpt lat="50.33226" lon="4.86573">
        <ele>127.03</ele>
        <time>2017-02-26T12:04:16Z</time>
      </trkpt>
      <trkpt lat="50.33228" lon="4.86568">
        <ele>126.55</ele>
        <time>2017-02-26T12:04:28Z</time>
      </trkpt>
      <trkpt lat="50.33224" lon="4.86566">
        <ele>126.55</ele>
        <time>2017-02-26T12:04:43Z</time>
      </trkpt>
      <trkpt lat="50.33225" lon="4.86564">
        <ele>126.55</ele>
        <time>2017-02-26T12:05:03Z</time>
      </trkpt>
      <trkpt lat="50.33227" lon="4.8656">
        <ele>126.07</ele>
        <time>2017-02-26T12:05:21Z</time>
      </trkpt>
      <trkpt lat="50.33232" lon="4.86553">
        <ele>126.07</ele>
        <time>2017-02-26T12:05:30Z</time>
      </trkpt>
      <trkpt lat="50.33234" lon="4.86546">
        <ele>125.11</ele>
        <time>2017-02-26T12:05:36Z</time>
      </trkpt>
      <trkpt lat="50.33241" lon="4.86524">
        <ele>123.19</ele>
        <time>2017-02-26T12:05:52Z</time>
      </trkpt>
      <trkpt lat="50.33242" lon="4.86517">
        <ele>122.71</ele>
        <time>2017-02-26T12:05:56Z</time>
      </trkpt>
      <trkpt lat="50.33246" lon="4.86497">
        <ele>120.78</ele>
        <time>2017-02-26T12:06:08Z</time>
      </trkpt>
      <trkpt lat="50.33248" lon="4.86473">
        <ele>118.38</ele>
        <time>2017-02-26T12:06:23Z</time>
      </trkpt>
      <trkpt lat="50.33249" lon="4.86465">
        <ele>116.94</ele>
        <time>2017-02-26T12:06:28Z</time>
      </trkpt>
      <trkpt lat="50.33254" lon="4.86457">
        <ele>115.01</ele>
        <time>2017-02-26T12:06:35Z</time>
      </trkpt>
      <trkpt lat="50.33261" lon="4.8645">
        <ele>114.05</ele>
        <time>2017-02-26T12:06:44Z</time>
      </trkpt>
      <trkpt lat="50.33276" lon="4.86443">
        <ele>112.61</ele>
        <time>2017-02-26T12:07:00Z</time>
      </trkpt>
      <trkpt lat="50.3328" lon="4.86441">
        <ele>112.61</ele>
        <time>2017-02-26T12:07:04Z</time>
      </trkpt>
      <trkpt lat="50.33288" lon="4.86442">
        <ele>112.13</ele>
        <time>2017-02-26T12:07:09Z</time>
      </trkpt>
      <trkpt lat="50.33295" lon="4.86447">
        <ele>111.65</ele>
        <time>2017-02-26T12:07:17Z</time>
      </trkpt>
      <trkpt lat="50.33302" lon="4.86463">
        <ele>110.21</ele>
        <time>2017-02-26T12:07:29Z</time>
      </trkpt>
      <trkpt lat="50.33304" lon="4.8647">
        <ele>109.73</ele>
        <time>2017-02-26T12:07:33Z</time>
      </trkpt>
      <trkpt lat="50.33313" lon="4.86489">
        <ele>108.77</ele>
        <time>2017-02-26T12:07:46Z</time>
      </trkpt>
      <trkpt lat="50.33323" lon="4.86504">
        <ele>107.81</ele>
        <time>2017-02-26T12:07:57Z</time>
      </trkpt>
      <trkpt lat="50.33331" lon="4.86518">
        <ele>106.84</ele>
        <time>2017-02-26T12:08:06Z</time>
      </trkpt>
      <trkpt lat="50.33339" lon="4.86524">
        <ele>106.36</ele>
        <time>2017-02-26T12:08:14Z</time>
      </trkpt>
      <trkpt lat="50.33345" lon="4.86536">
        <ele>105.88</ele>
        <time>2017-02-26T12:08:23Z</time>
      </trkpt>
      <trkpt lat="50.33346" lon="4.86543">
        <ele>105.4</ele>
        <time>2017-02-26T12:08:28Z</time>
      </trkpt>
      <trkpt lat="50.33354" lon="4.86548">
        <ele>104.92</ele>
        <time>2017-02-26T12:08:34Z</time>
      </trkpt>
      <trkpt lat="50.33371" lon="4.86559">
        <ele>104.44</ele>
        <time>2017-02-26T12:08:50Z</time>
      </trkpt>
      <trkpt lat="50.33373" lon="4.8656">
        <ele>103.96</ele>
        <time>2017-02-26T12:08:52Z</time>
      </trkpt>
      <trkpt lat="50.33378" lon="4.86562">
        <ele>103.48</ele>
        <time>2017-02-26T12:08:56Z</time>
      </trkpt>
      <trkpt lat="50.33381" lon="4.86565">
        <ele>103</ele>
        <time>2017-02-26T12:08:59Z</time>
      </trkpt>
      <trkpt lat="50.33387" lon="4.8657">
        <ele>102.52</ele>
        <time>2017-02-26T12:09:05Z</time>
      </trkpt>
      <trkpt lat="50.334" lon="4.86583">
        <ele>101.56</ele>
        <time>2017-02-26T12:09:19Z</time>
      </trkpt>
      <trkpt lat="50.33401" lon="4.86584">
        <ele>101.08</ele>
        <time>2017-02-26T12:09:20Z</time>
      </trkpt>
      <trkpt lat="50.33411" lon="4.866">
        <ele>100.11</ele>
        <time>2017-02-26T12:09:30Z</time>
      </trkpt>
      <trkpt lat="50.33422" lon="4.86614">
        <ele>99.15</ele>
        <time>2017-02-26T12:09:41Z</time>
      </trkpt>
      <trkpt lat="50.33429" lon="4.86621">
        <ele>99.15</ele>
        <time>2017-02-26T12:09:48Z</time>
      </trkpt>
      <trkpt lat="50.3344" lon="4.8663">
        <ele>97.71</ele>
        <time>2017-02-26T12:09:59Z</time>
      </trkpt>
      <trkpt lat="50.33442" lon="4.86631">
        <ele>97.71</ele>
        <time>2017-02-26T12:10:01Z</time>
      </trkpt>
      <trkpt lat="50.33454" lon="4.86639">
        <ele>96.75</ele>
        <time>2017-02-26T12:10:13Z</time>
      </trkpt>
      <trkpt lat="50.33468" lon="4.86645">
        <ele>95.79</ele>
        <time>2017-02-26T12:10:25Z</time>
      </trkpt>
      <trkpt lat="50.33482" lon="4.86653">
        <ele>94.35</ele>
        <time>2017-02-26T12:10:38Z</time>
      </trkpt>
      <trkpt lat="50.33493" lon="4.86662">
        <ele>93.87</ele>
        <time>2017-02-26T12:10:50Z</time>
      </trkpt>
      <trkpt lat="50.33508" lon="4.86669">
        <ele>92.42</ele>
        <time>2017-02-26T12:11:02Z</time>
      </trkpt>
      <trkpt lat="50.33522" lon="4.86679">
        <ele>91.46</ele>
        <time>2017-02-26T12:11:17Z</time>
      </trkpt>
      <trkpt lat="50.33536" lon="4.86687">
        <ele>91.46</ele>
        <time>2017-02-26T12:11:30Z</time>
      </trkpt>
      <trkpt lat="50.33549" lon="4.86694">
        <ele>90.5</ele>
        <time>2017-02-26T12:11:43Z</time>
      </trkpt>
      <trkpt lat="50.33566" lon="4.86701">
        <ele>89.54</ele>
        <time>2017-02-26T12:11:59Z</time>
      </trkpt>
      <trkpt lat="50.33585" lon="4.86712">
        <ele>89.06</ele>
        <time>2017-02-26T12:12:16Z</time>
      </trkpt>
      <trkpt lat="50.33604" lon="4.86722">
        <ele>88.58</ele>
        <time>2017-02-26T12:12:32Z</time>
      </trkpt>
      <trkpt lat="50.33614" lon="4.86723">
        <ele>88.1</ele>
        <time>2017-02-26T12:12:40Z</time>
      </trkpt>
      <trkpt lat="50.33621" lon="4.86713">
        <ele>87.62</ele>
        <time>2017-02-26T12:12:47Z</time>
      </trkpt>
      <trkpt lat="50.33625" lon="4.86692">
        <ele>87.62</ele>
        <time>2017-02-26T12:13:00Z</time>
      </trkpt>
      <trkpt lat="50.33625" lon="4.8669">
        <ele>87.62</ele>
        <time>2017-02-26T12:13:01Z</time>
      </trkpt>
      <trkpt lat="50.33633" lon="4.86665">
        <ele>87.62</ele>
        <time>2017-02-26T12:13:15Z</time>
      </trkpt>
      <trkpt lat="50.33639" lon="4.86643">
        <ele>87.62</ele>
        <time>2017-02-26T12:13:30Z</time>
      </trkpt>
      <trkpt lat="50.33645" lon="4.86627">
        <ele>89.06</ele>
        <time>2017-02-26T12:13:40Z</time>
      </trkpt>
      <trkpt lat="50.33647" lon="4.86623">
        <ele>89.06</ele>
        <time>2017-02-26T12:13:42Z</time>
      </trkpt>
      <trkpt lat="50.3365" lon="4.86617">
        <ele>89.06</ele>
        <time>2017-02-26T12:13:46Z</time>
      </trkpt>
      <trkpt lat="50.33654" lon="4.86606">
        <ele>89.06</ele>
        <time>2017-02-26T12:13:53Z</time>
      </trkpt>
      <trkpt lat="50.33664" lon="4.86585">
        <ele>89.06</ele>
        <time>2017-02-26T12:14:07Z</time>
      </trkpt>
      <trkpt lat="50.33669" lon="4.86566">
        <ele>89.06</ele>
        <time>2017-02-26T12:14:19Z</time>
      </trkpt>
      <trkpt lat="50.33675" lon="4.86548">
        <ele>89.06</ele>
        <time>2017-02-26T12:14:30Z</time>
      </trkpt>
      <trkpt lat="50.33677" lon="4.86526">
        <ele>89.06</ele>
        <time>2017-02-26T12:14:45Z</time>
      </trkpt>
      <trkpt lat="50.33672" lon="4.86517">
        <ele>90.5</ele>
        <time>2017-02-26T12:14:57Z</time>
      </trkpt>
      <trkpt lat="50.33671" lon="4.86518">
        <ele>90.98</ele>
        <time>2017-02-26T12:15:09Z</time>
      </trkpt>
      <trkpt lat="50.33672" lon="4.86505">
        <ele>91.46</ele>
        <time>2017-02-26T12:15:16Z</time>
      </trkpt>
      <trkpt lat="50.33676" lon="4.86482">
        <ele>92.42</ele>
        <time>2017-02-26T12:15:30Z</time>
      </trkpt>
      <trkpt lat="50.33681" lon="4.86456">
        <ele>93.87</ele>
        <time>2017-02-26T12:15:45Z</time>
      </trkpt>
      <trkpt lat="50.33688" lon="4.86425">
        <ele>95.31</ele>
        <time>2017-02-26T12:15:58Z</time>
      </trkpt>
      <trkpt lat="50.33693" lon="4.86406">
        <ele>96.27</ele>
        <time>2017-02-26T12:16:09Z</time>
      </trkpt>
      <trkpt lat="50.33696" lon="4.86387">
        <ele>97.23</ele>
        <time>2017-02-26T12:16:22Z</time>
      </trkpt>
      <trkpt lat="50.337" lon="4.86371">
        <ele>98.19</ele>
        <time>2017-02-26T12:16:35Z</time>
      </trkpt>
      <trkpt lat="50.33706" lon="4.86352">
        <ele>99.63</ele>
        <time>2017-02-26T12:16:49Z</time>
      </trkpt>
      <trkpt lat="50.33711" lon="4.86331">
        <ele>101.08</ele>
        <time>2017-02-26T12:17:02Z</time>
      </trkpt>
      <trkpt lat="50.33718" lon="4.8631">
        <ele>102.04</ele>
        <time>2017-02-26T12:17:15Z</time>
      </trkpt>
      <trkpt lat="50.33725" lon="4.86286">
        <ele>103.48</ele>
        <time>2017-02-26T12:17:30Z</time>
      </trkpt>
      <trkpt lat="50.3373" lon="4.86271">
        <ele>103.96</ele>
        <time>2017-02-26T12:17:43Z</time>
      </trkpt>
      <trkpt lat="50.3374" lon="4.86247">
        <ele>105.4</ele>
        <time>2017-02-26T12:17:58Z</time>
      </trkpt>
      <trkpt lat="50.33745" lon="4.86223">
        <ele>106.36</ele>
        <time>2017-02-26T12:18:13Z</time>
      </trkpt>
      <trkpt lat="50.33745" lon="4.86194">
        <ele>107.81</ele>
        <time>2017-02-26T12:18:28Z</time>
      </trkpt>
      <trkpt lat="50.33744" lon="4.86168">
        <ele>108.77</ele>
        <time>2017-02-26T12:18:45Z</time>
      </trkpt>
      <trkpt lat="50.33745" lon="4.86156">
        <ele>109.73</ele>
        <time>2017-02-26T12:18:52Z</time>
      </trkpt>
      <trkpt lat="50.33746" lon="4.8613">
        <ele>110.69</ele>
        <time>2017-02-26T12:19:07Z</time>
      </trkpt>
      <trkpt lat="50.33745" lon="4.86102">
        <ele>111.17</ele>
        <time>2017-02-26T12:19:23Z</time>
      </trkpt>
      <trkpt lat="50.33747" lon="4.86079">
        <ele>111.65</ele>
        <time>2017-02-26T12:19:37Z</time>
      </trkpt>
      <trkpt lat="50.33751" lon="4.86057">
        <ele>112.13</ele>
        <time>2017-02-26T12:19:51Z</time>
      </trkpt>
      <trkpt lat="50.33758" lon="4.86025">
        <ele>113.09</ele>
        <time>2017-02-26T12:20:08Z</time>
      </trkpt>
      <trkpt lat="50.33763" lon="4.85995">
        <ele>113.57</ele>
        <time>2017-02-26T12:20:24Z</time>
      </trkpt>
      <trkpt lat="50.33763" lon="4.85984">
        <ele>113.57</ele>
        <time>2017-02-26T12:20:30Z</time>
      </trkpt>
      <trkpt lat="50.33763" lon="4.85972">
        <ele>114.05</ele>
        <time>2017-02-26T12:20:36Z</time>
      </trkpt>
      <trkpt lat="50.33761" lon="4.85938">
        <ele>114.53</ele>
        <time>2017-02-26T12:20:53Z</time>
      </trkpt>
      <trkpt lat="50.33755" lon="4.85909">
        <ele>114.53</ele>
        <time>2017-02-26T12:21:09Z</time>
      </trkpt>
      <trkpt lat="50.33753" lon="4.85888">
        <ele>115.01</ele>
        <time>2017-02-26T12:21:22Z</time>
      </trkpt>
      <trkpt lat="50.33749" lon="4.85868">
        <ele>115.01</ele>
        <time>2017-02-26T12:21:36Z</time>
      </trkpt>
      <trkpt lat="50.33745" lon="4.85837">
        <ele>115.01</ele>
        <time>2017-02-26T12:21:51Z</time>
      </trkpt>
      <trkpt lat="50.33746" lon="4.8583">
        <ele>115.01</ele>
        <time>2017-02-26T12:21:55Z</time>
      </trkpt>
      <trkpt lat="50.33746" lon="4.85825">
        <ele>115.01</ele>
        <time>2017-02-26T12:21:57Z</time>
      </trkpt>
      <trkpt lat="50.33747" lon="4.85805">
        <ele>114.05</ele>
        <time>2017-02-26T12:22:10Z</time>
      </trkpt>
      <trkpt lat="50.33744" lon="4.8578">
        <ele>113.57</ele>
        <time>2017-02-26T12:22:26Z</time>
      </trkpt>
      <trkpt lat="50.33744" lon="4.85762">
        <ele>113.57</ele>
        <time>2017-02-26T12:22:39Z</time>
      </trkpt>
      <trkpt lat="50.33747" lon="4.85737">
        <ele>113.09</ele>
        <time>2017-02-26T12:22:52Z</time>
      </trkpt>
      <trkpt lat="50.33751" lon="4.85708">
        <ele>113.09</ele>
        <time>2017-02-26T12:23:07Z</time>
      </trkpt>
      <trkpt lat="50.33753" lon="4.85691">
        <ele>113.09</ele>
        <time>2017-02-26T12:23:18Z</time>
      </trkpt>
      <trkpt lat="50.33753" lon="4.85681">
        <ele>114.53</ele>
        <time>2017-02-26T12:23:24Z</time>
      </trkpt>
      <trkpt lat="50.33757" lon="4.85662">
        <ele>115.01</ele>
        <time>2017-02-26T12:23:37Z</time>
      </trkpt>
      <trkpt lat="50.33759" lon="4.85653">
        <ele>115.01</ele>
        <time>2017-02-26T12:23:43Z</time>
      </trkpt>
      <trkpt lat="50.33759" lon="4.8565">
        <ele>115.01</ele>
        <time>2017-02-26T12:23:45Z</time>
      </trkpt>
      <trkpt lat="50.33762" lon="4.85641">
        <ele>115.5</ele>
        <time>2017-02-26T12:23:51Z</time>
      </trkpt>
      <trkpt lat="50.33763" lon="4.85638">
        <ele>115.5</ele>
        <time>2017-02-26T12:23:53Z</time>
      </trkpt>
      <trkpt lat="50.33769" lon="4.85614">
        <ele>116.46</ele>
        <time>2017-02-26T12:24:08Z</time>
      </trkpt>
      <trkpt lat="50.33776" lon="4.85591">
        <ele>116.94</ele>
        <time>2017-02-26T12:24:22Z</time>
      </trkpt>
      <trkpt lat="50.33782" lon="4.85568">
        <ele>117.42</ele>
        <time>2017-02-26T12:24:36Z</time>
      </trkpt>
      <trkpt lat="50.3379" lon="4.8555">
        <ele>117.9</ele>
        <time>2017-02-26T12:24:47Z</time>
      </trkpt>
      <trkpt lat="50.33798" lon="4.85531">
        <ele>118.86</ele>
        <time>2017-02-26T12:24:59Z</time>
      </trkpt>
      <trkpt lat="50.33806" lon="4.85511">
        <ele>119.82</ele>
        <time>2017-02-26T12:25:13Z</time>
      </trkpt>
      <trkpt lat="50.33813" lon="4.85491">
        <ele>120.78</ele>
        <time>2017-02-26T12:25:28Z</time>
      </trkpt>
      <trkpt lat="50.33813" lon="4.85481">
        <ele>121.74</ele>
        <time>2017-02-26T12:25:41Z</time>
      </trkpt>
      <trkpt lat="50.33815" lon="4.8547">
        <ele>122.71</ele>
        <time>2017-02-26T12:25:54Z</time>
      </trkpt>
      <trkpt lat="50.33815" lon="4.85465">
        <ele>123.19</ele>
        <time>2017-02-26T12:26:09Z</time>
      </trkpt>
      <trkpt lat="50.33815" lon="4.85473">
        <ele>122.71</ele>
        <time>2017-02-26T12:26:37Z</time>
      </trkpt>
      <trkpt lat="50.33817" lon="4.85473">
        <ele>123.19</ele>
        <time>2017-02-26T12:27:03Z</time>
      </trkpt>
      <trkpt lat="50.33818" lon="4.85474">
        <ele>123.19</ele>
        <time>2017-02-26T12:27:21Z</time>
      </trkpt>
      <trkpt lat="50.3382" lon="4.85472">
        <ele>123.19</ele>
        <time>2017-02-26T12:27:50Z</time>
      </trkpt>
      <trkpt lat="50.33823" lon="4.85475">
        <ele>123.19</ele>
        <time>2017-02-26T12:28:24Z</time>
      </trkpt>
      <trkpt lat="50.33827" lon="4.85454">
        <ele>124.63</ele>
        <time>2017-02-26T12:28:40Z</time>
      </trkpt>
      <trkpt lat="50.33831" lon="4.85435">
        <ele>125.59</ele>
        <time>2017-02-26T12:28:55Z</time>
      </trkpt>
      <trkpt lat="50.33836" lon="4.85416">
        <ele>127.51</ele>
        <time>2017-02-26T12:29:10Z</time>
      </trkpt>
      <trkpt lat="50.33842" lon="4.85397">
        <ele>129.43</ele>
        <time>2017-02-26T12:29:29Z</time>
      </trkpt>
      <trkpt lat="50.33846" lon="4.85383">
        <ele>130.4</ele>
        <time>2017-02-26T12:29:43Z</time>
      </trkpt>
      <trkpt lat="50.33851" lon="4.85368">
        <ele>131.36</ele>
        <time>2017-02-26T12:29:57Z</time>
      </trkpt>
      <trkpt lat="50.33861" lon="4.85348">
        <ele>131.84</ele>
        <time>2017-02-26T12:30:14Z</time>
      </trkpt>
      <trkpt lat="50.33866" lon="4.85332">
        <ele>133.76</ele>
        <time>2017-02-26T12:30:29Z</time>
      </trkpt>
      <trkpt lat="50.33874" lon="4.85308">
        <ele>134.72</ele>
        <time>2017-02-26T12:30:43Z</time>
      </trkpt>
      <trkpt lat="50.33879" lon="4.85296">
        <ele>135.2</ele>
        <time>2017-02-26T12:30:57Z</time>
      </trkpt>
      <trkpt lat="50.33886" lon="4.85282">
        <ele>136.16</ele>
        <time>2017-02-26T12:31:10Z</time>
      </trkpt>
      <trkpt lat="50.33893" lon="4.85271">
        <ele>137.13</ele>
        <time>2017-02-26T12:31:21Z</time>
      </trkpt>
      <trkpt lat="50.33898" lon="4.85259">
        <ele>139.05</ele>
        <time>2017-02-26T12:31:35Z</time>
      </trkpt>
      <trkpt lat="50.33903" lon="4.8525">
        <ele>140.49</ele>
        <time>2017-02-26T12:31:46Z</time>
      </trkpt>
      <trkpt lat="50.33907" lon="4.85241">
        <ele>142.41</ele>
        <time>2017-02-26T12:32:01Z</time>
      </trkpt>
      <trkpt lat="50.33916" lon="4.85224">
        <ele>144.82</ele>
        <time>2017-02-26T12:32:15Z</time>
      </trkpt>
      <trkpt lat="50.33922" lon="4.85208">
        <ele>146.74</ele>
        <time>2017-02-26T12:32:29Z</time>
      </trkpt>
      <trkpt lat="50.33933" lon="4.85193">
        <ele>148.66</ele>
        <time>2017-02-26T12:32:43Z</time>
      </trkpt>
      <trkpt lat="50.33944" lon="4.85181">
        <ele>151.54</ele>
        <time>2017-02-26T12:33:01Z</time>
      </trkpt>
      <trkpt lat="50.33957" lon="4.85172">
        <ele>154.91</ele>
        <time>2017-02-26T12:33:19Z</time>
      </trkpt>
      <trkpt lat="50.33968" lon="4.85162">
        <ele>157.31</ele>
        <time>2017-02-26T12:33:35Z</time>
      </trkpt>
      <trkpt lat="50.33977" lon="4.8515">
        <ele>159.24</ele>
        <time>2017-02-26T12:33:50Z</time>
      </trkpt>
      <trkpt lat="50.33985" lon="4.85142">
        <ele>160.2</ele>
        <time>2017-02-26T12:34:00Z</time>
      </trkpt>
      <trkpt lat="50.33995" lon="4.8513">
        <ele>161.16</ele>
        <time>2017-02-26T12:34:15Z</time>
      </trkpt>
      <trkpt lat="50.34003" lon="4.85111">
        <ele>162.12</ele>
        <time>2017-02-26T12:34:30Z</time>
      </trkpt>
      <trkpt lat="50.34011" lon="4.8509">
        <ele>162.6</ele>
        <time>2017-02-26T12:34:47Z</time>
      </trkpt>
      <trkpt lat="50.34017" lon="4.85071">
        <ele>163.08</ele>
        <time>2017-02-26T12:35:00Z</time>
      </trkpt>
      <trkpt lat="50.34025" lon="4.85047">
        <ele>163.56</ele>
        <time>2017-02-26T12:35:17Z</time>
      </trkpt>
      <trkpt lat="50.3403" lon="4.85037">
        <ele>163.56</ele>
        <time>2017-02-26T12:35:24Z</time>
      </trkpt>
      <trkpt lat="50.34042" lon="4.8502">
        <ele>164.04</ele>
        <time>2017-02-26T12:35:37Z</time>
      </trkpt>
      <trkpt lat="50.34056" lon="4.85">
        <ele>164.04</ele>
        <time>2017-02-26T12:35:50Z</time>
      </trkpt>
      <trkpt lat="50.34065" lon="4.84981">
        <ele>164.04</ele>
        <time>2017-02-26T12:36:04Z</time>
      </trkpt>
      <trkpt lat="50.34076" lon="4.84963">
        <ele>164.04</ele>
        <time>2017-02-26T12:36:17Z</time>
      </trkpt>
      <trkpt lat="50.34086" lon="4.84945">
        <ele>164.04</ele>
        <time>2017-02-26T12:36:29Z</time>
      </trkpt>
      <trkpt lat="50.34098" lon="4.84926">
        <ele>162.6</ele>
        <time>2017-02-26T12:36:43Z</time>
      </trkpt>
      <trkpt lat="50.34108" lon="4.84908">
        <ele>162.12</ele>
        <time>2017-02-26T12:36:56Z</time>
      </trkpt>
      <trkpt lat="50.34115" lon="4.84893">
        <ele>161.16</ele>
        <time>2017-02-26T12:37:07Z</time>
      </trkpt>
      <trkpt lat="50.34127" lon="4.84875">
        <ele>160.68</ele>
        <time>2017-02-26T12:37:21Z</time>
      </trkpt>
      <trkpt lat="50.34136" lon="4.84858">
        <ele>160.2</ele>
        <time>2017-02-26T12:37:33Z</time>
      </trkpt>
      <trkpt lat="50.34148" lon="4.84836">
        <ele>158.27</ele>
        <time>2017-02-26T12:37:48Z</time>
      </trkpt>
      <trkpt lat="50.34159" lon="4.84819">
        <ele>157.31</ele>
        <time>2017-02-26T12:38:01Z</time>
      </trkpt>
      <trkpt lat="50.34169" lon="4.84801">
        <ele>155.39</ele>
        <time>2017-02-26T12:38:15Z</time>
      </trkpt>
      <trkpt lat="50.34179" lon="4.84785">
        <ele>154.91</ele>
        <time>2017-02-26T12:38:28Z</time>
      </trkpt>
      <trkpt lat="50.34183" lon="4.84782">
        <ele>154.91</ele>
        <time>2017-02-26T12:38:32Z</time>
      </trkpt>
      <trkpt lat="50.34198" lon="4.84767">
        <ele>153.95</ele>
        <time>2017-02-26T12:38:47Z</time>
      </trkpt>
      <trkpt lat="50.34212" lon="4.84755">
        <ele>152.99</ele>
        <time>2017-02-26T12:39:01Z</time>
      </trkpt>
      <trkpt lat="50.34226" lon="4.8474">
        <ele>152.03</ele>
        <time>2017-02-26T12:39:16Z</time>
      </trkpt>
      <trkpt lat="50.34236" lon="4.84733">
        <ele>151.54</ele>
        <time>2017-02-26T12:39:27Z</time>
      </trkpt>
      <trkpt lat="50.34248" lon="4.84721">
        <ele>151.06</ele>
        <time>2017-02-26T12:39:40Z</time>
      </trkpt>
      <trkpt lat="50.3426" lon="4.84708">
        <ele>150.1</ele>
        <time>2017-02-26T12:39:52Z</time>
      </trkpt>
      <trkpt lat="50.34271" lon="4.84691">
        <ele>149.14</ele>
        <time>2017-02-26T12:40:06Z</time>
      </trkpt>
      <trkpt lat="50.34279" lon="4.84666">
        <ele>148.18</ele>
        <time>2017-02-26T12:40:23Z</time>
      </trkpt>
      <trkpt lat="50.34286" lon="4.84635">
        <ele>147.22</ele>
        <time>2017-02-26T12:40:40Z</time>
      </trkpt>
      <trkpt lat="50.34288" lon="4.84627">
        <ele>146.74</ele>
        <time>2017-02-26T12:40:44Z</time>
      </trkpt>
      <trkpt lat="50.34291" lon="4.84601">
        <ele>145.78</ele>
        <time>2017-02-26T12:40:58Z</time>
      </trkpt>
      <trkpt lat="50.34293" lon="4.84574">
        <ele>144.34</ele>
        <time>2017-02-26T12:41:12Z</time>
      </trkpt>
      <trkpt lat="50.34295" lon="4.84544">
        <ele>142.89</ele>
        <time>2017-02-26T12:41:27Z</time>
      </trkpt>
      <trkpt lat="50.34297" lon="4.84512">
        <ele>142.41</ele>
        <time>2017-02-26T12:41:44Z</time>
      </trkpt>
      <trkpt lat="50.34299" lon="4.84486">
        <ele>140.49</ele>
        <time>2017-02-26T12:41:58Z</time>
      </trkpt>
      <trkpt lat="50.343" lon="4.84472">
        <ele>140.01</ele>
        <time>2017-02-26T12:42:06Z</time>
      </trkpt>
      <trkpt lat="50.34299" lon="4.84448">
        <ele>138.57</ele>
        <time>2017-02-26T12:42:20Z</time>
      </trkpt>
      <trkpt lat="50.34294" lon="4.84423">
        <ele>137.61</ele>
        <time>2017-02-26T12:42:35Z</time>
      </trkpt>
      <trkpt lat="50.34295" lon="4.84415">
        <ele>137.61</ele>
        <time>2017-02-26T12:42:46Z</time>
      </trkpt>
      <trkpt lat="50.34294" lon="4.84412">
        <ele>137.61</ele>
        <time>2017-02-26T12:43:07Z</time>
      </trkpt>
      <trkpt lat="50.34294" lon="4.84411">
        <ele>137.61</ele>
        <time>2017-02-26T12:43:28Z</time>
      </trkpt>
      <trkpt lat="50.34297" lon="4.8442">
        <ele>138.09</ele>
        <time>2017-02-26T12:43:53Z</time>
      </trkpt>
      <trkpt lat="50.34299" lon="4.84413">
        <ele>138.09</ele>
        <time>2017-02-26T12:44:24Z</time>
      </trkpt>
      <trkpt lat="50.34297" lon="4.8441">
        <ele>138.09</ele>
        <time>2017-02-26T12:44:43Z</time>
      </trkpt>
      <trkpt lat="50.34295" lon="4.84411">
        <ele>138.09</ele>
        <time>2017-02-26T12:45:08Z</time>
      </trkpt>
      <trkpt lat="50.34294" lon="4.84412">
        <ele>138.09</ele>
        <time>2017-02-26T12:45:25Z</time>
      </trkpt>
      <trkpt lat="50.34287" lon="4.84406">
        <ele>138.09</ele>
        <time>2017-02-26T12:45:38Z</time>
      </trkpt>
      <trkpt lat="50.3428" lon="4.84397">
        <ele>137.13</ele>
        <time>2017-02-26T12:45:49Z</time>
      </trkpt>
      <trkpt lat="50.34269" lon="4.84378">
        <ele>136.16</ele>
        <time>2017-02-26T12:46:03Z</time>
      </trkpt>
      <trkpt lat="50.34261" lon="4.84353">
        <ele>134.24</ele>
        <time>2017-02-26T12:46:18Z</time>
      </trkpt>
      <trkpt lat="50.34257" lon="4.84335">
        <ele>132.32</ele>
        <time>2017-02-26T12:46:32Z</time>
      </trkpt>
      <trkpt lat="50.34257" lon="4.84322">
        <ele>131.36</ele>
        <time>2017-02-26T12:46:44Z</time>
      </trkpt>
      <trkpt lat="50.34262" lon="4.84309">
        <ele>130.88</ele>
        <time>2017-02-26T12:46:56Z</time>
      </trkpt>
      <trkpt lat="50.34269" lon="4.84299">
        <ele>129.43</ele>
        <time>2017-02-26T12:47:05Z</time>
      </trkpt>
      <trkpt lat="50.34271" lon="4.84294">
        <ele>128.95</ele>
        <time>2017-02-26T12:47:08Z</time>
      </trkpt>
      <trkpt lat="50.34277" lon="4.84285">
        <ele>128.47</ele>
        <time>2017-02-26T12:47:15Z</time>
      </trkpt>
      <trkpt lat="50.34287" lon="4.84261">
        <ele>126.55</ele>
        <time>2017-02-26T12:47:28Z</time>
      </trkpt>
      <trkpt lat="50.34291" lon="4.84249">
        <ele>125.11</ele>
        <time>2017-02-26T12:47:37Z</time>
      </trkpt>
      <trkpt lat="50.34297" lon="4.84223">
        <ele>123.19</ele>
        <time>2017-02-26T12:47:52Z</time>
      </trkpt>
      <trkpt lat="50.34303" lon="4.84211">
        <ele>122.22</ele>
        <time>2017-02-26T12:48:00Z</time>
      </trkpt>
      <trkpt lat="50.34306" lon="4.84194">
        <ele>120.3</ele>
        <time>2017-02-26T12:48:10Z</time>
      </trkpt>
      <trkpt lat="50.34302" lon="4.84163">
        <ele>119.34</ele>
        <time>2017-02-26T12:48:26Z</time>
      </trkpt>
      <trkpt lat="50.34303" lon="4.84139">
        <ele>119.34</ele>
        <time>2017-02-26T12:48:40Z</time>
      </trkpt>
      <trkpt lat="50.34304" lon="4.84128">
        <ele>119.34</ele>
        <time>2017-02-26T12:48:47Z</time>
      </trkpt>
      <trkpt lat="50.34302" lon="4.84116">
        <ele>119.34</ele>
        <time>2017-02-26T12:49:01Z</time>
      </trkpt>
      <trkpt lat="50.34304" lon="4.84117">
        <ele>119.34</ele>
        <time>2017-02-26T12:49:16Z</time>
      </trkpt>
      <trkpt lat="50.34303" lon="4.84123">
        <ele>119.34</ele>
        <time>2017-02-26T12:49:31Z</time>
      </trkpt>
      <trkpt lat="50.34307" lon="4.84123">
        <ele>119.34</ele>
        <time>2017-02-26T12:49:45Z</time>
      </trkpt>
      <trkpt lat="50.3431" lon="4.8412">
        <ele>119.34</ele>
        <time>2017-02-26T12:50:11Z</time>
      </trkpt>
      <trkpt lat="50.34307" lon="4.84118">
        <ele>119.34</ele>
        <time>2017-02-26T12:50:35Z</time>
      </trkpt>
      <trkpt lat="50.34309" lon="4.84117">
        <ele>119.34</ele>
        <time>2017-02-26T12:50:55Z</time>
      </trkpt>
      <trkpt lat="50.34308" lon="4.84115">
        <ele>119.34</ele>
        <time>2017-02-26T12:51:13Z</time>
      </trkpt>
      <trkpt lat="50.3431" lon="4.84117">
        <ele>119.34</ele>
        <time>2017-02-26T12:51:32Z</time>
      </trkpt>
      <trkpt lat="50.34314" lon="4.84119">
        <ele>119.34</ele>
        <time>2017-02-26T12:51:52Z</time>
      </trkpt>
      <trkpt lat="50.34309" lon="4.84115">
        <ele>119.34</ele>
        <time>2017-02-26T12:52:13Z</time>
      </trkpt>
      <trkpt lat="50.34304" lon="4.84112">
        <ele>120.3</ele>
        <time>2017-02-26T12:52:39Z</time>
      </trkpt>
      <trkpt lat="50.34304" lon="4.84112">
        <ele>120.3</ele>
        <time>2017-02-26T12:53:00Z</time>
      </trkpt>
      <trkpt lat="50.34305" lon="4.84113">
        <ele>120.3</ele>
        <time>2017-02-26T12:53:22Z</time>
      </trkpt>
      <trkpt lat="50.34304" lon="4.84114">
        <ele>120.3</ele>
        <time>2017-02-26T12:53:40Z</time>
      </trkpt>
      <trkpt lat="50.34302" lon="4.84126">
        <ele>120.3</ele>
        <time>2017-02-26T12:53:58Z</time>
      </trkpt>
      <trkpt lat="50.34305" lon="4.84124">
        <ele>120.3</ele>
        <time>2017-02-26T12:54:24Z</time>
      </trkpt>
      <trkpt lat="50.34313" lon="4.84121">
        <ele>120.78</ele>
        <time>2017-02-26T12:54:41Z</time>
      </trkpt>
      <trkpt lat="50.34311" lon="4.8412">
        <ele>120.78</ele>
        <time>2017-02-26T12:54:58Z</time>
      </trkpt>
      <trkpt lat="50.34312" lon="4.84117">
        <ele>120.78</ele>
        <time>2017-02-26T12:55:17Z</time>
      </trkpt>
      <trkpt lat="50.34312" lon="4.84117">
        <ele>120.78</ele>
        <time>2017-02-26T12:55:36Z</time>
      </trkpt>
      <trkpt lat="50.3431" lon="4.84116">
        <ele>120.78</ele>
        <time>2017-02-26T12:55:54Z</time>
      </trkpt>
      <trkpt lat="50.34315" lon="4.84123">
        <ele>121.26</ele>
        <time>2017-02-26T12:56:17Z</time>
      </trkpt>
      <trkpt lat="50.34316" lon="4.84121">
        <ele>121.26</ele>
        <time>2017-02-26T12:56:38Z</time>
      </trkpt>
      <trkpt lat="50.34313" lon="4.84124">
        <ele>121.26</ele>
        <time>2017-02-26T12:56:58Z</time>
      </trkpt>
      <trkpt lat="50.34314" lon="4.84121">
        <ele>121.26</ele>
        <time>2017-02-26T12:57:17Z</time>
      </trkpt>
      <trkpt lat="50.34315" lon="4.84117">
        <ele>121.74</ele>
        <time>2017-02-26T12:57:38Z</time>
      </trkpt>
      <trkpt lat="50.34314" lon="4.84117">
        <ele>121.74</ele>
        <time>2017-02-26T12:57:56Z</time>
      </trkpt>
      <trkpt lat="50.34315" lon="4.84119">
        <ele>121.74</ele>
        <time>2017-02-26T12:58:19Z</time>
      </trkpt>
      <trkpt lat="50.34314" lon="4.84119">
        <ele>121.74</ele>
        <time>2017-02-26T12:58:39Z</time>
      </trkpt>
      <trkpt lat="50.34309" lon="4.84116">
        <ele>121.74</ele>
        <time>2017-02-26T12:59:00Z</time>
      </trkpt>
      <trkpt lat="50.34309" lon="4.84116">
        <ele>121.74</ele>
        <time>2017-02-26T12:59:24Z</time>
      </trkpt>
      <trkpt lat="50.3431" lon="4.84122">
        <ele>121.74</ele>
        <time>2017-02-26T12:59:47Z</time>
      </trkpt>
      <trkpt lat="50.34307" lon="4.84118">
        <ele>122.22</ele>
        <time>2017-02-26T13:00:03Z</time>
      </trkpt>
      <trkpt lat="50.34307" lon="4.84116">
        <ele>122.22</ele>
        <time>2017-02-26T13:00:26Z</time>
      </trkpt>
      <trkpt lat="50.34307" lon="4.84114">
        <ele>122.22</ele>
        <time>2017-02-26T13:00:51Z</time>
      </trkpt>
      <trkpt lat="50.34305" lon="4.84113">
        <ele>122.22</ele>
        <time>2017-02-26T13:01:07Z</time>
      </trkpt>
      <trkpt lat="50.34302" lon="4.84114">
        <ele>122.22</ele>
        <time>2017-02-26T13:01:31Z</time>
      </trkpt>
      <trkpt lat="50.34305" lon="4.84114">
        <ele>122.22</ele>
        <time>2017-02-26T13:01:47Z</time>
      </trkpt>
      <trkpt lat="50.34306" lon="4.84115">
        <ele>122.71</ele>
        <time>2017-02-26T13:02:06Z</time>
      </trkpt>
      <trkpt lat="50.34309" lon="4.84119">
        <ele>122.71</ele>
        <time>2017-02-26T13:02:29Z</time>
      </trkpt>
      <trkpt lat="50.34309" lon="4.8412">
        <ele>122.71</ele>
        <time>2017-02-26T13:02:52Z</time>
      </trkpt>
      <trkpt lat="50.34307" lon="4.84121">
        <ele>122.71</ele>
        <time>2017-02-26T13:03:12Z</time>
      </trkpt>
      <trkpt lat="50.34306" lon="4.84122">
        <ele>122.71</ele>
        <time>2017-02-26T13:03:39Z</time>
      </trkpt>
      <trkpt lat="50.34306" lon="4.84122">
        <ele>122.71</ele>
        <time>2017-02-26T13:03:56Z</time>
      </trkpt>
      <trkpt lat="50.34303" lon="4.84122">
        <ele>122.71</ele>
        <time>2017-02-26T13:04:17Z</time>
      </trkpt>
      <trkpt lat="50.34304" lon="4.84122">
        <ele>122.71</ele>
        <time>2017-02-26T13:04:38Z</time>
      </trkpt>
      <trkpt lat="50.34307" lon="4.84123">
        <ele>122.71</ele>
        <time>2017-02-26T13:05:02Z</time>
      </trkpt>
      <trkpt lat="50.34309" lon="4.8412">
        <ele>123.19</ele>
        <time>2017-02-26T13:05:22Z</time>
      </trkpt>
      <trkpt lat="50.34303" lon="4.84124">
        <ele>123.19</ele>
        <time>2017-02-26T13:05:44Z</time>
      </trkpt>
      <trkpt lat="50.34307" lon="4.84122">
        <ele>123.19</ele>
        <time>2017-02-26T13:06:03Z</time>
      </trkpt>
      <trkpt lat="50.3431" lon="4.84123">
        <ele>123.19</ele>
        <time>2017-02-26T13:06:23Z</time>
      </trkpt>
      <trkpt lat="50.34309" lon="4.84122">
        <ele>123.19</ele>
        <time>2017-02-26T13:06:40Z</time>
      </trkpt>
      <trkpt lat="50.34307" lon="4.8412">
        <ele>123.67</ele>
        <time>2017-02-26T13:06:59Z</time>
      </trkpt>
      <trkpt lat="50.34308" lon="4.84118">
        <ele>124.15</ele>
        <time>2017-02-26T13:07:25Z</time>
      </trkpt>
      <trkpt lat="50.34306" lon="4.8412">
        <ele>124.15</ele>
        <time>2017-02-26T13:07:47Z</time>
      </trkpt>
      <trkpt lat="50.3431" lon="4.84121">
        <ele>124.15</ele>
        <time>2017-02-26T13:08:08Z</time>
      </trkpt>
      <trkpt lat="50.34303" lon="4.84119">
        <ele>124.15</ele>
        <time>2017-02-26T13:08:26Z</time>
      </trkpt>
      <trkpt lat="50.34309" lon="4.84117">
        <ele>124.63</ele>
        <time>2017-02-26T13:08:50Z</time>
      </trkpt>
      <trkpt lat="50.34311" lon="4.84115">
        <ele>124.63</ele>
        <time>2017-02-26T13:09:08Z</time>
      </trkpt>
      <trkpt lat="50.3431" lon="4.84126">
        <ele>125.11</ele>
        <time>2017-02-26T13:09:31Z</time>
      </trkpt>
      <trkpt lat="50.34311" lon="4.84125">
        <ele>125.11</ele>
        <time>2017-02-26T13:09:46Z</time>
      </trkpt>
      <trkpt lat="50.34312" lon="4.84125">
        <ele>125.11</ele>
        <time>2017-02-26T13:10:05Z</time>
      </trkpt>
      <trkpt lat="50.34314" lon="4.8413">
        <ele>125.11</ele>
        <time>2017-02-26T13:10:29Z</time>
      </trkpt>
      <trkpt lat="50.34318" lon="4.84123">
        <ele>125.11</ele>
        <time>2017-02-26T13:10:44Z</time>
      </trkpt>
      <trkpt lat="50.34323" lon="4.84117">
        <ele>125.11</ele>
        <time>2017-02-26T13:10:58Z</time>
      </trkpt>
      <trkpt lat="50.34329" lon="4.84111">
        <ele>125.11</ele>
        <time>2017-02-26T13:11:13Z</time>
      </trkpt>
      <trkpt lat="50.34333" lon="4.84109">
        <ele>125.11</ele>
        <time>2017-02-26T13:11:34Z</time>
      </trkpt>
      <trkpt lat="50.34332" lon="4.8412">
        <ele>123.67</ele>
        <time>2017-02-26T13:11:59Z</time>
      </trkpt>
      <trkpt lat="50.34335" lon="4.84125">
        <ele>123.67</ele>
        <time>2017-02-26T13:12:19Z</time>
      </trkpt>
      <trkpt lat="50.34329" lon="4.84129">
        <ele>123.67</ele>
        <time>2017-02-26T13:12:27Z</time>
      </trkpt>
      <trkpt lat="50.34322" lon="4.84143">
        <ele>123.67</ele>
        <time>2017-02-26T13:12:40Z</time>
      </trkpt>
      <trkpt lat="50.34348" lon="4.84176">
        <ele>123.67</ele>
        <time>2017-02-26T13:13:01Z</time>
      </trkpt>
      <trkpt lat="50.34335" lon="4.84175">
        <ele>123.67</ele>
        <time>2017-02-26T13:13:19Z</time>
      </trkpt>
      <trkpt lat="50.34332" lon="4.84155">
        <ele>123.67</ele>
        <time>2017-02-26T13:13:36Z</time>
      </trkpt>
      <trkpt lat="50.34333" lon="4.84155">
        <ele>123.67</ele>
        <time>2017-02-26T13:13:41Z</time>
      </trkpt>
      <trkpt lat="50.3434" lon="4.84111">
        <ele>123.19</ele>
        <time>2017-02-26T13:45:00Z</time>
      </trkpt>
      <trkpt lat="50.34355" lon="4.84106">
        <ele>123.19</ele>
        <time>2017-02-26T13:45:29Z</time>
      </trkpt>
      <trkpt lat="50.34332" lon="4.84108">
        <ele>123.19</ele>
        <time>2017-02-26T13:45:50Z</time>
      </trkpt>
      <trkpt lat="50.34332" lon="4.84112">
        <ele>123.19</ele>
        <time>2017-02-26T13:46:15Z</time>
      </trkpt>
      <trkpt lat="50.34328" lon="4.84109">
        <ele>123.19</ele>
        <time>2017-02-26T13:46:38Z</time>
      </trkpt>
      <trkpt lat="50.34324" lon="4.84097">
        <ele>123.19</ele>
        <time>2017-02-26T13:47:03Z</time>
      </trkpt>
      <trkpt lat="50.3431" lon="4.84096">
        <ele>123.19</ele>
        <time>2017-02-26T13:47:18Z</time>
      </trkpt>
      <trkpt lat="50.34297" lon="4.84092">
        <ele>122.22</ele>
        <time>2017-02-26T13:47:43Z</time>
      </trkpt>
      <trkpt lat="50.34289" lon="4.84086">
        <ele>121.74</ele>
        <time>2017-02-26T13:48:08Z</time>
      </trkpt>
      <trkpt lat="50.34294" lon="4.84085">
        <ele>121.26</ele>
        <time>2017-02-26T13:48:36Z</time>
      </trkpt>
      <trkpt lat="50.34295" lon="4.84078">
        <ele>120.78</ele>
        <time>2017-02-26T13:48:59Z</time>
      </trkpt>
      <trkpt lat="50.34306" lon="4.84086">
        <ele>120.3</ele>
        <time>2017-02-26T13:49:21Z</time>
      </trkpt>
      <trkpt lat="50.34306" lon="4.84092">
        <ele>120.3</ele>
        <time>2017-02-26T13:49:43Z</time>
      </trkpt>
      <trkpt lat="50.34312" lon="4.84104">
        <ele>120.3</ele>
        <time>2017-02-26T13:50:09Z</time>
      </trkpt>
      <trkpt lat="50.3432" lon="4.841">
        <ele>119.82</ele>
        <time>2017-02-26T13:50:34Z</time>
      </trkpt>
      <trkpt lat="50.34321" lon="4.84091">
        <ele>119.82</ele>
        <time>2017-02-26T13:50:57Z</time>
      </trkpt>
      <trkpt lat="50.34319" lon="4.84087">
        <ele>119.82</ele>
        <time>2017-02-26T13:51:23Z</time>
      </trkpt>
      <trkpt lat="50.34307" lon="4.84096">
        <ele>119.82</ele>
        <time>2017-02-26T13:51:44Z</time>
      </trkpt>
      <trkpt lat="50.34311" lon="4.84096">
        <ele>119.82</ele>
        <time>2017-02-26T13:52:07Z</time>
      </trkpt>
      <trkpt lat="50.34313" lon="4.8409">
        <ele>120.3</ele>
        <time>2017-02-26T13:52:31Z</time>
      </trkpt>
      <trkpt lat="50.34316" lon="4.84097">
        <ele>119.82</ele>
        <time>2017-02-26T13:53:05Z</time>
      </trkpt>
      <trkpt lat="50.34319" lon="4.84102">
        <ele>119.82</ele>
        <time>2017-02-26T13:53:38Z</time>
      </trkpt>
      <trkpt lat="50.34322" lon="4.84104">
        <ele>119.82</ele>
        <time>2017-02-26T13:54:10Z</time>
      </trkpt>
      <trkpt lat="50.34326" lon="4.84096">
        <ele>119.82</ele>
        <time>2017-02-26T13:54:45Z</time>
      </trkpt>
      <trkpt lat="50.34323" lon="4.84102">
        <ele>119.82</ele>
        <time>2017-02-26T13:55:12Z</time>
      </trkpt>
      <trkpt lat="50.3432" lon="4.84104">
        <ele>119.82</ele>
        <time>2017-02-26T13:55:43Z</time>
      </trkpt>
      <trkpt lat="50.34325" lon="4.84107">
        <ele>119.82</ele>
        <time>2017-02-26T13:56:06Z</time>
      </trkpt>
      <trkpt lat="50.34327" lon="4.84109">
        <ele>120.78</ele>
        <time>2017-02-26T13:56:34Z</time>
      </trkpt>
      <trkpt lat="50.34314" lon="4.84108">
        <ele>120.78</ele>
        <time>2017-02-26T13:56:53Z</time>
      </trkpt>
      <trkpt lat="50.34325" lon="4.84107">
        <ele>120.78</ele>
        <time>2017-02-26T13:57:13Z</time>
      </trkpt>
      <trkpt lat="50.34347" lon="4.84119">
        <ele>120.78</ele>
        <time>2017-02-26T13:57:38Z</time>
      </trkpt>
      <trkpt lat="50.34335" lon="4.84103">
        <ele>121.74</ele>
        <time>2017-02-26T13:57:57Z</time>
      </trkpt>
      <trkpt lat="50.34305" lon="4.84096">
        <ele>121.74</ele>
        <time>2017-02-26T13:58:18Z</time>
      </trkpt>
      <trkpt lat="50.34288" lon="4.84092">
        <ele>121.26</ele>
        <time>2017-02-26T13:58:39Z</time>
      </trkpt>
      <trkpt lat="50.34306" lon="4.84099">
        <ele>119.82</ele>
        <time>2017-02-26T13:59:16Z</time>
      </trkpt>
      <trkpt lat="50.34334" lon="4.84109">
        <ele>119.82</ele>
        <time>2017-02-26T13:59:41Z</time>
      </trkpt>
      <trkpt lat="50.34341" lon="4.84113">
        <ele>119.82</ele>
        <time>2017-02-26T13:59:59Z</time>
      </trkpt>
      <trkpt lat="50.34335" lon="4.84104">
        <ele>119.82</ele>
        <time>2017-02-26T14:00:23Z</time>
      </trkpt>
      <trkpt lat="50.34334" lon="4.841">
        <ele>119.82</ele>
        <time>2017-02-26T14:00:46Z</time>
      </trkpt>
      <trkpt lat="50.34332" lon="4.84102">
        <ele>119.82</ele>
        <time>2017-02-26T14:01:03Z</time>
      </trkpt>
      <trkpt lat="50.34333" lon="4.84105">
        <ele>119.82</ele>
        <time>2017-02-26T14:01:20Z</time>
      </trkpt>
      <trkpt lat="50.34331" lon="4.84102">
        <ele>119.82</ele>
        <time>2017-02-26T14:01:43Z</time>
      </trkpt>
      <trkpt lat="50.34331" lon="4.84104">
        <ele>120.3</ele>
        <time>2017-02-26T14:02:05Z</time>
      </trkpt>
      <trkpt lat="50.34334" lon="4.84106">
        <ele>120.3</ele>
        <time>2017-02-26T14:02:22Z</time>
      </trkpt>
      <trkpt lat="50.34336" lon="4.84107">
        <ele>120.3</ele>
        <time>2017-02-26T14:02:39Z</time>
      </trkpt>
      <trkpt lat="50.34336" lon="4.84106">
        <ele>120.3</ele>
        <time>2017-02-26T14:02:52Z</time>
      </trkpt>
      <trkpt lat="50.34334" lon="4.84104">
        <ele>120.3</ele>
        <time>2017-02-26T14:03:10Z</time>
      </trkpt>
      <trkpt lat="50.34333" lon="4.84111">
        <ele>120.3</ele>
        <time>2017-02-26T14:03:34Z</time>
      </trkpt>
      <trkpt lat="50.34337" lon="4.84107">
        <ele>120.3</ele>
        <time>2017-02-26T14:03:52Z</time>
      </trkpt>
      <trkpt lat="50.34345" lon="4.84107">
        <ele>120.3</ele>
        <time>2017-02-26T14:04:03Z</time>
      </trkpt>
      <trkpt lat="50.34346" lon="4.84106">
        <ele>120.3</ele>
        <time>2017-02-26T14:04:04Z</time>
      </trkpt>
      <trkpt lat="50.34356" lon="4.841">
        <ele>120.3</ele>
        <time>2017-02-26T14:04:15Z</time>
      </trkpt>
      <trkpt lat="50.3437" lon="4.84092">
        <ele>120.78</ele>
        <time>2017-02-26T14:04:31Z</time>
      </trkpt>
      <trkpt lat="50.34384" lon="4.84088">
        <ele>120.3</ele>
        <time>2017-02-26T14:04:44Z</time>
      </trkpt>
      <trkpt lat="50.34394" lon="4.84091">
        <ele>120.3</ele>
        <time>2017-02-26T14:04:58Z</time>
      </trkpt>
      <trkpt lat="50.34406" lon="4.84095">
        <ele>120.3</ele>
        <time>2017-02-26T14:05:12Z</time>
      </trkpt>
      <trkpt lat="50.34416" lon="4.84095">
        <ele>121.74</ele>
        <time>2017-02-26T14:05:20Z</time>
      </trkpt>
      <trkpt lat="50.34424" lon="4.84098">
        <ele>122.22</ele>
        <time>2017-02-26T14:05:26Z</time>
      </trkpt>
      <trkpt lat="50.34439" lon="4.84109">
        <ele>122.71</ele>
        <time>2017-02-26T14:05:42Z</time>
      </trkpt>
      <trkpt lat="50.34459" lon="4.84124">
        <ele>123.19</ele>
        <time>2017-02-26T14:05:58Z</time>
      </trkpt>
      <trkpt lat="50.34466" lon="4.84139">
        <ele>123.19</ele>
        <time>2017-02-26T14:06:09Z</time>
      </trkpt>
      <trkpt lat="50.34475" lon="4.84163">
        <ele>123.67</ele>
        <time>2017-02-26T14:06:24Z</time>
      </trkpt>
      <trkpt lat="50.34477" lon="4.84168">
        <ele>123.67</ele>
        <time>2017-02-26T14:06:27Z</time>
      </trkpt>
      <trkpt lat="50.3448" lon="4.84179">
        <ele>124.15</ele>
        <time>2017-02-26T14:06:33Z</time>
      </trkpt>
      <trkpt lat="50.34486" lon="4.842">
        <ele>124.15</ele>
        <time>2017-02-26T14:06:46Z</time>
      </trkpt>
      <trkpt lat="50.34487" lon="4.84206">
        <ele>124.15</ele>
        <time>2017-02-26T14:06:50Z</time>
      </trkpt>
      <trkpt lat="50.34494" lon="4.84224">
        <ele>124.15</ele>
        <time>2017-02-26T14:07:02Z</time>
      </trkpt>
      <trkpt lat="50.34495" lon="4.8423">
        <ele>124.15</ele>
        <time>2017-02-26T14:07:05Z</time>
      </trkpt>
      <trkpt lat="50.34496" lon="4.84234">
        <ele>124.15</ele>
        <time>2017-02-26T14:07:08Z</time>
      </trkpt>
      <trkpt lat="50.34508" lon="4.84259">
        <ele>124.15</ele>
        <time>2017-02-26T14:07:23Z</time>
      </trkpt>
      <trkpt lat="50.34509" lon="4.84261">
        <ele>124.15</ele>
        <time>2017-02-26T14:07:24Z</time>
      </trkpt>
      <trkpt lat="50.34511" lon="4.84262">
        <ele>122.71</ele>
        <time>2017-02-26T14:07:26Z</time>
      </trkpt>
      <trkpt lat="50.34518" lon="4.84255">
        <ele>124.15</ele>
        <time>2017-02-26T14:07:38Z</time>
      </trkpt>
      <trkpt lat="50.34518" lon="4.84254">
        <ele>124.15</ele>
        <time>2017-02-26T14:07:39Z</time>
      </trkpt>
      <trkpt lat="50.34527" lon="4.84237">
        <ele>125.11</ele>
        <time>2017-02-26T14:07:54Z</time>
      </trkpt>
      <trkpt lat="50.34538" lon="4.84219">
        <ele>127.03</ele>
        <time>2017-02-26T14:08:08Z</time>
      </trkpt>
      <trkpt lat="50.34548" lon="4.84201">
        <ele>128.47</ele>
        <time>2017-02-26T14:08:22Z</time>
      </trkpt>
      <trkpt lat="50.34551" lon="4.84197">
        <ele>129.43</ele>
        <time>2017-02-26T14:08:26Z</time>
      </trkpt>
      <trkpt lat="50.34562" lon="4.84176">
        <ele>130.88</ele>
        <time>2017-02-26T14:08:41Z</time>
      </trkpt>
      <trkpt lat="50.34571" lon="4.84155">
        <ele>132.8</ele>
        <time>2017-02-26T14:08:56Z</time>
      </trkpt>
      <trkpt lat="50.34583" lon="4.84138">
        <ele>134.72</ele>
        <time>2017-02-26T14:09:11Z</time>
      </trkpt>
      <trkpt lat="50.34597" lon="4.84124">
        <ele>136.16</ele>
        <time>2017-02-26T14:09:26Z</time>
      </trkpt>
      <trkpt lat="50.34603" lon="4.84121">
        <ele>136.16</ele>
        <time>2017-02-26T14:09:33Z</time>
      </trkpt>
      <trkpt lat="50.34615" lon="4.8412">
        <ele>136.16</ele>
        <time>2017-02-26T14:09:45Z</time>
      </trkpt>
      <trkpt lat="50.3463" lon="4.84123">
        <ele>137.13</ele>
        <time>2017-02-26T14:09:59Z</time>
      </trkpt>
      <trkpt lat="50.3463" lon="4.84116">
        <ele>137.13</ele>
        <time>2017-02-26T14:10:14Z</time>
      </trkpt>
      <trkpt lat="50.34622" lon="4.84112">
        <ele>137.13</ele>
        <time>2017-02-26T14:10:23Z</time>
      </trkpt>
      <trkpt lat="50.34611" lon="4.84104">
        <ele>135.2</ele>
        <time>2017-02-26T14:10:39Z</time>
      </trkpt>
      <trkpt lat="50.34612" lon="4.84105">
        <ele>135.2</ele>
        <time>2017-02-26T14:10:58Z</time>
      </trkpt>
      <trkpt lat="50.34613" lon="4.84085">
        <ele>137.61</ele>
        <time>2017-02-26T14:11:16Z</time>
      </trkpt>
      <trkpt lat="50.34619" lon="4.84058">
        <ele>140.01</ele>
        <time>2017-02-26T14:11:32Z</time>
      </trkpt>
      <trkpt lat="50.34622" lon="4.84035">
        <ele>141.93</ele>
        <time>2017-02-26T14:11:47Z</time>
      </trkpt>
      <trkpt lat="50.3462" lon="4.84014">
        <ele>144.34</ele>
        <time>2017-02-26T14:12:01Z</time>
      </trkpt>
      <trkpt lat="50.34618" lon="4.83992">
        <ele>145.78</ele>
        <time>2017-02-26T14:12:15Z</time>
      </trkpt>
      <trkpt lat="50.34615" lon="4.83967">
        <ele>147.22</ele>
        <time>2017-02-26T14:12:31Z</time>
      </trkpt>
      <trkpt lat="50.34612" lon="4.83951">
        <ele>149.62</ele>
        <time>2017-02-26T14:12:43Z</time>
      </trkpt>
      <trkpt lat="50.34608" lon="4.83933">
        <ele>150.58</ele>
        <time>2017-02-26T14:12:55Z</time>
      </trkpt>
      <trkpt lat="50.34602" lon="4.83919">
        <ele>152.03</ele>
        <time>2017-02-26T14:13:06Z</time>
      </trkpt>
      <trkpt lat="50.346" lon="4.83914">
        <ele>152.03</ele>
        <time>2017-02-26T14:13:08Z</time>
      </trkpt>
      <trkpt lat="50.34597" lon="4.83907">
        <ele>152.03</ele>
        <time>2017-02-26T14:13:11Z</time>
      </trkpt>
      <trkpt lat="50.3459" lon="4.83884">
        <ele>154.43</ele>
        <time>2017-02-26T14:13:27Z</time>
      </trkpt>
      <trkpt lat="50.3459" lon="4.83882">
        <ele>154.43</ele>
        <time>2017-02-26T14:13:28Z</time>
      </trkpt>
      <trkpt lat="50.34587" lon="4.83872">
        <ele>154.43</ele>
        <time>2017-02-26T14:13:35Z</time>
      </trkpt>
      <trkpt lat="50.34586" lon="4.83868">
        <ele>154.43</ele>
        <time>2017-02-26T14:13:38Z</time>
      </trkpt>
      <trkpt lat="50.34582" lon="4.8384">
        <ele>154.43</ele>
        <time>2017-02-26T14:13:55Z</time>
      </trkpt>
      <trkpt lat="50.34577" lon="4.83816">
        <ele>155.39</ele>
        <time>2017-02-26T14:14:10Z</time>
      </trkpt>
      <trkpt lat="50.34575" lon="4.83791">
        <ele>156.35</ele>
        <time>2017-02-26T14:14:25Z</time>
      </trkpt>
      <trkpt lat="50.34572" lon="4.83764">
        <ele>157.31</ele>
        <time>2017-02-26T14:14:39Z</time>
      </trkpt>
      <trkpt lat="50.34569" lon="4.83737">
        <ele>158.27</ele>
        <time>2017-02-26T14:14:55Z</time>
      </trkpt>
      <trkpt lat="50.34566" lon="4.8371">
        <ele>159.72</ele>
        <time>2017-02-26T14:15:12Z</time>
      </trkpt>
      <trkpt lat="50.34566" lon="4.83689">
        <ele>160.2</ele>
        <time>2017-02-26T14:15:26Z</time>
      </trkpt>
      <trkpt lat="50.34562" lon="4.8366">
        <ele>161.16</ele>
        <time>2017-02-26T14:15:42Z</time>
      </trkpt>
      <trkpt lat="50.34559" lon="4.83632">
        <ele>161.64</ele>
        <time>2017-02-26T14:15:57Z</time>
      </trkpt>
      <trkpt lat="50.34554" lon="4.83604">
        <ele>161.64</ele>
        <time>2017-02-26T14:16:12Z</time>
      </trkpt>
      <trkpt lat="50.34548" lon="4.83575">
        <ele>161.64</ele>
        <time>2017-02-26T14:16:27Z</time>
      </trkpt>
      <trkpt lat="50.34543" lon="4.83548">
        <ele>161.64</ele>
        <time>2017-02-26T14:16:41Z</time>
      </trkpt>
      <trkpt lat="50.34541" lon="4.83523">
        <ele>161.64</ele>
        <time>2017-02-26T14:16:56Z</time>
      </trkpt>
      <trkpt lat="50.34541" lon="4.83515">
        <ele>161.64</ele>
        <time>2017-02-26T14:17:00Z</time>
      </trkpt>
      <trkpt lat="50.34539" lon="4.8351">
        <ele>162.12</ele>
        <time>2017-02-26T14:17:13Z</time>
      </trkpt>
      <trkpt lat="50.3454" lon="4.8351">
        <ele>162.12</ele>
        <time>2017-02-26T14:17:14Z</time>
      </trkpt>
      <trkpt lat="50.34541" lon="4.83504">
        <ele>162.12</ele>
        <time>2017-02-26T14:17:18Z</time>
      </trkpt>
      <trkpt lat="50.34541" lon="4.83468">
        <ele>162.6</ele>
        <time>2017-02-26T14:17:37Z</time>
      </trkpt>
      <trkpt lat="50.34542" lon="4.83443">
        <ele>163.56</ele>
        <time>2017-02-26T14:17:51Z</time>
      </trkpt>
      <trkpt lat="50.34544" lon="4.8342">
        <ele>164.52</ele>
        <time>2017-02-26T14:18:03Z</time>
      </trkpt>
      <trkpt lat="50.34543" lon="4.83399">
        <ele>165</ele>
        <time>2017-02-26T14:18:17Z</time>
      </trkpt>
      <trkpt lat="50.34543" lon="4.83395">
        <ele>165</ele>
        <time>2017-02-26T14:18:19Z</time>
      </trkpt>
      <trkpt lat="50.34542" lon="4.83384">
        <ele>165</ele>
        <time>2017-02-26T14:18:25Z</time>
      </trkpt>
      <trkpt lat="50.3454" lon="4.83379">
        <ele>165</ele>
        <time>2017-02-26T14:18:28Z</time>
      </trkpt>
      <trkpt lat="50.3454" lon="4.83373">
        <ele>165</ele>
        <time>2017-02-26T14:18:31Z</time>
      </trkpt>
      <trkpt lat="50.34533" lon="4.83352">
        <ele>165.96</ele>
        <time>2017-02-26T14:18:45Z</time>
      </trkpt>
      <trkpt lat="50.34524" lon="4.8333">
        <ele>166.45</ele>
        <time>2017-02-26T14:19:00Z</time>
      </trkpt>
      <trkpt lat="50.34516" lon="4.83308">
        <ele>167.89</ele>
        <time>2017-02-26T14:19:14Z</time>
      </trkpt>
      <trkpt lat="50.34505" lon="4.8328">
        <ele>168.85</ele>
        <time>2017-02-26T14:19:31Z</time>
      </trkpt>
      <trkpt lat="50.345" lon="4.83257">
        <ele>169.81</ele>
        <time>2017-02-26T14:19:45Z</time>
      </trkpt>
      <trkpt lat="50.34497" lon="4.83233">
        <ele>171.25</ele>
        <time>2017-02-26T14:20:01Z</time>
      </trkpt>
      <trkpt lat="50.34495" lon="4.83208">
        <ele>172.69</ele>
        <time>2017-02-26T14:20:17Z</time>
      </trkpt>
      <trkpt lat="50.34494" lon="4.83183">
        <ele>173.66</ele>
        <time>2017-02-26T14:20:32Z</time>
      </trkpt>
      <trkpt lat="50.34495" lon="4.83153">
        <ele>174.62</ele>
        <time>2017-02-26T14:20:48Z</time>
      </trkpt>
      <trkpt lat="50.34496" lon="4.83127">
        <ele>175.58</ele>
        <time>2017-02-26T14:21:02Z</time>
      </trkpt>
      <trkpt lat="50.34497" lon="4.83103">
        <ele>176.06</ele>
        <time>2017-02-26T14:21:15Z</time>
      </trkpt>
      <trkpt lat="50.34498" lon="4.83086">
        <ele>176.06</ele>
        <time>2017-02-26T14:21:25Z</time>
      </trkpt>
      <trkpt lat="50.34498" lon="4.8308">
        <ele>176.06</ele>
        <time>2017-02-26T14:21:29Z</time>
      </trkpt>
      <trkpt lat="50.34499" lon="4.83077">
        <ele>176.54</ele>
        <time>2017-02-26T14:21:31Z</time>
      </trkpt>
      <trkpt lat="50.34505" lon="4.83055">
        <ele>177.02</ele>
        <time>2017-02-26T14:21:44Z</time>
      </trkpt>
      <trkpt lat="50.34505" lon="4.83054">
        <ele>177.02</ele>
        <time>2017-02-26T14:21:45Z</time>
      </trkpt>
      <trkpt lat="50.34513" lon="4.8303">
        <ele>177.5</ele>
        <time>2017-02-26T14:22:01Z</time>
      </trkpt>
      <trkpt lat="50.34522" lon="4.83011">
        <ele>177.98</ele>
        <time>2017-02-26T14:22:16Z</time>
      </trkpt>
      <trkpt lat="50.34532" lon="4.82992">
        <ele>177.02</ele>
        <time>2017-02-26T14:22:30Z</time>
      </trkpt>
      <trkpt lat="50.3454" lon="4.82973">
        <ele>177.02</ele>
        <time>2017-02-26T14:22:43Z</time>
      </trkpt>
      <trkpt lat="50.34543" lon="4.82966">
        <ele>177.02</ele>
        <time>2017-02-26T14:22:47Z</time>
      </trkpt>
      <trkpt lat="50.34552" lon="4.82942">
        <ele>177.02</ele>
        <time>2017-02-26T14:23:04Z</time>
      </trkpt>
      <trkpt lat="50.34559" lon="4.82924">
        <ele>176.54</ele>
        <time>2017-02-26T14:23:18Z</time>
      </trkpt>
      <trkpt lat="50.3457" lon="4.82894">
        <ele>176.54</ele>
        <time>2017-02-26T14:23:35Z</time>
      </trkpt>
      <trkpt lat="50.34577" lon="4.82871">
        <ele>176.54</ele>
        <time>2017-02-26T14:23:49Z</time>
      </trkpt>
      <trkpt lat="50.34583" lon="4.82852">
        <ele>177.5</ele>
        <time>2017-02-26T14:24:02Z</time>
      </trkpt>
      <trkpt lat="50.34589" lon="4.82824">
        <ele>177.98</ele>
        <time>2017-02-26T14:24:20Z</time>
      </trkpt>
      <trkpt lat="50.34591" lon="4.82814">
        <ele>176.54</ele>
        <time>2017-02-26T14:24:26Z</time>
      </trkpt>
      <trkpt lat="50.34597" lon="4.82793">
        <ele>175.58</ele>
        <time>2017-02-26T14:24:40Z</time>
      </trkpt>
      <trkpt lat="50.34602" lon="4.82776">
        <ele>174.62</ele>
        <time>2017-02-26T14:24:53Z</time>
      </trkpt>
      <trkpt lat="50.34609" lon="4.82751">
        <ele>174.14</ele>
        <time>2017-02-26T14:25:07Z</time>
      </trkpt>
      <trkpt lat="50.34614" lon="4.82727">
        <ele>173.17</ele>
        <time>2017-02-26T14:25:20Z</time>
      </trkpt>
      <trkpt lat="50.34622" lon="4.82702">
        <ele>172.69</ele>
        <time>2017-02-26T14:25:34Z</time>
      </trkpt>
      <trkpt lat="50.3463" lon="4.82679">
        <ele>172.21</ele>
        <time>2017-02-26T14:25:50Z</time>
      </trkpt>
      <trkpt lat="50.34634" lon="4.82659">
        <ele>171.73</ele>
        <time>2017-02-26T14:26:01Z</time>
      </trkpt>
      <trkpt lat="50.34638" lon="4.82635">
        <ele>171.73</ele>
        <time>2017-02-26T14:26:16Z</time>
      </trkpt>
      <trkpt lat="50.34644" lon="4.82613">
        <ele>170.77</ele>
        <time>2017-02-26T14:26:30Z</time>
      </trkpt>
      <trkpt lat="50.34653" lon="4.82588">
        <ele>169.81</ele>
        <time>2017-02-26T14:26:44Z</time>
      </trkpt>
      <trkpt lat="50.34653" lon="4.82586">
        <ele>169.81</ele>
        <time>2017-02-26T14:26:45Z</time>
      </trkpt>
      <trkpt lat="50.34664" lon="4.82563">
        <ele>169.33</ele>
        <time>2017-02-26T14:27:00Z</time>
      </trkpt>
      <trkpt lat="50.34674" lon="4.82546">
        <ele>169.33</ele>
        <time>2017-02-26T14:27:14Z</time>
      </trkpt>
      <trkpt lat="50.34677" lon="4.82536">
        <ele>167.89</ele>
        <time>2017-02-26T14:27:22Z</time>
      </trkpt>
      <trkpt lat="50.34676" lon="4.82529">
        <ele>166.93</ele>
        <time>2017-02-26T14:27:26Z</time>
      </trkpt>
      <trkpt lat="50.34671" lon="4.82521">
        <ele>166.93</ele>
        <time>2017-02-26T14:27:31Z</time>
      </trkpt>
      <trkpt lat="50.34655" lon="4.82508">
        <ele>165</ele>
        <time>2017-02-26T14:27:47Z</time>
      </trkpt>
      <trkpt lat="50.34651" lon="4.82506">
        <ele>164.52</ele>
        <time>2017-02-26T14:27:50Z</time>
      </trkpt>
      <trkpt lat="50.34642" lon="4.82503">
        <ele>163.08</ele>
        <time>2017-02-26T14:27:58Z</time>
      </trkpt>
      <trkpt lat="50.3463" lon="4.82496">
        <ele>161.16</ele>
        <time>2017-02-26T14:28:11Z</time>
      </trkpt>
      <trkpt lat="50.34625" lon="4.82491">
        <ele>160.2</ele>
        <time>2017-02-26T14:28:17Z</time>
      </trkpt>
      <trkpt lat="50.34621" lon="4.82488">
        <ele>159.24</ele>
        <time>2017-02-26T14:28:21Z</time>
      </trkpt>
      <trkpt lat="50.34605" lon="4.82476">
        <ele>156.35</ele>
        <time>2017-02-26T14:28:36Z</time>
      </trkpt>
      <trkpt lat="50.34604" lon="4.82475">
        <ele>155.87</ele>
        <time>2017-02-26T14:28:37Z</time>
      </trkpt>
      <trkpt lat="50.34595" lon="4.82467">
        <ele>154.91</ele>
        <time>2017-02-26T14:28:45Z</time>
      </trkpt>
      <trkpt lat="50.3459" lon="4.82466">
        <ele>154.43</ele>
        <time>2017-02-26T14:28:50Z</time>
      </trkpt>
      <trkpt lat="50.34586" lon="4.82457">
        <ele>154.43</ele>
        <time>2017-02-26T14:28:56Z</time>
      </trkpt>
      <trkpt lat="50.34571" lon="4.8245">
        <ele>154.43</ele>
        <time>2017-02-26T14:29:11Z</time>
      </trkpt>
      <trkpt lat="50.34571" lon="4.82433">
        <ele>154.43</ele>
        <time>2017-02-26T14:29:25Z</time>
      </trkpt>
      <trkpt lat="50.34572" lon="4.82431">
        <ele>154.43</ele>
        <time>2017-02-26T14:29:27Z</time>
      </trkpt>
      <trkpt lat="50.3458" lon="4.82415">
        <ele>154.43</ele>
        <time>2017-02-26T14:29:40Z</time>
      </trkpt>
      <trkpt lat="50.34584" lon="4.82406">
        <ele>155.39</ele>
        <time>2017-02-26T14:29:47Z</time>
      </trkpt>
      <trkpt lat="50.34592" lon="4.82385">
        <ele>155.87</ele>
        <time>2017-02-26T14:30:01Z</time>
      </trkpt>
      <trkpt lat="50.34592" lon="4.82383">
        <ele>155.87</ele>
        <time>2017-02-26T14:30:02Z</time>
      </trkpt>
      <trkpt lat="50.34598" lon="4.82362">
        <ele>156.83</ele>
        <time>2017-02-26T14:30:15Z</time>
      </trkpt>
      <trkpt lat="50.346" lon="4.82356">
        <ele>156.83</ele>
        <time>2017-02-26T14:30:19Z</time>
      </trkpt>
      <trkpt lat="50.34609" lon="4.82336">
        <ele>158.27</ele>
        <time>2017-02-26T14:30:34Z</time>
      </trkpt>
      <trkpt lat="50.34619" lon="4.82317">
        <ele>158.75</ele>
        <time>2017-02-26T14:30:50Z</time>
      </trkpt>
      <trkpt lat="50.34628" lon="4.82305">
        <ele>159.24</ele>
        <time>2017-02-26T14:31:01Z</time>
      </trkpt>
      <trkpt lat="50.3464" lon="4.82289">
        <ele>160.2</ele>
        <time>2017-02-26T14:31:15Z</time>
      </trkpt>
      <trkpt lat="50.34652" lon="4.82269">
        <ele>160.68</ele>
        <time>2017-02-26T14:31:32Z</time>
      </trkpt>
      <trkpt lat="50.34665" lon="4.8225">
        <ele>162.12</ele>
        <time>2017-02-26T14:31:49Z</time>
      </trkpt>
      <trkpt lat="50.34669" lon="4.82244">
        <ele>162.6</ele>
        <time>2017-02-26T14:31:55Z</time>
      </trkpt>
      <trkpt lat="50.34687" lon="4.82235">
        <ele>163.56</ele>
        <time>2017-02-26T14:32:10Z</time>
      </trkpt>
      <trkpt lat="50.34704" lon="4.82228">
        <ele>163.56</ele>
        <time>2017-02-26T14:32:25Z</time>
      </trkpt>
      <trkpt lat="50.34721" lon="4.82226">
        <ele>164.52</ele>
        <time>2017-02-26T14:32:38Z</time>
      </trkpt>
      <trkpt lat="50.34728" lon="4.82223">
        <ele>164.52</ele>
        <time>2017-02-26T14:32:45Z</time>
      </trkpt>
      <trkpt lat="50.34734" lon="4.82219">
        <ele>164.52</ele>
        <time>2017-02-26T14:32:51Z</time>
      </trkpt>
      <trkpt lat="50.34747" lon="4.8221">
        <ele>165</ele>
        <time>2017-02-26T14:33:06Z</time>
      </trkpt>
      <trkpt lat="50.34755" lon="4.82203">
        <ele>165</ele>
        <time>2017-02-26T14:33:14Z</time>
      </trkpt>
      <trkpt lat="50.34758" lon="4.82201">
        <ele>165</ele>
        <time>2017-02-26T14:33:17Z</time>
      </trkpt>
      <trkpt lat="50.3476" lon="4.82198">
        <ele>165</ele>
        <time>2017-02-26T14:33:20Z</time>
      </trkpt>
      <trkpt lat="50.34778" lon="4.82186">
        <ele>165.48</ele>
        <time>2017-02-26T14:33:36Z</time>
      </trkpt>
      <trkpt lat="50.34794" lon="4.82173">
        <ele>165.96</ele>
        <time>2017-02-26T14:33:52Z</time>
      </trkpt>
      <trkpt lat="50.34808" lon="4.82158">
        <ele>166.93</ele>
        <time>2017-02-26T14:34:08Z</time>
      </trkpt>
      <trkpt lat="50.34821" lon="4.82135">
        <ele>166.93</ele>
        <time>2017-02-26T14:34:24Z</time>
      </trkpt>
      <trkpt lat="50.3483" lon="4.82112">
        <ele>168.37</ele>
        <time>2017-02-26T14:34:40Z</time>
      </trkpt>
      <trkpt lat="50.34837" lon="4.82091">
        <ele>168.85</ele>
        <time>2017-02-26T14:34:53Z</time>
      </trkpt>
      <trkpt lat="50.34844" lon="4.82073">
        <ele>169.81</ele>
        <time>2017-02-26T14:35:07Z</time>
      </trkpt>
      <trkpt lat="50.34853" lon="4.82051">
        <ele>169.81</ele>
        <time>2017-02-26T14:35:22Z</time>
      </trkpt>
      <trkpt lat="50.34863" lon="4.82032">
        <ele>171.25</ele>
        <time>2017-02-26T14:35:37Z</time>
      </trkpt>
      <trkpt lat="50.3487" lon="4.82009">
        <ele>171.73</ele>
        <time>2017-02-26T14:35:52Z</time>
      </trkpt>
      <trkpt lat="50.34876" lon="4.81992">
        <ele>172.21</ele>
        <time>2017-02-26T14:36:08Z</time>
      </trkpt>
      <trkpt lat="50.34879" lon="4.81986">
        <ele>172.69</ele>
        <time>2017-02-26T14:36:22Z</time>
      </trkpt>
      <trkpt lat="50.34887" lon="4.81971">
        <ele>173.17</ele>
        <time>2017-02-26T14:36:40Z</time>
      </trkpt>
      <trkpt lat="50.34887" lon="4.81966">
        <ele>173.17</ele>
        <time>2017-02-26T14:37:01Z</time>
      </trkpt>
      <trkpt lat="50.34894" lon="4.81957">
        <ele>173.66</ele>
        <time>2017-02-26T14:37:18Z</time>
      </trkpt>
      <trkpt lat="50.34902" lon="4.81945">
        <ele>174.14</ele>
        <time>2017-02-26T14:37:31Z</time>
      </trkpt>
      <trkpt lat="50.34907" lon="4.81938">
        <ele>174.14</ele>
        <time>2017-02-26T14:37:48Z</time>
      </trkpt>
      <trkpt lat="50.34912" lon="4.81937">
        <ele>175.58</ele>
        <time>2017-02-26T14:38:01Z</time>
      </trkpt>
      <trkpt lat="50.3492" lon="4.81927">
        <ele>177.02</ele>
        <time>2017-02-26T14:38:17Z</time>
      </trkpt>
      <trkpt lat="50.34927" lon="4.8192">
        <ele>177.98</ele>
        <time>2017-02-26T14:38:34Z</time>
      </trkpt>
      <trkpt lat="50.34939" lon="4.81923">
        <ele>179.42</ele>
        <time>2017-02-26T14:38:51Z</time>
      </trkpt>
      <trkpt lat="50.34951" lon="4.81915">
        <ele>180.38</ele>
        <time>2017-02-26T14:39:05Z</time>
      </trkpt>
      <trkpt lat="50.34953" lon="4.81911">
        <ele>180.38</ele>
        <time>2017-02-26T14:39:18Z</time>
      </trkpt>
      <trkpt lat="50.34948" lon="4.81912">
        <ele>180.87</ele>
        <time>2017-02-26T14:39:38Z</time>
      </trkpt>
      <trkpt lat="50.3495" lon="4.81908">
        <ele>180.87</ele>
        <time>2017-02-26T14:39:59Z</time>
      </trkpt>
      <trkpt lat="50.34951" lon="4.81907">
        <ele>180.87</ele>
        <time>2017-02-26T14:40:16Z</time>
      </trkpt>
      <trkpt lat="50.34949" lon="4.81907">
        <ele>180.87</ele>
        <time>2017-02-26T14:40:36Z</time>
      </trkpt>
      <trkpt lat="50.34949" lon="4.81909">
        <ele>181.83</ele>
        <time>2017-02-26T14:40:51Z</time>
      </trkpt>
      <trkpt lat="50.34954" lon="4.81907">
        <ele>181.83</ele>
        <time>2017-02-26T14:41:07Z</time>
      </trkpt>
      <trkpt lat="50.34953" lon="4.81907">
        <ele>181.83</ele>
        <time>2017-02-26T14:41:26Z</time>
      </trkpt>
      <trkpt lat="50.34952" lon="4.81907">
        <ele>182.31</ele>
        <time>2017-02-26T14:41:48Z</time>
      </trkpt>
      <trkpt lat="50.34951" lon="4.81904">
        <ele>182.31</ele>
        <time>2017-02-26T14:42:13Z</time>
      </trkpt>
      <trkpt lat="50.34952" lon="4.81903">
        <ele>182.31</ele>
        <time>2017-02-26T14:42:32Z</time>
      </trkpt>
      <trkpt lat="50.34952" lon="4.81903">
        <ele>182.31</ele>
        <time>2017-02-26T14:42:51Z</time>
      </trkpt>
      <trkpt lat="50.34951" lon="4.81908">
        <ele>182.31</ele>
        <time>2017-02-26T14:43:06Z</time>
      </trkpt>
      <trkpt lat="50.34951" lon="4.81911">
        <ele>181.35</ele>
        <time>2017-02-26T14:43:25Z</time>
      </trkpt>
      <trkpt lat="50.34951" lon="4.81911">
        <ele>181.35</ele>
        <time>2017-02-26T14:43:42Z</time>
      </trkpt>
      <trkpt lat="50.3495" lon="4.81909">
        <ele>181.35</ele>
        <time>2017-02-26T14:44:07Z</time>
      </trkpt>
      <trkpt lat="50.34951" lon="4.8191">
        <ele>181.35</ele>
        <time>2017-02-26T14:44:24Z</time>
      </trkpt>
      <trkpt lat="50.34952" lon="4.81907">
        <ele>181.35</ele>
        <time>2017-02-26T14:44:39Z</time>
      </trkpt>
      <trkpt lat="50.3495" lon="4.8191">
        <ele>181.35</ele>
        <time>2017-02-26T14:44:56Z</time>
      </trkpt>
      <trkpt lat="50.34952" lon="4.8191">
        <ele>181.35</ele>
        <time>2017-02-26T14:45:12Z</time>
      </trkpt>
      <trkpt lat="50.34952" lon="4.81912">
        <ele>181.35</ele>
        <time>2017-02-26T14:45:24Z</time>
      </trkpt>
      <trkpt lat="50.34951" lon="4.81911">
        <ele>181.83</ele>
        <time>2017-02-26T14:45:50Z</time>
      </trkpt>
      <trkpt lat="50.34949" lon="4.81909">
        <ele>181.83</ele>
        <time>2017-02-26T14:46:09Z</time>
      </trkpt>
      <trkpt lat="50.34951" lon="4.81907">
        <ele>181.83</ele>
        <time>2017-02-26T14:46:34Z</time>
      </trkpt>
      <trkpt lat="50.3495" lon="4.81905">
        <ele>181.83</ele>
        <time>2017-02-26T14:46:54Z</time>
      </trkpt>
      <trkpt lat="50.34949" lon="4.81905">
        <ele>181.83</ele>
        <time>2017-02-26T14:46:56Z</time>
      </trkpt>
      <trkpt lat="50.34945" lon="4.81899">
        <ele>181.83</ele>
        <time>2017-02-26T14:47:02Z</time>
      </trkpt>
      <trkpt lat="50.34935" lon="4.8188">
        <ele>181.83</ele>
        <time>2017-02-26T14:47:17Z</time>
      </trkpt>
      <trkpt lat="50.34926" lon="4.81866">
        <ele>181.83</ele>
        <time>2017-02-26T14:47:31Z</time>
      </trkpt>
      <trkpt lat="50.34914" lon="4.81854">
        <ele>180.87</ele>
        <time>2017-02-26T14:47:44Z</time>
      </trkpt>
      <trkpt lat="50.34899" lon="4.81842">
        <ele>180.87</ele>
        <time>2017-02-26T14:47:58Z</time>
      </trkpt>
      <trkpt lat="50.34885" lon="4.81829">
        <ele>181.83</ele>
        <time>2017-02-26T14:48:13Z</time>
      </trkpt>
      <trkpt lat="50.34877" lon="4.81822">
        <ele>182.31</ele>
        <time>2017-02-26T14:48:20Z</time>
      </trkpt>
      <trkpt lat="50.34875" lon="4.81819">
        <ele>182.31</ele>
        <time>2017-02-26T14:48:23Z</time>
      </trkpt>
      <trkpt lat="50.34866" lon="4.81806">
        <ele>182.31</ele>
        <time>2017-02-26T14:48:33Z</time>
      </trkpt>
      <trkpt lat="50.34854" lon="4.81783">
        <ele>183.27</ele>
        <time>2017-02-26T14:48:49Z</time>
      </trkpt>
      <trkpt lat="50.34844" lon="4.8176">
        <ele>184.71</ele>
        <time>2017-02-26T14:49:05Z</time>
      </trkpt>
      <trkpt lat="50.34833" lon="4.81733">
        <ele>185.67</ele>
        <time>2017-02-26T14:49:22Z</time>
      </trkpt>
      <trkpt lat="50.34824" lon="4.81713">
        <ele>186.63</ele>
        <time>2017-02-26T14:49:36Z</time>
      </trkpt>
      <trkpt lat="50.3482" lon="4.817">
        <ele>187.59</ele>
        <time>2017-02-26T14:49:46Z</time>
      </trkpt>
      <trkpt lat="50.34818" lon="4.81693">
        <ele>188.56</ele>
        <time>2017-02-26T14:49:51Z</time>
      </trkpt>
      <trkpt lat="50.34811" lon="4.81664">
        <ele>189.52</ele>
        <time>2017-02-26T14:50:07Z</time>
      </trkpt>
      <trkpt lat="50.34805" lon="4.8164">
        <ele>190.96</ele>
        <time>2017-02-26T14:50:21Z</time>
      </trkpt>
      <trkpt lat="50.34798" lon="4.81616">
        <ele>192.88</ele>
        <time>2017-02-26T14:50:36Z</time>
      </trkpt>
      <trkpt lat="50.34792" lon="4.81599">
        <ele>193.84</ele>
        <time>2017-02-26T14:50:49Z</time>
      </trkpt>
      <trkpt lat="50.34784" lon="4.81579">
        <ele>195.28</ele>
        <time>2017-02-26T14:51:04Z</time>
      </trkpt>
      <trkpt lat="50.34775" lon="4.81553">
        <ele>196.73</ele>
        <time>2017-02-26T14:51:21Z</time>
      </trkpt>
      <trkpt lat="50.34771" lon="4.81543">
        <ele>197.21</ele>
        <time>2017-02-26T14:51:28Z</time>
      </trkpt>
      <trkpt lat="50.34766" lon="4.81533">
        <ele>198.17</ele>
        <time>2017-02-26T14:51:36Z</time>
      </trkpt>
      <trkpt lat="50.34758" lon="4.81509">
        <ele>199.61</ele>
        <time>2017-02-26T14:51:52Z</time>
      </trkpt>
      <trkpt lat="50.3475" lon="4.81487">
        <ele>200.57</ele>
        <time>2017-02-26T14:52:06Z</time>
      </trkpt>
      <trkpt lat="50.34743" lon="4.81469">
        <ele>202.49</ele>
        <time>2017-02-26T14:52:19Z</time>
      </trkpt>
      <trkpt lat="50.34732" lon="4.81446">
        <ele>202.98</ele>
        <time>2017-02-26T14:52:35Z</time>
      </trkpt>
      <trkpt lat="50.34723" lon="4.81424">
        <ele>204.42</ele>
        <time>2017-02-26T14:52:49Z</time>
      </trkpt>
      <trkpt lat="50.34715" lon="4.81405">
        <ele>205.38</ele>
        <time>2017-02-26T14:53:02Z</time>
      </trkpt>
      <trkpt lat="50.3471" lon="4.81394">
        <ele>205.86</ele>
        <time>2017-02-26T14:53:10Z</time>
      </trkpt>
      <trkpt lat="50.34707" lon="4.81385">
        <ele>206.34</ele>
        <time>2017-02-26T14:53:16Z</time>
      </trkpt>
      <trkpt lat="50.34698" lon="4.81365">
        <ele>207.3</ele>
        <time>2017-02-26T14:53:30Z</time>
      </trkpt>
      <trkpt lat="50.34697" lon="4.81364">
        <ele>207.3</ele>
        <time>2017-02-26T14:53:31Z</time>
      </trkpt>
      <trkpt lat="50.34693" lon="4.81354">
        <ele>208.74</ele>
        <time>2017-02-26T14:53:38Z</time>
      </trkpt>
      <trkpt lat="50.34684" lon="4.81332">
        <ele>209.22</ele>
        <time>2017-02-26T14:53:54Z</time>
      </trkpt>
      <trkpt lat="50.34675" lon="4.8131">
        <ele>211.63</ele>
        <time>2017-02-26T14:54:10Z</time>
      </trkpt>
      <trkpt lat="50.34665" lon="4.81288">
        <ele>213.55</ele>
        <time>2017-02-26T14:54:26Z</time>
      </trkpt>
      <trkpt lat="50.34656" lon="4.81266">
        <ele>214.99</ele>
        <time>2017-02-26T14:54:42Z</time>
      </trkpt>
      <trkpt lat="50.34649" lon="4.81246">
        <ele>216.43</ele>
        <time>2017-02-26T14:54:56Z</time>
      </trkpt>
      <trkpt lat="50.34648" lon="4.81242">
        <ele>216.91</ele>
        <time>2017-02-26T14:54:59Z</time>
      </trkpt>
      <trkpt lat="50.34646" lon="4.8124">
        <ele>216.43</ele>
        <time>2017-02-26T14:55:01Z</time>
      </trkpt>
      <trkpt lat="50.34638" lon="4.81214">
        <ele>218.84</ele>
        <time>2017-02-26T14:55:18Z</time>
      </trkpt>
      <trkpt lat="50.34629" lon="4.81186">
        <ele>221.72</ele>
        <time>2017-02-26T14:55:37Z</time>
      </trkpt>
      <trkpt lat="50.34617" lon="4.81164">
        <ele>222.68</ele>
        <time>2017-02-26T14:55:55Z</time>
      </trkpt>
      <trkpt lat="50.34604" lon="4.81143">
        <ele>223.64</ele>
        <time>2017-02-26T14:56:14Z</time>
      </trkpt>
      <trkpt lat="50.34595" lon="4.81127">
        <ele>224.61</ele>
        <time>2017-02-26T14:56:27Z</time>
      </trkpt>
      <trkpt lat="50.34581" lon="4.81104">
        <ele>226.05</ele>
        <time>2017-02-26T14:56:45Z</time>
      </trkpt>
      <trkpt lat="50.34571" lon="4.81085">
        <ele>227.49</ele>
        <time>2017-02-26T14:57:01Z</time>
      </trkpt>
      <trkpt lat="50.34562" lon="4.81067">
        <ele>228.93</ele>
        <time>2017-02-26T14:57:15Z</time>
      </trkpt>
      <trkpt lat="50.34553" lon="4.81048">
        <ele>230.37</ele>
        <time>2017-02-26T14:57:29Z</time>
      </trkpt>
      <trkpt lat="50.34543" lon="4.81028">
        <ele>231.33</ele>
        <time>2017-02-26T14:57:44Z</time>
      </trkpt>
      <trkpt lat="50.34531" lon="4.81003">
        <ele>232.78</ele>
        <time>2017-02-26T14:58:02Z</time>
      </trkpt>
      <trkpt lat="50.34523" lon="4.80987">
        <ele>233.74</ele>
        <time>2017-02-26T14:58:15Z</time>
      </trkpt>
      <trkpt lat="50.34512" lon="4.80968">
        <ele>234.22</ele>
        <time>2017-02-26T14:58:30Z</time>
      </trkpt>
      <trkpt lat="50.34502" lon="4.80951">
        <ele>234.22</ele>
        <time>2017-02-26T14:58:44Z</time>
      </trkpt>
      <trkpt lat="50.3449" lon="4.80932">
        <ele>234.22</ele>
        <time>2017-02-26T14:58:59Z</time>
      </trkpt>
      <trkpt lat="50.34479" lon="4.80914">
        <ele>234.22</ele>
        <time>2017-02-26T14:59:12Z</time>
      </trkpt>
      <trkpt lat="50.34475" lon="4.80911">
        <ele>232.78</ele>
        <time>2017-02-26T14:59:19Z</time>
      </trkpt>
      <trkpt lat="50.34472" lon="4.80909">
        <ele>232.78</ele>
        <time>2017-02-26T14:59:35Z</time>
      </trkpt>
      <trkpt lat="50.34473" lon="4.80909">
        <ele>232.78</ele>
        <time>2017-02-26T14:59:55Z</time>
      </trkpt>
      <trkpt lat="50.34472" lon="4.80908">
        <ele>232.78</ele>
        <time>2017-02-26T15:00:12Z</time>
      </trkpt>
      <trkpt lat="50.34473" lon="4.80909">
        <ele>232.78</ele>
        <time>2017-02-26T15:00:36Z</time>
      </trkpt>
      <trkpt lat="50.34471" lon="4.8091">
        <ele>232.78</ele>
        <time>2017-02-26T15:00:52Z</time>
      </trkpt>
      <trkpt lat="50.3447" lon="4.80908">
        <ele>232.3</ele>
        <time>2017-02-26T15:01:10Z</time>
      </trkpt>
      <trkpt lat="50.34466" lon="4.80919">
        <ele>232.3</ele>
        <time>2017-02-26T15:01:18Z</time>
      </trkpt>
      <trkpt lat="50.34457" lon="4.80949">
        <ele>234.22</ele>
        <time>2017-02-26T15:01:36Z</time>
      </trkpt>
      <trkpt lat="50.34448" lon="4.80973">
        <ele>236.62</ele>
        <time>2017-02-26T15:01:52Z</time>
      </trkpt>
      <trkpt lat="50.34439" lon="4.80994">
        <ele>238.54</ele>
        <time>2017-02-26T15:02:08Z</time>
      </trkpt>
      <trkpt lat="50.34435" lon="4.81002">
        <ele>239.02</ele>
        <time>2017-02-26T15:02:14Z</time>
      </trkpt>
      <trkpt lat="50.34421" lon="4.81023">
        <ele>240.47</ele>
        <time>2017-02-26T15:02:32Z</time>
      </trkpt>
      <trkpt lat="50.34409" lon="4.81042">
        <ele>240.95</ele>
        <time>2017-02-26T15:02:47Z</time>
      </trkpt>
      <trkpt lat="50.34397" lon="4.81066">
        <ele>240.95</ele>
        <time>2017-02-26T15:03:04Z</time>
      </trkpt>
      <trkpt lat="50.34386" lon="4.8109">
        <ele>239.51</ele>
        <time>2017-02-26T15:03:21Z</time>
      </trkpt>
      <trkpt lat="50.34385" lon="4.81092">
        <ele>239.51</ele>
        <time>2017-02-26T15:03:22Z</time>
      </trkpt>
      <trkpt lat="50.34374" lon="4.81117">
        <ele>240.95</ele>
        <time>2017-02-26T15:03:40Z</time>
      </trkpt>
      <trkpt lat="50.34367" lon="4.81131">
        <ele>240.95</ele>
        <time>2017-02-26T15:03:50Z</time>
      </trkpt>
      <trkpt lat="50.34355" lon="4.81155">
        <ele>240.95</ele>
        <time>2017-02-26T15:04:07Z</time>
      </trkpt>
      <trkpt lat="50.3434" lon="4.8118">
        <ele>241.43</ele>
        <time>2017-02-26T15:04:26Z</time>
      </trkpt>
      <trkpt lat="50.34329" lon="4.81201">
        <ele>242.39</ele>
        <time>2017-02-26T15:04:42Z</time>
      </trkpt>
      <trkpt lat="50.34316" lon="4.81222">
        <ele>242.39</ele>
        <time>2017-02-26T15:04:58Z</time>
      </trkpt>
      <trkpt lat="50.34303" lon="4.8124">
        <ele>240.47</ele>
        <time>2017-02-26T15:05:14Z</time>
      </trkpt>
      <trkpt lat="50.34291" lon="4.81246">
        <ele>239.02</ele>
        <time>2017-02-26T15:05:28Z</time>
      </trkpt>
      <trkpt lat="50.34274" lon="4.81253">
        <ele>236.62</ele>
        <time>2017-02-26T15:05:42Z</time>
      </trkpt>
      <trkpt lat="50.34256" lon="4.81246">
        <ele>234.22</ele>
        <time>2017-02-26T15:05:58Z</time>
      </trkpt>
      <trkpt lat="50.3424" lon="4.81237">
        <ele>232.78</ele>
        <time>2017-02-26T15:06:13Z</time>
      </trkpt>
      <trkpt lat="50.34229" lon="4.81219">
        <ele>231.81</ele>
        <time>2017-02-26T15:06:27Z</time>
      </trkpt>
      <trkpt lat="50.34217" lon="4.81197">
        <ele>230.37</ele>
        <time>2017-02-26T15:06:42Z</time>
      </trkpt>
      <trkpt lat="50.34208" lon="4.81179">
        <ele>228.93</ele>
        <time>2017-02-26T15:06:54Z</time>
      </trkpt>
      <trkpt lat="50.34198" lon="4.81156">
        <ele>227.49</ele>
        <time>2017-02-26T15:07:08Z</time>
      </trkpt>
      <trkpt lat="50.34191" lon="4.81131">
        <ele>226.53</ele>
        <time>2017-02-26T15:07:23Z</time>
      </trkpt>
      <trkpt lat="50.34186" lon="4.81107">
        <ele>224.61</ele>
        <time>2017-02-26T15:07:37Z</time>
      </trkpt>
      <trkpt lat="50.3418" lon="4.81081">
        <ele>223.64</ele>
        <time>2017-02-26T15:07:53Z</time>
      </trkpt>
      <trkpt lat="50.34171" lon="4.81061">
        <ele>223.16</ele>
        <time>2017-02-26T15:08:08Z</time>
      </trkpt>
      <trkpt lat="50.34159" lon="4.81037">
        <ele>221.72</ele>
        <time>2017-02-26T15:08:24Z</time>
      </trkpt>
      <trkpt lat="50.34148" lon="4.81016">
        <ele>220.28</ele>
        <time>2017-02-26T15:08:38Z</time>
      </trkpt>
      <trkpt lat="50.34144" lon="4.8101">
        <ele>219.8</ele>
        <time>2017-02-26T15:08:43Z</time>
      </trkpt>
      <trkpt lat="50.34133" lon="4.80991">
        <ele>218.36</ele>
        <time>2017-02-26T15:08:57Z</time>
      </trkpt>
      <trkpt lat="50.34128" lon="4.80985">
        <ele>217.88</ele>
        <time>2017-02-26T15:09:03Z</time>
      </trkpt>
      <trkpt lat="50.34125" lon="4.8098">
        <ele>216.91</ele>
        <time>2017-02-26T15:09:07Z</time>
      </trkpt>
      <trkpt lat="50.34111" lon="4.80962">
        <ele>215.95</ele>
        <time>2017-02-26T15:09:22Z</time>
      </trkpt>
      <trkpt lat="50.34104" lon="4.80952">
        <ele>214.99</ele>
        <time>2017-02-26T15:09:30Z</time>
      </trkpt>
      <trkpt lat="50.341" lon="4.80948">
        <ele>214.51</ele>
        <time>2017-02-26T15:09:35Z</time>
      </trkpt>
      <trkpt lat="50.34097" lon="4.80944">
        <ele>214.03</ele>
        <time>2017-02-26T15:09:39Z</time>
      </trkpt>
      <trkpt lat="50.34083" lon="4.80926">
        <ele>212.59</ele>
        <time>2017-02-26T15:09:55Z</time>
      </trkpt>
      <trkpt lat="50.34071" lon="4.80904">
        <ele>212.11</ele>
        <time>2017-02-26T15:10:11Z</time>
      </trkpt>
      <trkpt lat="50.34058" lon="4.80885">
        <ele>210.19</ele>
        <time>2017-02-26T15:10:25Z</time>
      </trkpt>
      <trkpt lat="50.34053" lon="4.80876">
        <ele>209.7</ele>
        <time>2017-02-26T15:10:32Z</time>
      </trkpt>
      <trkpt lat="50.34043" lon="4.80859">
        <ele>208.74</ele>
        <time>2017-02-26T15:10:44Z</time>
      </trkpt>
      <trkpt lat="50.34038" lon="4.8085">
        <ele>208.26</ele>
        <time>2017-02-26T15:10:51Z</time>
      </trkpt>
      <trkpt lat="50.34028" lon="4.80829">
        <ele>207.78</ele>
        <time>2017-02-26T15:11:07Z</time>
      </trkpt>
      <trkpt lat="50.3402" lon="4.80808">
        <ele>206.34</ele>
        <time>2017-02-26T15:11:22Z</time>
      </trkpt>
      <trkpt lat="50.34012" lon="4.80785">
        <ele>205.86</ele>
        <time>2017-02-26T15:11:38Z</time>
      </trkpt>
      <trkpt lat="50.34009" lon="4.8078">
        <ele>205.38</ele>
        <time>2017-02-26T15:11:42Z</time>
      </trkpt>
      <trkpt lat="50.33997" lon="4.80759">
        <ele>205.38</ele>
        <time>2017-02-26T15:11:59Z</time>
      </trkpt>
      <trkpt lat="50.33994" lon="4.80756">
        <ele>205.38</ele>
        <time>2017-02-26T15:12:02Z</time>
      </trkpt>
      <trkpt lat="50.33988" lon="4.80726">
        <ele>205.38</ele>
        <time>2017-02-26T15:12:16Z</time>
      </trkpt>
      <trkpt lat="50.33988" lon="4.80723">
        <ele>205.38</ele>
        <time>2017-02-26T15:12:18Z</time>
      </trkpt>
      <trkpt lat="50.33987" lon="4.80719">
        <ele>205.38</ele>
        <time>2017-02-26T15:12:20Z</time>
      </trkpt>
      <trkpt lat="50.33981" lon="4.80692">
        <ele>205.38</ele>
        <time>2017-02-26T15:12:35Z</time>
      </trkpt>
      <trkpt lat="50.33975" lon="4.80671">
        <ele>205.38</ele>
        <time>2017-02-26T15:12:49Z</time>
      </trkpt>
      <trkpt lat="50.3397" lon="4.80647">
        <ele>206.82</ele>
        <time>2017-02-26T15:13:04Z</time>
      </trkpt>
      <trkpt lat="50.33965" lon="4.8062">
        <ele>207.3</ele>
        <time>2017-02-26T15:13:19Z</time>
      </trkpt>
      <trkpt lat="50.33958" lon="4.80593">
        <ele>208.26</ele>
        <time>2017-02-26T15:13:37Z</time>
      </trkpt>
      <trkpt lat="50.33952" lon="4.80565">
        <ele>208.74</ele>
        <time>2017-02-26T15:13:54Z</time>
      </trkpt>
      <trkpt lat="50.33946" lon="4.8054">
        <ele>210.19</ele>
        <time>2017-02-26T15:14:10Z</time>
      </trkpt>
      <trkpt lat="50.3394" lon="4.80519">
        <ele>211.15</ele>
        <time>2017-02-26T15:14:24Z</time>
      </trkpt>
      <trkpt lat="50.33933" lon="4.80496">
        <ele>212.59</ele>
        <time>2017-02-26T15:14:40Z</time>
      </trkpt>
      <trkpt lat="50.33925" lon="4.80473">
        <ele>214.03</ele>
        <time>2017-02-26T15:14:55Z</time>
      </trkpt>
      <trkpt lat="50.33915" lon="4.80454">
        <ele>214.03</ele>
        <time>2017-02-26T15:15:09Z</time>
      </trkpt>
      <trkpt lat="50.33907" lon="4.80439">
        <ele>214.99</ele>
        <time>2017-02-26T15:15:21Z</time>
      </trkpt>
      <trkpt lat="50.33901" lon="4.80427">
        <ele>215.95</ele>
        <time>2017-02-26T15:15:29Z</time>
      </trkpt>
      <trkpt lat="50.33893" lon="4.8041">
        <ele>216.43</ele>
        <time>2017-02-26T15:15:42Z</time>
      </trkpt>
      <trkpt lat="50.33883" lon="4.8039">
        <ele>217.88</ele>
        <time>2017-02-26T15:15:58Z</time>
      </trkpt>
      <trkpt lat="50.33879" lon="4.80377">
        <ele>217.88</ele>
        <time>2017-02-26T15:16:06Z</time>
      </trkpt>
      <trkpt lat="50.33874" lon="4.80371">
        <ele>218.36</ele>
        <time>2017-02-26T15:16:12Z</time>
      </trkpt>
      <trkpt lat="50.33862" lon="4.80351">
        <ele>218.84</ele>
        <time>2017-02-26T15:16:28Z</time>
      </trkpt>
      <trkpt lat="50.33849" lon="4.80328">
        <ele>218.84</ele>
        <time>2017-02-26T15:16:44Z</time>
      </trkpt>
      <trkpt lat="50.33839" lon="4.80301">
        <ele>218.84</ele>
        <time>2017-02-26T15:16:59Z</time>
      </trkpt>
      <trkpt lat="50.33833" lon="4.80271">
        <ele>219.32</ele>
        <time>2017-02-26T15:17:14Z</time>
      </trkpt>
      <trkpt lat="50.33832" lon="4.80252">
        <ele>219.32</ele>
        <time>2017-02-26T15:17:24Z</time>
      </trkpt>
      <trkpt lat="50.33831" lon="4.80242">
        <ele>219.32</ele>
        <time>2017-02-26T15:17:29Z</time>
      </trkpt>
      <trkpt lat="50.33831" lon="4.80233">
        <ele>219.32</ele>
        <time>2017-02-26T15:17:34Z</time>
      </trkpt>
      <trkpt lat="50.33829" lon="4.802">
        <ele>219.32</ele>
        <time>2017-02-26T15:17:51Z</time>
      </trkpt>
      <trkpt lat="50.33826" lon="4.80167">
        <ele>219.32</ele>
        <time>2017-02-26T15:18:08Z</time>
      </trkpt>
      <trkpt lat="50.33823" lon="4.80139">
        <ele>219.32</ele>
        <time>2017-02-26T15:18:23Z</time>
      </trkpt>
      <trkpt lat="50.3382" lon="4.80107">
        <ele>219.8</ele>
        <time>2017-02-26T15:18:40Z</time>
      </trkpt>
      <trkpt lat="50.33819" lon="4.80085">
        <ele>220.28</ele>
        <time>2017-02-26T15:18:51Z</time>
      </trkpt>
      <trkpt lat="50.33815" lon="4.80057">
        <ele>220.76</ele>
        <time>2017-02-26T15:19:07Z</time>
      </trkpt>
      <trkpt lat="50.33809" lon="4.80043">
        <ele>221.72</ele>
        <time>2017-02-26T15:19:23Z</time>
      </trkpt>
      <trkpt lat="50.33811" lon="4.80042">
        <ele>221.72</ele>
        <time>2017-02-26T15:19:41Z</time>
      </trkpt>
      <trkpt lat="50.33809" lon="4.80042">
        <ele>221.72</ele>
        <time>2017-02-26T15:20:03Z</time>
      </trkpt>
      <trkpt lat="50.33808" lon="4.8004">
        <ele>221.72</ele>
        <time>2017-02-26T15:20:18Z</time>
      </trkpt>
      <trkpt lat="50.33806" lon="4.80041">
        <ele>221.72</ele>
        <time>2017-02-26T15:20:33Z</time>
      </trkpt>
      <trkpt lat="50.33806" lon="4.80039">
        <ele>221.72</ele>
        <time>2017-02-26T15:20:49Z</time>
      </trkpt>
      <trkpt lat="50.33807" lon="4.80039">
        <ele>221.72</ele>
        <time>2017-02-26T15:21:10Z</time>
      </trkpt>
      <trkpt lat="50.33808" lon="4.8004">
        <ele>221.72</ele>
        <time>2017-02-26T15:21:32Z</time>
      </trkpt>
      <trkpt lat="50.33808" lon="4.8004">
        <ele>222.2</ele>
        <time>2017-02-26T15:21:51Z</time>
      </trkpt>
      <trkpt lat="50.33808" lon="4.80039">
        <ele>222.2</ele>
        <time>2017-02-26T15:22:11Z</time>
      </trkpt>
      <trkpt lat="50.33805" lon="4.80038">
        <ele>222.2</ele>
        <time>2017-02-26T15:22:30Z</time>
      </trkpt>
      <trkpt lat="50.33806" lon="4.80039">
        <ele>222.2</ele>
        <time>2017-02-26T15:22:53Z</time>
      </trkpt>
      <trkpt lat="50.33806" lon="4.8004">
        <ele>222.2</ele>
        <time>2017-02-26T15:23:12Z</time>
      </trkpt>
      <trkpt lat="50.33806" lon="4.80036">
        <ele>222.2</ele>
        <time>2017-02-26T15:23:29Z</time>
      </trkpt>
      <trkpt lat="50.33799" lon="4.8004">
        <ele>221.24</ele>
        <time>2017-02-26T15:23:44Z</time>
      </trkpt>
      <trkpt lat="50.33794" lon="4.80045">
        <ele>221.24</ele>
        <time>2017-02-26T15:23:51Z</time>
      </trkpt>
      <trkpt lat="50.33786" lon="4.80049">
        <ele>220.28</ele>
        <time>2017-02-26T15:23:59Z</time>
      </trkpt>
      <trkpt lat="50.33776" lon="4.80051">
        <ele>219.8</ele>
        <time>2017-02-26T15:24:10Z</time>
      </trkpt>
      <trkpt lat="50.33772" lon="4.80051">
        <ele>219.32</ele>
        <time>2017-02-26T15:24:14Z</time>
      </trkpt>
      <trkpt lat="50.33762" lon="4.80047">
        <ele>217.88</ele>
        <time>2017-02-26T15:24:24Z</time>
      </trkpt>
      <trkpt lat="50.33745" lon="4.80029">
        <ele>216.43</ele>
        <time>2017-02-26T15:24:42Z</time>
      </trkpt>
      <trkpt lat="50.3373" lon="4.80014">
        <ele>214.51</ele>
        <time>2017-02-26T15:24:57Z</time>
      </trkpt>
      <trkpt lat="50.33716" lon="4.80004">
        <ele>213.55</ele>
        <time>2017-02-26T15:25:12Z</time>
      </trkpt>
      <trkpt lat="50.33704" lon="4.79995">
        <ele>211.63</ele>
        <time>2017-02-26T15:25:25Z</time>
      </trkpt>
      <trkpt lat="50.33691" lon="4.79981">
        <ele>211.15</ele>
        <time>2017-02-26T15:25:41Z</time>
      </trkpt>
      <trkpt lat="50.33683" lon="4.79957">
        <ele>210.19</ele>
        <time>2017-02-26T15:25:56Z</time>
      </trkpt>
      <trkpt lat="50.33682" lon="4.79956">
        <ele>210.19</ele>
        <time>2017-02-26T15:25:57Z</time>
      </trkpt>
      <trkpt lat="50.33681" lon="4.79949">
        <ele>209.7</ele>
        <time>2017-02-26T15:26:01Z</time>
      </trkpt>
      <trkpt lat="50.33676" lon="4.79921">
        <ele>209.7</ele>
        <time>2017-02-26T15:26:17Z</time>
      </trkpt>
      <trkpt lat="50.33673" lon="4.79905">
        <ele>209.7</ele>
        <time>2017-02-26T15:26:30Z</time>
      </trkpt>
      <trkpt lat="50.33672" lon="4.79899">
        <ele>209.7</ele>
        <time>2017-02-26T15:26:33Z</time>
      </trkpt>
      <trkpt lat="50.33671" lon="4.79891">
        <ele>209.7</ele>
        <time>2017-02-26T15:26:37Z</time>
      </trkpt>
      <trkpt lat="50.33666" lon="4.79865">
        <ele>209.7</ele>
        <time>2017-02-26T15:26:53Z</time>
      </trkpt>
      <trkpt lat="50.33665" lon="4.79857">
        <ele>210.67</ele>
        <time>2017-02-26T15:26:57Z</time>
      </trkpt>
      <trkpt lat="50.3366" lon="4.79834">
        <ele>211.63</ele>
        <time>2017-02-26T15:27:11Z</time>
      </trkpt>
      <trkpt lat="50.33655" lon="4.79802">
        <ele>212.11</ele>
        <time>2017-02-26T15:27:27Z</time>
      </trkpt>
      <trkpt lat="50.33651" lon="4.79769">
        <ele>213.55</ele>
        <time>2017-02-26T15:27:43Z</time>
      </trkpt>
      <trkpt lat="50.33659" lon="4.7975">
        <ele>214.99</ele>
        <time>2017-02-26T15:27:58Z</time>
      </trkpt>
      <trkpt lat="50.33668" lon="4.79738">
        <ele>214.99</ele>
        <time>2017-02-26T15:28:09Z</time>
      </trkpt>
      <trkpt lat="50.33678" lon="4.79723">
        <ele>215.47</ele>
        <time>2017-02-26T15:28:21Z</time>
      </trkpt>
      <trkpt lat="50.33682" lon="4.79701">
        <ele>215.47</ele>
        <time>2017-02-26T15:28:35Z</time>
      </trkpt>
      <trkpt lat="50.3368" lon="4.7969">
        <ele>215.95</ele>
        <time>2017-02-26T15:28:48Z</time>
      </trkpt>
      <trkpt lat="50.33679" lon="4.79682">
        <ele>215.95</ele>
        <time>2017-02-26T15:28:54Z</time>
      </trkpt>
      <trkpt lat="50.33676" lon="4.79656">
        <ele>215.95</ele>
        <time>2017-02-26T15:29:09Z</time>
      </trkpt>
      <trkpt lat="50.33673" lon="4.79629">
        <ele>217.4</ele>
        <time>2017-02-26T15:29:25Z</time>
      </trkpt>
      <trkpt lat="50.33672" lon="4.79614">
        <ele>217.88</ele>
        <time>2017-02-26T15:29:35Z</time>
      </trkpt>
      <trkpt lat="50.3367" lon="4.79587">
        <ele>219.8</ele>
        <time>2017-02-26T15:29:53Z</time>
      </trkpt>
      <trkpt lat="50.33671" lon="4.79568">
        <ele>220.76</ele>
        <time>2017-02-26T15:30:03Z</time>
      </trkpt>
      <trkpt lat="50.3367" lon="4.79558">
        <ele>221.72</ele>
        <time>2017-02-26T15:30:09Z</time>
      </trkpt>
      <trkpt lat="50.33664" lon="4.79534">
        <ele>223.16</ele>
        <time>2017-02-26T15:30:26Z</time>
      </trkpt>
      <trkpt lat="50.33661" lon="4.79525">
        <ele>223.64</ele>
        <time>2017-02-26T15:30:33Z</time>
      </trkpt>
      <trkpt lat="50.33654" lon="4.79499">
        <ele>225.09</ele>
        <time>2017-02-26T15:30:50Z</time>
      </trkpt>
      <trkpt lat="50.33652" lon="4.79492">
        <ele>225.57</ele>
        <time>2017-02-26T15:30:54Z</time>
      </trkpt>
      <trkpt lat="50.33652" lon="4.79488">
        <ele>225.57</ele>
        <time>2017-02-26T15:30:56Z</time>
      </trkpt>
      <trkpt lat="50.33647" lon="4.79473">
        <ele>226.53</ele>
        <time>2017-02-26T15:31:06Z</time>
      </trkpt>
      <trkpt lat="50.33641" lon="4.79448">
        <ele>227.49</ele>
        <time>2017-02-26T15:31:22Z</time>
      </trkpt>
      <trkpt lat="50.33637" lon="4.79423">
        <ele>228.45</ele>
        <time>2017-02-26T15:31:38Z</time>
      </trkpt>
      <trkpt lat="50.33636" lon="4.7942">
        <ele>229.41</ele>
        <time>2017-02-26T15:31:40Z</time>
      </trkpt>
      <trkpt lat="50.33635" lon="4.79417">
        <ele>229.41</ele>
        <time>2017-02-26T15:31:42Z</time>
      </trkpt>
      <trkpt lat="50.33634" lon="4.79392">
        <ele>230.85</ele>
        <time>2017-02-26T15:31:58Z</time>
      </trkpt>
      <trkpt lat="50.33632" lon="4.7938">
        <ele>231.33</ele>
        <time>2017-02-26T15:32:05Z</time>
      </trkpt>
      <trkpt lat="50.33627" lon="4.79363">
        <ele>231.81</ele>
        <time>2017-02-26T15:32:16Z</time>
      </trkpt>
      <trkpt lat="50.33625" lon="4.79352">
        <ele>233.26</ele>
        <time>2017-02-26T15:32:23Z</time>
      </trkpt>
      <trkpt lat="50.33619" lon="4.79332">
        <ele>234.22</ele>
        <time>2017-02-26T15:32:37Z</time>
      </trkpt>
      <trkpt lat="50.33612" lon="4.79309">
        <ele>236.14</ele>
        <time>2017-02-26T15:32:53Z</time>
      </trkpt>
      <trkpt lat="50.33607" lon="4.79296">
        <ele>237.58</ele>
        <time>2017-02-26T15:33:04Z</time>
      </trkpt>
      <trkpt lat="50.33606" lon="4.79288">
        <ele>238.54</ele>
        <time>2017-02-26T15:33:10Z</time>
      </trkpt>
      <trkpt lat="50.33606" lon="4.79283">
        <ele>239.02</ele>
        <time>2017-02-26T15:33:13Z</time>
      </trkpt>
      <trkpt lat="50.33604" lon="4.79275">
        <ele>239.51</ele>
        <time>2017-02-26T15:33:18Z</time>
      </trkpt>
      <trkpt lat="50.33594" lon="4.79255">
        <ele>240.95</ele>
        <time>2017-02-26T15:33:33Z</time>
      </trkpt>
      <trkpt lat="50.33584" lon="4.79244">
        <ele>241.43</ele>
        <time>2017-02-26T15:33:45Z</time>
      </trkpt>
      <trkpt lat="50.33582" lon="4.7924">
        <ele>241.43</ele>
        <time>2017-02-26T15:33:48Z</time>
      </trkpt>
      <trkpt lat="50.3358" lon="4.79237">
        <ele>241.91</ele>
        <time>2017-02-26T15:33:51Z</time>
      </trkpt>
      <trkpt lat="50.33567" lon="4.79218">
        <ele>242.87</ele>
        <time>2017-02-26T15:34:08Z</time>
      </trkpt>
      <trkpt lat="50.33558" lon="4.79204">
        <ele>244.31</ele>
        <time>2017-02-26T15:34:21Z</time>
      </trkpt>
      <trkpt lat="50.33553" lon="4.79194">
        <ele>245.27</ele>
        <time>2017-02-26T15:34:28Z</time>
      </trkpt>
      <trkpt lat="50.33547" lon="4.792">
        <ele>244.79</ele>
        <time>2017-02-26T15:34:42Z</time>
      </trkpt>
      <trkpt lat="50.33548" lon="4.79199">
        <ele>244.79</ele>
        <time>2017-02-26T15:34:54Z</time>
      </trkpt>
      <trkpt lat="50.33551" lon="4.79198">
        <ele>244.79</ele>
        <time>2017-02-26T15:35:12Z</time>
      </trkpt>
      <trkpt lat="50.33551" lon="4.79199">
        <ele>245.27</ele>
        <time>2017-02-26T15:35:28Z</time>
      </trkpt>
      <trkpt lat="50.33549" lon="4.79201">
        <ele>245.27</ele>
        <time>2017-02-26T15:35:50Z</time>
      </trkpt>
      <trkpt lat="50.33549" lon="4.79206">
        <ele>245.27</ele>
        <time>2017-02-26T15:36:07Z</time>
      </trkpt>
      <trkpt lat="50.33551" lon="4.79205">
        <ele>245.75</ele>
        <time>2017-02-26T15:36:22Z</time>
      </trkpt>
      <trkpt lat="50.33546" lon="4.79203">
        <ele>245.75</ele>
        <time>2017-02-26T15:36:36Z</time>
      </trkpt>
      <trkpt lat="50.33535" lon="4.79209">
        <ele>244.79</ele>
        <time>2017-02-26T15:36:49Z</time>
      </trkpt>
      <trkpt lat="50.3353" lon="4.7923">
        <ele>243.35</ele>
        <time>2017-02-26T15:37:03Z</time>
      </trkpt>
      <trkpt lat="50.33526" lon="4.79254">
        <ele>243.35</ele>
        <time>2017-02-26T15:37:17Z</time>
      </trkpt>
      <trkpt lat="50.33523" lon="4.79268">
        <ele>242.87</ele>
        <time>2017-02-26T15:37:24Z</time>
      </trkpt>
      <trkpt lat="50.33517" lon="4.79293">
        <ele>241.91</ele>
        <time>2017-02-26T15:37:38Z</time>
      </trkpt>
      <trkpt lat="50.33512" lon="4.79314">
        <ele>240.95</ele>
        <time>2017-02-26T15:37:52Z</time>
      </trkpt>
      <trkpt lat="50.33511" lon="4.79329">
        <ele>240.95</ele>
        <time>2017-02-26T15:38:03Z</time>
      </trkpt>
      <trkpt lat="50.33512" lon="4.79336">
        <ele>240.95</ele>
        <time>2017-02-26T15:38:07Z</time>
      </trkpt>
      <trkpt lat="50.33511" lon="4.79367">
        <ele>239.99</ele>
        <time>2017-02-26T15:38:23Z</time>
      </trkpt>
      <trkpt lat="50.33509" lon="4.79387">
        <ele>239.51</ele>
        <time>2017-02-26T15:38:34Z</time>
      </trkpt>
      <trkpt lat="50.33508" lon="4.7941">
        <ele>238.54</ele>
        <time>2017-02-26T15:38:47Z</time>
      </trkpt>
      <trkpt lat="50.33508" lon="4.79412">
        <ele>238.06</ele>
        <time>2017-02-26T15:38:48Z</time>
      </trkpt>
      <trkpt lat="50.33507" lon="4.79415">
        <ele>238.06</ele>
        <time>2017-02-26T15:38:50Z</time>
      </trkpt>
      <trkpt lat="50.33502" lon="4.79436">
        <ele>237.1</ele>
        <time>2017-02-26T15:39:04Z</time>
      </trkpt>
      <trkpt lat="50.33496" lon="4.79457">
        <ele>236.14</ele>
        <time>2017-02-26T15:39:17Z</time>
      </trkpt>
      <trkpt lat="50.33489" lon="4.79485">
        <ele>235.18</ele>
        <time>2017-02-26T15:39:34Z</time>
      </trkpt>
      <trkpt lat="50.33482" lon="4.79504">
        <ele>233.74</ele>
        <time>2017-02-26T15:39:50Z</time>
      </trkpt>
      <trkpt lat="50.33475" lon="4.79536">
        <ele>230.85</ele>
        <time>2017-02-26T15:40:06Z</time>
      </trkpt>
      <trkpt lat="50.33469" lon="4.79565">
        <ele>229.41</ele>
        <time>2017-02-26T15:40:21Z</time>
      </trkpt>
      <trkpt lat="50.33465" lon="4.79583">
        <ele>228.45</ele>
        <time>2017-02-26T15:40:32Z</time>
      </trkpt>
      <trkpt lat="50.33459" lon="4.79603">
        <ele>225.09</ele>
        <time>2017-02-26T15:40:45Z</time>
      </trkpt>
      <trkpt lat="50.33456" lon="4.79618">
        <ele>227.01</ele>
        <time>2017-02-26T15:40:58Z</time>
      </trkpt>
      <trkpt lat="50.33452" lon="4.79633">
        <ele>225.09</ele>
        <time>2017-02-26T15:41:09Z</time>
      </trkpt>
      <trkpt lat="50.33444" lon="4.79645">
        <ele>223.16</ele>
        <time>2017-02-26T15:41:20Z</time>
      </trkpt>
      <trkpt lat="50.33442" lon="4.79667">
        <ele>222.2</ele>
        <time>2017-02-26T15:41:33Z</time>
      </trkpt>
      <trkpt lat="50.33443" lon="4.7967">
        <ele>221.24</ele>
        <time>2017-02-26T15:41:35Z</time>
      </trkpt>
      <trkpt lat="50.33453" lon="4.79687">
        <ele>220.76</ele>
        <time>2017-02-26T15:41:50Z</time>
      </trkpt>
      <trkpt lat="50.33455" lon="4.79702">
        <ele>220.28</ele>
        <time>2017-02-26T15:42:03Z</time>
      </trkpt>
      <trkpt lat="50.33455" lon="4.7972">
        <ele>221.72</ele>
        <time>2017-02-26T15:42:17Z</time>
      </trkpt>
      <trkpt lat="50.33449" lon="4.79723">
        <ele>220.76</ele>
        <time>2017-02-26T15:42:27Z</time>
      </trkpt>
      <trkpt lat="50.33447" lon="4.79727">
        <ele>220.28</ele>
        <time>2017-02-26T15:42:33Z</time>
      </trkpt>
      <trkpt lat="50.33443" lon="4.79728">
        <ele>220.28</ele>
        <time>2017-02-26T15:42:43Z</time>
      </trkpt>
      <trkpt lat="50.33439" lon="4.7973">
        <ele>222.2</ele>
        <time>2017-02-26T15:42:58Z</time>
      </trkpt>
      <trkpt lat="50.33436" lon="4.79731">
        <ele>222.2</ele>
        <time>2017-02-26T15:43:13Z</time>
      </trkpt>
      <trkpt lat="50.33436" lon="4.79732">
        <ele>222.2</ele>
        <time>2017-02-26T15:43:29Z</time>
      </trkpt>
      <trkpt lat="50.33434" lon="4.79733">
        <ele>222.2</ele>
        <time>2017-02-26T15:43:46Z</time>
      </trkpt>
      <trkpt lat="50.33436" lon="4.79731">
        <ele>222.2</ele>
        <time>2017-02-26T15:44:10Z</time>
      </trkpt>
    </trkseg>
  </trk>
</gpx>